PWSweather.com
Personal Weather Stations
Station Observations
KCOFALCO8
Falcon Hills, Falcon, CO 80831

Falcon HillsFalcon, CO 80831

Lat: 38.979792, Lon: -104.61195

Elevation: 7170

Station Type: AcuRite Pro 5-in-1

http://wx.frazierhome.net/

High Low Average
Temperature 48.2°F9.0°C 21.9°F-5.6°C 35.7°F2.1°C
Dew Point 25.3°F-3.7°C 12.7°F-10.7°C 20.9°F-6.2°C
Winds 17.0 mph 27.4 kmh Calm Calm 5.0 mph SSW8.0 kmh SSW
Wind Gusts -- -- --
Humidity 91% 25% 59%
Pressure 30.28 in1025.4 mb 30.17 in1021.7 mb -
Precipitation 0.00 in0.0 mm - -
Hour Temp Dew Point Humidity Winds Wind Gusts Pressure Precip Precip Rate Daily Precip Total
12:01 AM 28.6°F-1.9°C 19.9°F-6.7°C 70% 3.0 mph SSE4.8 kmh SSE -- 30.23 in1023.7 mb 0.00 in0.0 mm 0.00 in0.0 mm 0.00 in0.0 mm
12:02 AM 28.6°F-1.9°C 19.9°F-6.7°C 70% 3.0 mph SE4.8 kmh SE -- 30.23 in1023.7 mb 0.00 in0.0 mm 0.00 in0.0 mm 0.00 in0.0 mm
12:03 AM 28.6°F-1.9°C 19.9°F-6.7°C 70% 2.0 mph SE3.2 kmh SE -- 30.23 in1023.7 mb 0.00 in0.0 mm 0.00 in0.0 mm 0.00 in0.0 mm
12:04 AM 28.6°F-1.9°C 19.9°F-6.7°C 70% 2.0 mph S3.2 kmh S -- 30.23 in1023.7 mb 0.00 in0.0 mm 0.00 in0.0 mm 0.00 in0.0 mm
12:06 AM 28.6°F-1.9°C 19.9°F-6.7°C 70% 3.0 mph S4.8 kmh S -- 30.23 in1023.7 mb 0.00 in0.0 mm 0.00 in0.0 mm 0.00 in0.0 mm
12:07 AM 28.6°F-1.9°C 19.9°F-6.7°C 70% 3.0 mph SSE4.8 kmh SSE -- 30.23 in1023.7 mb 0.00 in0.0 mm 0.00 in0.0 mm 0.00 in0.0 mm
12:08 AM 28.7°F-1.8°C 20.1°F-6.6°C 70% 3.0 mph SSE4.8 kmh SSE -- 30.23 in1023.7 mb 0.00 in0.0 mm 0.00 in0.0 mm 0.00 in0.0 mm
12:09 AM 28.7°F-1.8°C 20.1°F-6.6°C 70% 2.0 mph SSE3.2 kmh SSE -- 30.23 in1023.7 mb 0.00 in0.0 mm 0.00 in0.0 mm 0.00 in0.0 mm
12:11 AM 28.7°F-1.8°C 20.1°F-6.6°C 70% 3.0 mph S4.8 kmh S -- 30.23 in1023.7 mb 0.00 in0.0 mm 0.00 in0.0 mm 0.00 in0.0 mm
12:12 AM 28.7°F-1.8°C 20.1°F-6.6°C 70% 2.0 mph SSW3.2 kmh SSW -- 30.23 in1023.7 mb 0.00 in0.0 mm 0.00 in0.0 mm 0.00 in0.0 mm
12:13 AM 28.7°F-1.8°C 20.1°F-6.6°C 70% 3.0 mph SSW4.8 kmh SSW -- 30.23 in1023.7 mb 0.00 in0.0 mm 0.00 in0.0 mm 0.00 in0.0 mm
12:14 AM 28.7°F-1.8°C 20.1°F-6.6°C 70% 1.0 mph SSE1.6 kmh SSE -- 30.23 in1023.7 mb 0.00 in0.0 mm 0.00 in0.0 mm 0.00 in0.0 mm
12:15 AM 28.6°F-1.9°C 19.9°F-6.7°C 70% 2.0 mph SSE3.2 kmh SSE -- 30.23 in1023.7 mb 0.00 in0.0 mm 0.00 in0.0 mm 0.00 in0.0 mm
12:16 AM 28.6°F-1.9°C 19.9°F-6.7°C 70% 2.0 mph S3.2 kmh S -- 30.23 in1023.7 mb 0.00 in0.0 mm 0.00 in0.0 mm 0.00 in0.0 mm
12:17 AM 28.6°F-1.9°C 19.9°F-6.7°C 70% 2.0 mph SSE3.2 kmh SSE -- 30.23 in1023.7 mb 0.00 in0.0 mm 0.00 in0.0 mm 0.00 in0.0 mm
12:19 AM 28.6°F-1.9°C 19.9°F-6.7°C 70% 2.0 mph S3.2 kmh S -- 30.23 in1023.7 mb 0.00 in0.0 mm 0.00 in0.0 mm 0.00 in0.0 mm
12:20 AM 28.3°F-2.1°C 19.6°F-6.9°C 70% 2.0 mph SSW3.2 kmh SSW -- 30.23 in1023.7 mb 0.00 in0.0 mm 0.00 in0.0 mm 0.00 in0.0 mm
12:21 AM 28.3°F-2.1°C 19.6°F-6.9°C 70% 2.0 mph SE3.2 kmh SE -- 30.23 in1023.7 mb 0.00 in0.0 mm 0.00 in0.0 mm 0.00 in0.0 mm
12:22 AM 28.3°F-2.1°C 19.9°F-6.7°C 71% 2.0 mph SSE3.2 kmh SSE -- 30.23 in1023.7 mb 0.00 in0.0 mm 0.00 in0.0 mm 0.00 in0.0 mm
12:23 AM 28.2°F-2.1°C 19.9°F-6.7°C 71% 2.0 mph ESE3.2 kmh ESE -- 30.23 in1023.7 mb 0.00 in0.0 mm 0.00 in0.0 mm 0.00 in0.0 mm
12:24 AM 28.2°F-2.1°C 19.9°F-6.7°C 71% 3.0 mph SE4.8 kmh SE -- 30.23 in1023.7 mb 0.00 in0.0 mm 0.00 in0.0 mm 0.00 in0.0 mm
12:25 AM 28.2°F-2.1°C 19.9°F-6.7°C 71% 2.0 mph SSE3.2 kmh SSE -- 30.23 in1023.7 mb 0.00 in0.0 mm 0.00 in0.0 mm 0.00 in0.0 mm
12:26 AM 28.2°F-2.1°C 19.9°F-6.7°C 71% 3.0 mph S4.8 kmh S -- 30.23 in1023.7 mb 0.00 in0.0 mm 0.00 in0.0 mm 0.00 in0.0 mm
12:27 AM 28.2°F-2.1°C 19.9°F-6.7°C 71% 3.0 mph SSE4.8 kmh SSE -- 30.23 in1023.7 mb 0.00 in0.0 mm 0.00 in0.0 mm 0.00 in0.0 mm
12:28 AM 28.2°F-2.1°C 19.9°F-6.7°C 71% 2.0 mph SSE3.2 kmh SSE -- 30.23 in1023.7 mb 0.00 in0.0 mm 0.00 in0.0 mm 0.00 in0.0 mm
12:29 AM 28.2°F-2.1°C 19.9°F-6.7°C 71% 3.0 mph ESE4.8 kmh ESE -- 30.23 in1023.7 mb 0.00 in0.0 mm 0.00 in0.0 mm 0.00 in0.0 mm
12:30 AM 28.2°F-2.1°C 19.9°F-6.7°C 71% 3.0 mph S4.8 kmh S -- 30.23 in1023.7 mb 0.00 in0.0 mm 0.00 in0.0 mm 0.00 in0.0 mm
12:31 AM 28.2°F-2.1°C 19.9°F-6.7°C 71% 4.0 mph SE6.4 kmh SE -- 30.23 in1023.7 mb 0.00 in0.0 mm 0.00 in0.0 mm 0.00 in0.0 mm
12:32 AM 28.2°F-2.1°C 20.6°F-6.3°C 73% 3.0 mph S4.8 kmh S -- 30.23 in1023.7 mb 0.00 in0.0 mm 0.00 in0.0 mm 0.00 in0.0 mm
12:33 AM 28.2°F-2.1°C 20.6°F-6.3°C 73% 2.0 mph SSW3.2 kmh SSW -- 30.23 in1023.7 mb 0.00 in0.0 mm 0.00 in0.0 mm 0.00 in0.0 mm
12:35 AM 28.2°F-2.1°C 20.6°F-6.3°C 73% 3.0 mph SSE4.8 kmh SSE -- 30.23 in1023.7 mb 0.00 in0.0 mm 0.00 in0.0 mm 0.00 in0.0 mm
12:36 AM 28.2°F-2.1°C 20.6°F-6.3°C 73% 3.0 mph S4.8 kmh S -- 30.23 in1023.7 mb 0.00 in0.0 mm 0.00 in0.0 mm 0.00 in0.0 mm
12:37 AM 28.2°F-2.1°C 20.6°F-6.3°C 73% 3.0 mph SSE4.8 kmh SSE -- 30.23 in1023.7 mb 0.00 in0.0 mm 0.00 in0.0 mm 0.00 in0.0 mm
12:38 AM 28.2°F-2.1°C 20.6°F-6.3°C 73% 2.0 mph SSE3.2 kmh SSE -- 30.23 in1023.7 mb 0.00 in0.0 mm 0.00 in0.0 mm 0.00 in0.0 mm
12:39 AM 27.9°F-2.3°C 20.2°F-6.6°C 73% 2.0 mph SSE3.2 kmh SSE -- 30.23 in1023.7 mb 0.00 in0.0 mm 0.00 in0.0 mm 0.00 in0.0 mm
12:41 AM 27.9°F-2.3°C 20.2°F-6.6°C 73% 2.0 mph S3.2 kmh S -- 30.23 in1023.7 mb 0.00 in0.0 mm 0.00 in0.0 mm 0.00 in0.0 mm
12:42 AM 27.9°F-2.3°C 20.2°F-6.6°C 73% 2.0 mph SW3.2 kmh SW -- 30.23 in1023.7 mb 0.00 in0.0 mm 0.00 in0.0 mm 0.00 in0.0 mm
12:43 AM 28.2°F-2.1°C 20.6°F-6.3°C 73% 4.0 mph SW6.4 kmh SW -- 30.23 in1023.7 mb 0.00 in0.0 mm 0.00 in0.0 mm 0.00 in0.0 mm
12:44 AM 28.2°F-2.1°C 20.6°F-6.3°C 73% 3.0 mph WSW4.8 kmh WSW -- 30.23 in1023.7 mb 0.00 in0.0 mm 0.00 in0.0 mm 0.00 in0.0 mm
12:45 AM 28.2°F-2.1°C 20.6°F-6.3°C 73% 2.0 mph SSE3.2 kmh SSE -- 30.23 in1023.7 mb 0.00 in0.0 mm 0.00 in0.0 mm 0.00 in0.0 mm
12:46 AM 28.2°F-2.1°C 20.6°F-6.3°C 73% 2.0 mph S3.2 kmh S -- 30.23 in1023.7 mb 0.00 in0.0 mm 0.00 in0.0 mm 0.00 in0.0 mm
12:47 AM 28.2°F-2.1°C 20.6°F-6.3°C 73% 5.0 mph SW8.0 kmh SW -- 30.23 in1023.7 mb 0.00 in0.0 mm 0.00 in0.0 mm 0.00 in0.0 mm
12:48 AM 28.6°F-1.9°C 20.9°F-6.2°C 73% 3.0 mph S4.8 kmh S -- 30.23 in1023.7 mb 0.00 in0.0 mm 0.00 in0.0 mm 0.00 in0.0 mm
12:49 AM 28.6°F-1.9°C 20.9°F-6.2°C 73% 4.0 mph SSE6.4 kmh SSE -- 30.23 in1023.7 mb 0.00 in0.0 mm 0.00 in0.0 mm 0.00 in0.0 mm
12:50 AM 28.6°F-1.9°C 20.3°F-6.5°C 71% 3.0 mph S4.8 kmh S -- 30.23 in1023.7 mb 0.00 in0.0 mm 0.00 in0.0 mm 0.00 in0.0 mm
12:51 AM 28.7°F-1.8°C 20.4°F-6.4°C 71% 3.0 mph S4.8 kmh S -- 30.23 in1023.7 mb 0.00 in0.0 mm 0.00 in0.0 mm 0.00 in0.0 mm
12:52 AM 28.7°F-1.8°C 20.4°F-6.4°C 71% 4.0 mph SSE6.4 kmh SSE -- 30.23 in1023.7 mb 0.00 in0.0 mm 0.00 in0.0 mm 0.00 in0.0 mm
12:53 AM 28.7°F-1.8°C 20.4°F-6.4°C 71% 2.0 mph SSE3.2 kmh SSE -- 30.23 in1023.7 mb 0.00 in0.0 mm 0.00 in0.0 mm 0.00 in0.0 mm
12:54 AM 28.6°F-1.9°C 20.3°F-6.5°C 71% 3.0 mph SSE4.8 kmh SSE -- 30.23 in1023.7 mb 0.00 in0.0 mm 0.00 in0.0 mm 0.00 in0.0 mm
12:55 AM 28.6°F-1.9°C 20.3°F-6.5°C 71% 3.0 mph ESE4.8 kmh ESE -- 30.23 in1023.7 mb 0.00 in0.0 mm 0.00 in0.0 mm 0.00 in0.0 mm
12:56 AM 28.6°F-1.9°C 20.3°F-6.5°C 71% 4.0 mph S6.4 kmh S -- 30.23 in1023.7 mb 0.00 in0.0 mm 0.00 in0.0 mm 0.00 in0.0 mm
12:57 AM 28.6°F-1.9°C 20.3°F-6.5°C 71% 2.0 mph SSE3.2 kmh SSE -- 30.23 in1023.7 mb 0.00 in0.0 mm 0.00 in0.0 mm 0.00 in0.0 mm
12:58 AM 28.6°F-1.9°C 20.3°F-6.5°C 71% 4.0 mph SSE6.4 kmh SSE -- 30.23 in1023.7 mb 0.00 in0.0 mm 0.00 in0.0 mm 0.00 in0.0 mm
12:59 AM 28.6°F-1.9°C 20.3°F-6.5°C 71% 5.0 mph SSE8.0 kmh SSE -- 30.23 in1023.7 mb 0.00 in0.0 mm 0.00 in0.0 mm 0.00 in0.0 mm
01:00 AM 28.6°F-1.9°C 20.3°F-6.5°C 71% 3.0 mph S4.8 kmh S -- 30.23 in1023.7 mb 0.00 in0.0 mm 0.00 in0.0 mm 0.00 in0.0 mm
01:01 AM 28.6°F-1.9°C 20.3°F-6.5°C 71% 2.0 mph S3.2 kmh S -- 30.23 in1023.7 mb 0.00 in0.0 mm 0.00 in0.0 mm 0.00 in0.0 mm
01:02 AM 28.6°F-1.9°C 20.3°F-6.5°C 71% 3.0 mph SSW4.8 kmh SSW -- 30.23 in1023.7 mb 0.00 in0.0 mm 0.00 in0.0 mm 0.00 in0.0 mm
01:03 AM 28.3°F-2.1°C 19.9°F-6.7°C 71% 4.0 mph SSE6.4 kmh SSE -- 30.23 in1023.7 mb 0.00 in0.0 mm 0.00 in0.0 mm 0.00 in0.0 mm
01:04 AM 28.3°F-2.1°C 19.9°F-6.7°C 71% 2.0 mph SSW3.2 kmh SSW -- 30.22 in1023.4 mb 0.00 in0.0 mm 0.00 in0.0 mm 0.00 in0.0 mm
01:05 AM 28.2°F-2.1°C 19.9°F-6.7°C 71% 2.0 mph ESE3.2 kmh ESE -- 30.22 in1023.4 mb 0.00 in0.0 mm 0.00 in0.0 mm 0.00 in0.0 mm
01:06 AM 28.2°F-2.1°C 19.9°F-6.7°C 71% 4.0 mph SSW6.4 kmh SSW -- 30.23 in1023.7 mb 0.00 in0.0 mm 0.00 in0.0 mm 0.00 in0.0 mm
01:07 AM 28.2°F-2.1°C 19.9°F-6.7°C 71% 4.0 mph S6.4 kmh S -- 30.23 in1023.7 mb 0.00 in0.0 mm 0.00 in0.0 mm 0.00 in0.0 mm
01:08 AM 28.2°F-2.1°C 19.9°F-6.7°C 71% 5.0 mph SSE8.0 kmh SSE -- 30.23 in1023.7 mb 0.00 in0.0 mm 0.00 in0.0 mm 0.00 in0.0 mm
01:09 AM 28.2°F-2.1°C 19.9°F-6.7°C 71% 4.0 mph SE6.4 kmh SE -- 30.23 in1023.7 mb 0.00 in0.0 mm 0.00 in0.0 mm 0.00 in0.0 mm
01:10 AM 28.3°F-2.1°C 19.9°F-6.7°C 71% 2.0 mph SSW3.2 kmh SSW -- 30.23 in1023.7 mb 0.00 in0.0 mm 0.00 in0.0 mm 0.00 in0.0 mm
01:11 AM 28.3°F-2.1°C 19.9°F-6.7°C 71% 3.0 mph SSE4.8 kmh SSE -- 30.23 in1023.7 mb 0.00 in0.0 mm 0.00 in0.0 mm 0.00 in0.0 mm
01:12 AM 28.3°F-2.1°C 19.9°F-6.7°C 71% 2.0 mph SSE3.2 kmh SSE -- 30.23 in1023.7 mb 0.00 in0.0 mm 0.00 in0.0 mm 0.00 in0.0 mm
01:13 AM 28.3°F-2.1°C 19.9°F-6.7°C 71% 3.0 mph SSE4.8 kmh SSE -- 30.23 in1023.7 mb 0.00 in0.0 mm 0.00 in0.0 mm 0.00 in0.0 mm
01:14 AM 28.3°F-2.1°C 19.9°F-6.7°C 71% 4.0 mph SSE6.4 kmh SSE -- 30.23 in1023.7 mb 0.00 in0.0 mm 0.00 in0.0 mm 0.00 in0.0 mm
01:15 AM 28.6°F-1.9°C 20.3°F-6.5°C 71% 3.0 mph S4.8 kmh S -- 30.23 in1023.7 mb 0.00 in0.0 mm 0.00 in0.0 mm 0.00 in0.0 mm
01:16 AM 28.6°F-1.9°C 20.3°F-6.5°C 71% 3.0 mph SSW4.8 kmh SSW -- 30.23 in1023.7 mb 0.00 in0.0 mm 0.00 in0.0 mm 0.00 in0.0 mm
01:17 AM 28.6°F-1.9°C 20.3°F-6.5°C 71% 3.0 mph SSE4.8 kmh SSE -- 30.23 in1023.7 mb 0.00 in0.0 mm 0.00 in0.0 mm 0.00 in0.0 mm
01:18 AM 28.3°F-2.1°C 19.9°F-6.7°C 71% 5.0 mph SE8.0 kmh SE -- 30.23 in1023.7 mb 0.00 in0.0 mm 0.00 in0.0 mm 0.00 in0.0 mm
01:19 AM 28.3°F-2.1°C 19.9°F-6.7°C 71% 3.0 mph SE4.8 kmh SE -- 30.22 in1023.4 mb 0.00 in0.0 mm 0.00 in0.0 mm 0.00 in0.0 mm
01:20 AM 28.3°F-2.1°C 19.9°F-6.7°C 71% 3.0 mph WSW4.8 kmh WSW -- 30.22 in1023.4 mb 0.00 in0.0 mm 0.00 in0.0 mm 0.00 in0.0 mm
01:21 AM 28.3°F-2.1°C 19.9°F-6.7°C 71% 3.0 mph S4.8 kmh S -- 30.22 in1023.4 mb 0.00 in0.0 mm 0.00 in0.0 mm 0.00 in0.0 mm
01:22 AM 28.3°F-2.1°C 19.9°F-6.7°C 71% 2.0 mph S3.2 kmh S -- 30.22 in1023.4 mb 0.00 in0.0 mm 0.00 in0.0 mm 0.00 in0.0 mm
01:23 AM 28.3°F-2.1°C 19.9°F-6.7°C 71% 2.0 mph SE3.2 kmh SE -- 30.22 in1023.4 mb 0.00 in0.0 mm 0.00 in0.0 mm 0.00 in0.0 mm
01:24 AM 28.2°F-2.1°C 19.9°F-6.7°C 71% 3.0 mph SE4.8 kmh SE -- 30.23 in1023.7 mb 0.00 in0.0 mm 0.00 in0.0 mm 0.00 in0.0 mm
01:25 AM 28.2°F-2.1°C 19.9°F-6.7°C 71% 3.0 mph SW4.8 kmh SW -- 30.23 in1023.7 mb 0.00 in0.0 mm 0.00 in0.0 mm 0.00 in0.0 mm
01:26 AM 28.2°F-2.1°C 19.9°F-6.7°C 71% 3.0 mph S4.8 kmh S -- 30.23 in1023.7 mb 0.00 in0.0 mm 0.00 in0.0 mm 0.00 in0.0 mm
01:27 AM 27.9°F-2.3°C 19.6°F-6.9°C 71% 2.0 mph SSE3.2 kmh SSE -- 30.23 in1023.7 mb 0.00 in0.0 mm 0.00 in0.0 mm 0.00 in0.0 mm
01:28 AM 27.9°F-2.3°C 19.6°F-6.9°C 71% 4.0 mph SSE6.4 kmh SSE -- 30.23 in1023.7 mb 0.00 in0.0 mm 0.00 in0.0 mm 0.00 in0.0 mm
01:29 AM 27.9°F-2.3°C 19.6°F-6.9°C 71% 3.0 mph SSE4.8 kmh SSE -- 30.23 in1023.7 mb 0.00 in0.0 mm 0.00 in0.0 mm 0.00 in0.0 mm
01:31 AM 27.9°F-2.3°C 19.6°F-6.9°C 71% 4.0 mph ESE6.4 kmh ESE -- 30.23 in1023.7 mb 0.00 in0.0 mm 0.00 in0.0 mm 0.00 in0.0 mm
01:32 AM 27.9°F-2.3°C 19.6°F-6.9°C 71% 2.0 mph SW3.2 kmh SW -- 30.22 in1023.4 mb 0.00 in0.0 mm 0.00 in0.0 mm 0.00 in0.0 mm
01:33 AM 27.9°F-2.3°C 19.6°F-6.9°C 71% 3.0 mph S4.8 kmh S -- 30.22 in1023.4 mb 0.00 in0.0 mm 0.00 in0.0 mm 0.00 in0.0 mm
01:35 AM 27.9°F-2.3°C 19.6°F-6.9°C 71% 2.0 mph ESE3.2 kmh ESE -- 30.22 in1023.4 mb 0.00 in0.0 mm 0.00 in0.0 mm 0.00 in0.0 mm
01:36 AM 27.9°F-2.3°C 19.6°F-6.9°C 71% 4.0 mph SSW6.4 kmh SSW -- 30.22 in1023.4 mb 0.00 in0.0 mm 0.00 in0.0 mm 0.00 in0.0 mm
01:37 AM 27.8°F-2.3°C 19.6°F-6.9°C 71% 3.0 mph ESE4.8 kmh ESE -- 30.22 in1023.4 mb 0.00 in0.0 mm 0.00 in0.0 mm 0.00 in0.0 mm
01:38 AM 27.8°F-2.3°C 19.6°F-6.9°C 71% 3.0 mph SSE4.8 kmh SSE -- 30.22 in1023.4 mb 0.00 in0.0 mm 0.00 in0.0 mm 0.00 in0.0 mm
01:39 AM 27.8°F-2.3°C 19.6°F-6.9°C 71% 3.0 mph SSE4.8 kmh SSE -- 30.23 in1023.7 mb 0.00 in0.0 mm 0.00 in0.0 mm 0.00 in0.0 mm
01:40 AM 27.6°F-2.4°C 20.1°F-6.6°C 73% 2.0 mph S3.2 kmh S -- 30.22 in1023.4 mb 0.00 in0.0 mm 0.00 in0.0 mm 0.00 in0.0 mm
01:41 AM 27.6°F-2.4°C 20.1°F-6.6°C 73% 2.0 mph SSE3.2 kmh SSE -- 30.22 in1023.4 mb 0.00 in0.0 mm 0.00 in0.0 mm 0.00 in0.0 mm
01:42 AM 27.6°F-2.4°C 20.1°F-6.6°C 73% 3.0 mph S4.8 kmh S -- 30.23 in1023.7 mb 0.00 in0.0 mm 0.00 in0.0 mm 0.00 in0.0 mm
01:43 AM 27.6°F-2.4°C 20.1°F-6.6°C 73% 2.0 mph S3.2 kmh S -- 30.23 in1023.7 mb 0.00 in0.0 mm 0.00 in0.0 mm 0.00 in0.0 mm
01:44 AM 27.5°F-2.5°C 19.9°F-6.7°C 73% 1.0 mph S1.6 kmh S -- 30.23 in1023.7 mb 0.00 in0.0 mm 0.00 in0.0 mm 0.00 in0.0 mm
01:45 AM 27.5°F-2.5°C 19.9°F-6.7°C 73% 2.0 mph SSE3.2 kmh SSE -- 30.22 in1023.4 mb 0.00 in0.0 mm 0.00 in0.0 mm 0.00 in0.0 mm
01:46 AM 27.3°F-2.6°C 19.7°F-6.8°C 73% 3.0 mph W4.8 kmh W -- 30.22 in1023.4 mb 0.00 in0.0 mm 0.00 in0.0 mm 0.00 in0.0 mm
01:47 AM 27.3°F-2.6°C 20.0°F-6.7°C 74% 2.0 mph S3.2 kmh S -- 30.22 in1023.4 mb 0.00 in0.0 mm 0.00 in0.0 mm 0.00 in0.0 mm
01:48 AM 27.3°F-2.6°C 20.0°F-6.7°C 74% 3.0 mph SSE4.8 kmh SSE -- 30.23 in1023.7 mb 0.00 in0.0 mm 0.00 in0.0 mm 0.00 in0.0 mm
01:49 AM 27.3°F-2.6°C 20.0°F-6.7°C 74% 3.0 mph SSE4.8 kmh SSE -- 30.22 in1023.4 mb 0.00 in0.0 mm 0.00 in0.0 mm 0.00 in0.0 mm
01:50 AM 27.5°F-2.5°C 20.2°F-6.6°C 74% 4.0 mph S6.4 kmh S -- 30.22 in1023.4 mb 0.00 in0.0 mm 0.00 in0.0 mm 0.00 in0.0 mm
01:52 AM 27.5°F-2.5°C 20.2°F-6.6°C 74% 3.0 mph S4.8 kmh S -- 30.22 in1023.4 mb 0.00 in0.0 mm 0.00 in0.0 mm 0.00 in0.0 mm
01:53 AM 27.5°F-2.5°C 20.2°F-6.6°C 74% 2.0 mph SSE3.2 kmh SSE -- 30.22 in1023.4 mb 0.00 in0.0 mm 0.00 in0.0 mm 0.00 in0.0 mm
01:54 AM 27.5°F-2.5°C 20.2°F-6.6°C 74% 3.0 mph SSE4.8 kmh SSE -- 30.22 in1023.4 mb 0.00 in0.0 mm 0.00 in0.0 mm 0.00 in0.0 mm
01:55 AM 27.5°F-2.5°C 20.2°F-6.6°C 74% 4.0 mph SSE6.4 kmh SSE -- 30.22 in1023.4 mb 0.00 in0.0 mm 0.00 in0.0 mm 0.00 in0.0 mm
01:56 AM 27.6°F-2.4°C 20.4°F-6.4°C 74% 2.0 mph S3.2 kmh S -- 30.22 in1023.4 mb 0.00 in0.0 mm 0.00 in0.0 mm 0.00 in0.0 mm
01:57 AM 27.5°F-2.5°C 20.2°F-6.6°C 74% 3.0 mph SW4.8 kmh SW -- 30.22 in1023.4 mb 0.00 in0.0 mm 0.00 in0.0 mm 0.00 in0.0 mm
01:58 AM 27.5°F-2.5°C 20.2°F-6.6°C 74% 1.0 mph W1.6 kmh W -- 30.22 in1023.4 mb 0.00 in0.0 mm 0.00 in0.0 mm 0.00 in0.0 mm
01:59 AM 27.3°F-2.6°C 20.0°F-6.7°C 74% 1.0 mph W1.6 kmh W -- 30.22 in1023.4 mb 0.00 in0.0 mm 0.00 in0.0 mm 0.00 in0.0 mm
02:00 AM 27.1°F-2.7°C 19.9°F-6.7°C 74% 3.0 mph S4.8 kmh S -- 30.22 in1023.4 mb 0.00 in0.0 mm 0.00 in0.0 mm 0.00 in0.0 mm
02:01 AM 27.3°F-2.6°C 20.0°F-6.7°C 74% 3.0 mph SSE4.8 kmh SSE -- 30.22 in1023.4 mb 0.00 in0.0 mm 0.00 in0.0 mm 0.00 in0.0 mm
02:02 AM 27.3°F-2.6°C 20.0°F-6.7°C 74% 2.0 mph SSE3.2 kmh SSE -- 30.22 in1023.4 mb 0.00 in0.0 mm 0.00 in0.0 mm 0.00 in0.0 mm
02:03 AM 27.3°F-2.6°C 20.0°F-6.7°C 74% 3.0 mph SE4.8 kmh SE -- 30.22 in1023.4 mb 0.00 in0.0 mm 0.00 in0.0 mm 0.00 in0.0 mm
02:04 AM 27.3°F-2.6°C 20.0°F-6.7°C 74% 4.0 mph SE6.4 kmh SE -- 30.22 in1023.4 mb 0.00 in0.0 mm 0.00 in0.0 mm 0.00 in0.0 mm
02:05 AM 27.3°F-2.6°C 20.0°F-6.7°C 74% 2.0 mph SSW3.2 kmh SSW -- 30.22 in1023.4 mb 0.00 in0.0 mm 0.00 in0.0 mm 0.00 in0.0 mm
02:06 AM 27.3°F-2.6°C 20.0°F-6.7°C 74% 4.0 mph ESE6.4 kmh ESE -- 30.22 in1023.4 mb 0.00 in0.0 mm 0.00 in0.0 mm 0.00 in0.0 mm
02:07 AM 27.5°F-2.5°C 20.2°F-6.6°C 74% 2.0 mph SSW3.2 kmh SSW -- 30.22 in1023.4 mb 0.00 in0.0 mm 0.00 in0.0 mm 0.00 in0.0 mm
02:08 AM 27.5°F-2.5°C 20.2°F-6.6°C 74% 2.0 mph S3.2 kmh S -- 30.22 in1023.4 mb 0.00 in0.0 mm 0.00 in0.0 mm 0.00 in0.0 mm
02:09 AM 27.5°F-2.5°C 20.2°F-6.6°C 74% 4.0 mph S6.4 kmh S -- 30.22 in1023.4 mb 0.00 in0.0 mm 0.00 in0.0 mm 0.00 in0.0 mm
02:10 AM 27.5°F-2.5°C 20.2°F-6.6°C 74% 3.0 mph S4.8 kmh S -- 30.22 in1023.4 mb 0.00 in0.0 mm 0.00 in0.0 mm 0.00 in0.0 mm
02:11 AM 27.5°F-2.5°C 20.2°F-6.6°C 74% 2.0 mph SSE3.2 kmh SSE -- 30.22 in1023.4 mb 0.00 in0.0 mm 0.00 in0.0 mm 0.00 in0.0 mm
02:12 AM 27.5°F-2.5°C 20.2°F-6.6°C 74% 3.0 mph SSW4.8 kmh SSW -- 30.21 in1023.0 mb 0.00 in0.0 mm 0.00 in0.0 mm 0.00 in0.0 mm
02:13 AM 27.6°F-2.4°C 20.4°F-6.4°C 74% 3.0 mph S4.8 kmh S -- 30.22 in1023.4 mb 0.00 in0.0 mm 0.00 in0.0 mm 0.00 in0.0 mm
02:14 AM 27.6°F-2.4°C 20.4°F-6.4°C 74% 3.0 mph S4.8 kmh S -- 30.21 in1023.0 mb 0.00 in0.0 mm 0.00 in0.0 mm 0.00 in0.0 mm
02:15 AM 27.6°F-2.4°C 20.4°F-6.4°C 74% 4.0 mph S6.4 kmh S -- 30.22 in1023.4 mb 0.00 in0.0 mm 0.00 in0.0 mm 0.00 in0.0 mm
02:17 AM 27.6°F-2.4°C 20.4°F-6.4°C 74% 5.0 mph SSE8.0 kmh SSE -- 30.22 in1023.4 mb 0.00 in0.0 mm 0.00 in0.0 mm 0.00 in0.0 mm
02:18 AM 27.6°F-2.4°C 20.4°F-6.4°C 74% 4.0 mph SSE6.4 kmh SSE -- 30.22 in1023.4 mb 0.00 in0.0 mm 0.00 in0.0 mm 0.00 in0.0 mm
02:21 AM 27.6°F-2.4°C 20.4°F-6.4°C 74% 4.0 mph SE6.4 kmh SE -- 30.22 in1023.4 mb 0.00 in0.0 mm 0.00 in0.0 mm 0.00 in0.0 mm
02:22 AM 27.6°F-2.4°C 20.4°F-6.4°C 74% 2.0 mph S3.2 kmh S -- 30.21 in1023.0 mb 0.00 in0.0 mm 0.00 in0.0 mm 0.00 in0.0 mm
02:23 AM 27.6°F-2.4°C 20.4°F-6.4°C 74% 4.0 mph S6.4 kmh S -- 30.21 in1023.0 mb 0.00 in0.0 mm 0.00 in0.0 mm 0.00 in0.0 mm
02:24 AM 27.6°F-2.4°C 20.4°F-6.4°C 74% 3.0 mph S4.8 kmh S -- 30.22 in1023.4 mb 0.00 in0.0 mm 0.00 in0.0 mm 0.00 in0.0 mm
02:25 AM 27.6°F-2.4°C 20.4°F-6.4°C 74% 2.0 mph SSW3.2 kmh SSW -- 30.22 in1023.4 mb 0.00 in0.0 mm 0.00 in0.0 mm 0.00 in0.0 mm
02:26 AM 27.6°F-2.4°C 20.4°F-6.4°C 74% 3.0 mph ESE4.8 kmh ESE -- 30.22 in1023.4 mb 0.00 in0.0 mm 0.00 in0.0 mm 0.00 in0.0 mm
02:27 AM 27.6°F-2.4°C 20.4°F-6.4°C 74% 4.0 mph SSW6.4 kmh SSW -- 30.22 in1023.4 mb 0.00 in0.0 mm 0.00 in0.0 mm 0.00 in0.0 mm
02:28 AM 27.6°F-2.4°C 20.4°F-6.4°C 74% 2.0 mph SW3.2 kmh SW -- 30.22 in1023.4 mb 0.00 in0.0 mm 0.00 in0.0 mm 0.00 in0.0 mm
02:29 AM 27.6°F-2.4°C 20.4°F-6.4°C 74% 3.0 mph S4.8 kmh S -- 30.21 in1023.0 mb 0.00 in0.0 mm 0.00 in0.0 mm 0.00 in0.0 mm
02:30 AM 27.5°F-2.5°C 20.2°F-6.6°C 74% 3.0 mph S4.8 kmh S -- 30.22 in1023.4 mb 0.00 in0.0 mm 0.00 in0.0 mm 0.00 in0.0 mm
02:31 AM 27.5°F-2.5°C 20.2°F-6.6°C 74% 3.0 mph S4.8 kmh S -- 30.21 in1023.0 mb 0.00 in0.0 mm 0.00 in0.0 mm 0.00 in0.0 mm
02:32 AM 27.5°F-2.5°C 20.2°F-6.6°C 74% 4.0 mph SSW6.4 kmh SSW -- 30.22 in1023.4 mb 0.00 in0.0 mm 0.00 in0.0 mm 0.00 in0.0 mm
02:33 AM 27.5°F-2.5°C 20.2°F-6.6°C 74% 4.0 mph SSE6.4 kmh SSE -- 30.21 in1023.0 mb 0.00 in0.0 mm 0.00 in0.0 mm 0.00 in0.0 mm
02:34 AM 27.5°F-2.5°C 20.2°F-6.6°C 74% 2.0 mph S3.2 kmh S -- 30.21 in1023.0 mb 0.00 in0.0 mm 0.00 in0.0 mm 0.00 in0.0 mm
02:35 AM 27.3°F-2.6°C 20.3°F-6.5°C 75% 2.0 mph SSE3.2 kmh SSE -- 30.21 in1023.0 mb 0.00 in0.0 mm 0.00 in0.0 mm 0.00 in0.0 mm
02:36 AM 27.3°F-2.6°C 20.3°F-6.5°C 75% 2.0 mph SE3.2 kmh SE -- 30.21 in1023.0 mb 0.00 in0.0 mm 0.00 in0.0 mm 0.00 in0.0 mm
02:37 AM 27.3°F-2.6°C 20.3°F-6.5°C 75% 2.0 mph SSW3.2 kmh SSW -- 30.21 in1023.0 mb 0.00 in0.0 mm 0.00 in0.0 mm 0.00 in0.0 mm
02:38 AM 27.3°F-2.6°C 20.3°F-6.5°C 75% 3.0 mph SE4.8 kmh SE -- 30.21 in1023.0 mb 0.00 in0.0 mm 0.00 in0.0 mm 0.00 in0.0 mm
02:39 AM 27.3°F-2.6°C 20.3°F-6.5°C 75% 2.0 mph SSE3.2 kmh SSE -- 30.21 in1023.0 mb 0.00 in0.0 mm 0.00 in0.0 mm 0.00 in0.0 mm
02:40 AM 27.3°F-2.6°C 20.3°F-6.5°C 75% 2.0 mph SSW3.2 kmh SSW -- 30.21 in1023.0 mb 0.00 in0.0 mm 0.00 in0.0 mm 0.00 in0.0 mm
02:41 AM 27.3°F-2.6°C 20.3°F-6.5°C 75% 2.0 mph S3.2 kmh S -- 30.21 in1023.0 mb 0.00 in0.0 mm 0.00 in0.0 mm 0.00 in0.0 mm
02:42 AM 27.3°F-2.6°C 20.3°F-6.5°C 75% 3.0 mph S4.8 kmh S -- 30.21 in1023.0 mb 0.00 in0.0 mm 0.00 in0.0 mm 0.00 in0.0 mm
02:43 AM 27.3°F-2.6°C 20.3°F-6.5°C 75% 5.0 mph SSW8.0 kmh SSW -- 30.21 in1023.0 mb 0.00 in0.0 mm 0.00 in0.0 mm 0.00 in0.0 mm
02:44 AM 27.3°F-2.6°C 20.3°F-6.5°C 75% 3.0 mph SE4.8 kmh SE -- 30.21 in1023.0 mb 0.00 in0.0 mm 0.00 in0.0 mm 0.00 in0.0 mm
02:45 AM 27.1°F-2.7°C 20.2°F-6.6°C 75% 3.0 mph SSE4.8 kmh SSE -- 30.21 in1023.0 mb 0.00 in0.0 mm 0.00 in0.0 mm 0.00 in0.0 mm
02:47 AM 27.1°F-2.7°C 20.2°F-6.6°C 75% 3.0 mph SE4.8 kmh SE -- 30.21 in1023.0 mb 0.00 in0.0 mm 0.00 in0.0 mm 0.00 in0.0 mm
02:48 AM 27.1°F-2.7°C 20.2°F-6.6°C 75% 4.0 mph SSE6.4 kmh SSE -- 30.21 in1023.0 mb 0.00 in0.0 mm 0.00 in0.0 mm 0.00 in0.0 mm
02:49 AM 27.1°F-2.7°C 20.2°F-6.6°C 75% 3.0 mph S4.8 kmh S -- 30.21 in1023.0 mb 0.00 in0.0 mm 0.00 in0.0 mm 0.00 in0.0 mm
02:51 AM 27.1°F-2.7°C 20.2°F-6.6°C 75% 1.0 mph W1.6 kmh W -- 30.21 in1023.0 mb 0.00 in0.0 mm 0.00 in0.0 mm 0.00 in0.0 mm
02:52 AM 27.1°F-2.7°C 20.2°F-6.6°C 75% 2.0 mph SSE3.2 kmh SSE -- 30.21 in1023.0 mb 0.00 in0.0 mm 0.00 in0.0 mm 0.00 in0.0 mm
02:53 AM 27.0°F-2.8°C 20.0°F-6.7°C 75% 4.0 mph S6.4 kmh S -- 30.21 in1023.0 mb 0.00 in0.0 mm 0.00 in0.0 mm 0.00 in0.0 mm
02:54 AM 27.0°F-2.8°C 20.0°F-6.7°C 75% 2.0 mph SSW3.2 kmh SSW -- 30.21 in1023.0 mb 0.00 in0.0 mm 0.00 in0.0 mm 0.00 in0.0 mm
02:56 AM 27.0°F-2.8°C 20.0°F-6.7°C 75% 2.0 mph SSE3.2 kmh SSE -- 30.21 in1023.0 mb 0.00 in0.0 mm 0.00 in0.0 mm 0.00 in0.0 mm
02:57 AM 27.0°F-2.8°C 20.0°F-6.7°C 75% 3.0 mph SSE4.8 kmh SSE -- 30.21 in1023.0 mb 0.00 in0.0 mm 0.00 in0.0 mm 0.00 in0.0 mm
02:59 AM 27.0°F-2.8°C 20.0°F-6.7°C 75% 3.0 mph S4.8 kmh S -- 30.21 in1023.0 mb 0.00 in0.0 mm 0.00 in0.0 mm 0.00 in0.0 mm
03:00 AM 27.0°F-2.8°C 20.0°F-6.7°C 75% 4.0 mph SE6.4 kmh SE -- 30.20 in1022.7 mb 0.00 in0.0 mm 0.00 in0.0 mm 0.00 in0.0 mm
03:01 AM 27.0°F-2.8°C 20.0°F-6.7°C 75% 3.0 mph SE4.8 kmh SE -- 30.20 in1022.7 mb 0.00 in0.0 mm 0.00 in0.0 mm 0.00 in0.0 mm
03:02 AM 27.0°F-2.8°C 20.0°F-6.7°C 75% 4.0 mph S6.4 kmh S -- 30.20 in1022.7 mb 0.00 in0.0 mm 0.00 in0.0 mm 0.00 in0.0 mm
03:03 AM 27.0°F-2.8°C 20.0°F-6.7°C 75% 2.0 mph WSW3.2 kmh WSW -- 30.20 in1022.7 mb 0.00 in0.0 mm 0.00 in0.0 mm 0.00 in0.0 mm
03:05 AM 27.1°F-2.7°C 20.2°F-6.6°C 75% 2.0 mph SE3.2 kmh SE -- 30.20 in1022.7 mb 0.00 in0.0 mm 0.00 in0.0 mm 0.00 in0.0 mm
03:06 AM 27.1°F-2.7°C 20.2°F-6.6°C 75% 3.0 mph S4.8 kmh S -- 30.20 in1022.7 mb 0.00 in0.0 mm 0.00 in0.0 mm 0.00 in0.0 mm
03:07 AM 27.1°F-2.7°C 20.2°F-6.6°C 75% 5.0 mph S8.0 kmh S -- 30.20 in1022.7 mb 0.00 in0.0 mm 0.00 in0.0 mm 0.00 in0.0 mm
03:08 AM 27.1°F-2.7°C 20.2°F-6.6°C 75% 4.0 mph SSE6.4 kmh SSE -- 30.20 in1022.7 mb 0.00 in0.0 mm 0.00 in0.0 mm 0.00 in0.0 mm
03:09 AM 27.1°F-2.7°C 20.2°F-6.6°C 75% 4.0 mph SE6.4 kmh SE -- 30.20 in1022.7 mb 0.00 in0.0 mm 0.00 in0.0 mm 0.00 in0.0 mm
03:10 AM 27.1°F-2.7°C 20.2°F-6.6°C 75% 5.0 mph S8.0 kmh S -- 30.20 in1022.7 mb 0.00 in0.0 mm 0.00 in0.0 mm 0.00 in0.0 mm
03:11 AM 27.3°F-2.6°C 20.3°F-6.5°C 75% 4.0 mph SSE6.4 kmh SSE -- 30.20 in1022.7 mb 0.00 in0.0 mm 0.00 in0.0 mm 0.00 in0.0 mm
03:12 AM 27.3°F-2.6°C 20.3°F-6.5°C 75% 4.0 mph S6.4 kmh S -- 30.20 in1022.7 mb 0.00 in0.0 mm 0.00 in0.0 mm 0.00 in0.0 mm
03:13 AM 27.3°F-2.6°C 20.3°F-6.5°C 75% 4.0 mph SSW6.4 kmh SSW -- 30.20 in1022.7 mb 0.00 in0.0 mm 0.00 in0.0 mm 0.00 in0.0 mm
03:14 AM 27.3°F-2.6°C 20.3°F-6.5°C 75% 4.0 mph S6.4 kmh S -- 30.20 in1022.7 mb 0.00 in0.0 mm 0.00 in0.0 mm 0.00 in0.0 mm
03:15 AM 27.3°F-2.6°C 20.3°F-6.5°C 75% 3.0 mph S4.8 kmh S -- 30.20 in1022.7 mb 0.00 in0.0 mm 0.00 in0.0 mm 0.00 in0.0 mm
03:16 AM 27.3°F-2.6°C 20.3°F-6.5°C 75% 3.0 mph SSW4.8 kmh SSW -- 30.19 in1022.4 mb 0.00 in0.0 mm 0.00 in0.0 mm 0.00 in0.0 mm
03:17 AM 27.3°F-2.6°C 20.3°F-6.5°C 75% 2.0 mph S3.2 kmh S -- 30.20 in1022.7 mb 0.00 in0.0 mm 0.00 in0.0 mm 0.00 in0.0 mm
03:18 AM 27.1°F-2.7°C 20.2°F-6.6°C 75% 2.0 mph 3.2 kmh -- 30.20 in1022.7 mb 0.00 in0.0 mm 0.00 in0.0 mm 0.00 in0.0 mm
03:19 AM 27.1°F-2.7°C 20.2°F-6.6°C 75% 2.0 mph ESE3.2 kmh ESE -- 30.20 in1022.7 mb 0.00 in0.0 mm 0.00 in0.0 mm 0.00 in0.0 mm
03:20 AM 27.1°F-2.7°C 20.5°F-6.4°C 76% 5.0 mph ESE8.0 kmh ESE -- 30.19 in1022.4 mb 0.00 in0.0 mm 0.00 in0.0 mm 0.00 in0.0 mm
03:21 AM 27.1°F-2.7°C 20.5°F-6.4°C 76% 2.0 mph SE3.2 kmh SE -- 30.20 in1022.7 mb 0.00 in0.0 mm 0.00 in0.0 mm 0.00 in0.0 mm
03:22 AM 27.1°F-2.7°C 20.5°F-6.4°C 76% 5.0 mph SSE8.0 kmh SSE -- 30.19 in1022.4 mb 0.00 in0.0 mm 0.00 in0.0 mm 0.00 in0.0 mm
03:23 AM 27.3°F-2.6°C 20.7°F-6.3°C 76% 4.0 mph SSE6.4 kmh SSE -- 30.20 in1022.7 mb 0.00 in0.0 mm 0.00 in0.0 mm 0.00 in0.0 mm
03:24 AM 27.3°F-2.6°C 20.7°F-6.3°C 76% 2.0 mph SE3.2 kmh SE -- 30.20 in1022.7 mb 0.00 in0.0 mm 0.00 in0.0 mm 0.00 in0.0 mm
03:25 AM 27.1°F-2.7°C 20.5°F-6.4°C 76% 4.0 mph W6.4 kmh W -- 30.19 in1022.4 mb 0.00 in0.0 mm 0.00 in0.0 mm 0.00 in0.0 mm
03:26 AM 27.1°F-2.7°C 20.5°F-6.4°C 76% 6.0 mph SSW9.7 kmh SSW -- 30.20 in1022.7 mb 0.00 in0.0 mm 0.00 in0.0 mm 0.00 in0.0 mm
03:27 AM 27.1°F-2.7°C 20.5°F-6.4°C 76% 4.0 mph SSE6.4 kmh SSE -- 30.20 in1022.7 mb 0.00 in0.0 mm 0.00 in0.0 mm 0.00 in0.0 mm
03:28 AM 27.1°F-2.7°C 20.5°F-6.4°C 76% 4.0 mph SW6.4 kmh SW -- 30.20 in1022.7 mb 0.00 in0.0 mm 0.00 in0.0 mm 0.00 in0.0 mm
03:29 AM 27.1°F-2.7°C 20.5°F-6.4°C 76% 4.0 mph SSW6.4 kmh SSW -- 30.19 in1022.4 mb 0.00 in0.0 mm 0.00 in0.0 mm 0.00 in0.0 mm
03:30 AM 27.1°F-2.7°C 20.5°F-6.4°C 76% 3.0 mph SSE4.8 kmh SSE -- 30.19 in1022.4 mb 0.00 in0.0 mm 0.00 in0.0 mm 0.00 in0.0 mm
03:31 AM 27.1°F-2.7°C 20.5°F-6.4°C 76% 3.0 mph S4.8 kmh S -- 30.19 in1022.4 mb 0.00 in0.0 mm 0.00 in0.0 mm 0.00 in0.0 mm
03:32 AM 27.3°F-2.6°C 20.7°F-6.3°C 76% 4.0 mph ESE6.4 kmh ESE -- 30.19 in1022.4 mb 0.00 in0.0 mm 0.00 in0.0 mm 0.00 in0.0 mm
03:33 AM 27.3°F-2.6°C 20.7°F-6.3°C 76% 5.0 mph ESE8.0 kmh ESE -- 30.19 in1022.4 mb 0.00 in0.0 mm 0.00 in0.0 mm 0.00 in0.0 mm
03:34 AM 27.3°F-2.6°C 20.7°F-6.3°C 76% 4.0 mph S6.4 kmh S -- 30.19 in1022.4 mb 0.00 in0.0 mm 0.00 in0.0 mm 0.00 in0.0 mm
03:35 AM 27.3°F-2.6°C 20.7°F-6.3°C 76% 5.0 mph S8.0 kmh S -- 30.19 in1022.4 mb 0.00 in0.0 mm 0.00 in0.0 mm 0.00 in0.0 mm
03:36 AM 27.3°F-2.6°C 20.7°F-6.3°C 76% 4.0 mph SSW6.4 kmh SSW -- 30.19 in1022.4 mb 0.00 in0.0 mm 0.00 in0.0 mm 0.00 in0.0 mm
03:37 AM 27.3°F-2.6°C 20.7°F-6.3°C 76% 4.0 mph SSE6.4 kmh SSE -- 30.19 in1022.4 mb 0.00 in0.0 mm 0.00 in0.0 mm 0.00 in0.0 mm
03:38 AM 27.3°F-2.6°C 20.7°F-6.3°C 76% 3.0 mph SW4.8 kmh SW -- 30.19 in1022.4 mb 0.00 in0.0 mm 0.00 in0.0 mm 0.00 in0.0 mm
03:39 AM 27.3°F-2.6°C 20.7°F-6.3°C 76% 4.0 mph SSE6.4 kmh SSE -- 30.19 in1022.4 mb 0.00 in0.0 mm 0.00 in0.0 mm 0.00 in0.0 mm
03:40 AM 27.3°F-2.6°C 20.7°F-6.3°C 76% 4.0 mph S6.4 kmh S -- 30.19 in1022.4 mb 0.00 in0.0 mm 0.00 in0.0 mm 0.00 in0.0 mm
03:42 AM 27.3°F-2.6°C 20.7°F-6.3°C 76% 5.0 mph SSE8.0 kmh SSE -- 30.19 in1022.4 mb 0.00 in0.0 mm 0.00 in0.0 mm 0.00 in0.0 mm
03:43 AM 27.3°F-2.6°C 20.7°F-6.3°C 76% 4.0 mph S6.4 kmh S -- 30.19 in1022.4 mb 0.00 in0.0 mm 0.00 in0.0 mm 0.00 in0.0 mm
03:45 AM 27.3°F-2.6°C 20.7°F-6.3°C 76% 3.0 mph SSE4.8 kmh SSE -- 30.19 in1022.4 mb 0.00 in0.0 mm 0.00 in0.0 mm 0.00 in0.0 mm
03:46 AM 27.3°F-2.6°C 20.7°F-6.3°C 76% 4.0 mph SE6.4 kmh SE -- 30.19 in1022.4 mb 0.00 in0.0 mm 0.00 in0.0 mm 0.00 in0.0 mm
03:47 AM 27.3°F-2.6°C 20.7°F-6.3°C 76% 3.0 mph SSE4.8 kmh SSE -- 30.19 in1022.4 mb 0.00 in0.0 mm 0.00 in0.0 mm 0.00 in0.0 mm
03:48 AM 27.3°F-2.6°C 20.7°F-6.3°C 76% 3.0 mph SE4.8 kmh SE -- 30.18 in1022.0 mb 0.00 in0.0 mm 0.00 in0.0 mm 0.00 in0.0 mm
03:49 AM 27.3°F-2.6°C 20.7°F-6.3°C 76% 3.0 mph S4.8 kmh S -- 30.19 in1022.4 mb 0.00 in0.0 mm 0.00 in0.0 mm 0.00 in0.0 mm
03:50 AM 27.3°F-2.6°C 20.7°F-6.3°C 76% 3.0 mph SE4.8 kmh SE -- 30.18 in1022.0 mb 0.00 in0.0 mm 0.00 in0.0 mm 0.00 in0.0 mm
03:51 AM 27.3°F-2.6°C 20.7°F-6.3°C 76% 4.0 mph SSE6.4 kmh SSE -- 30.19 in1022.4 mb 0.00 in0.0 mm 0.00 in0.0 mm 0.00 in0.0 mm
03:52 AM 27.3°F-2.6°C 20.7°F-6.3°C 76% 2.0 mph WSW3.2 kmh WSW -- 30.19 in1022.4 mb 0.00 in0.0 mm 0.00 in0.0 mm 0.00 in0.0 mm
03:53 AM 27.3°F-2.6°C 20.7°F-6.3°C 76% 3.0 mph SSE4.8 kmh SSE -- 30.19 in1022.4 mb 0.00 in0.0 mm 0.00 in0.0 mm 0.00 in0.0 mm
03:54 AM 27.3°F-2.6°C 20.7°F-6.3°C 76% 3.0 mph S4.8 kmh S -- 30.19 in1022.4 mb 0.00 in0.0 mm 0.00 in0.0 mm 0.00 in0.0 mm
03:55 AM 27.3°F-2.6°C 20.7°F-6.3°C 76% 4.0 mph SSW6.4 kmh SSW -- 30.19 in1022.4 mb 0.00 in0.0 mm 0.00 in0.0 mm 0.00 in0.0 mm
03:56 AM 27.3°F-2.6°C 20.7°F-6.3°C 76% 3.0 mph SSW4.8 kmh SSW -- 30.19 in1022.4 mb 0.00 in0.0 mm 0.00 in0.0 mm 0.00 in0.0 mm
03:58 AM 27.1°F-2.7°C 20.5°F-6.4°C 76% 2.0 mph WSW3.2 kmh WSW -- 30.18 in1022.0 mb 0.00 in0.0 mm 0.00 in0.0 mm 0.00 in0.0 mm
04:00 AM 27.0°F-2.8°C 20.3°F-6.5°C 76% 3.0 mph SSW4.8 kmh SSW -- 30.18 in1022.0 mb 0.00 in0.0 mm 0.00 in0.0 mm 0.00 in0.0 mm
04:01 AM 27.0°F-2.8°C 20.3°F-6.5°C 76% 4.0 mph SSE6.4 kmh SSE -- 30.18 in1022.0 mb 0.00 in0.0 mm 0.00 in0.0 mm 0.00 in0.0 mm
04:02 AM 27.1°F-2.7°C 20.5°F-6.4°C 76% 4.0 mph S6.4 kmh S -- 30.19 in1022.4 mb 0.00 in0.0 mm 0.00 in0.0 mm 0.00 in0.0 mm
04:03 AM 27.3°F-2.6°C 20.7°F-6.3°C 76% 3.0 mph SSE4.8 kmh SSE -- 30.19 in1022.4 mb 0.00 in0.0 mm 0.00 in0.0 mm 0.00 in0.0 mm
04:04 AM 27.3°F-2.6°C 20.7°F-6.3°C 76% 2.0 mph SSE3.2 kmh SSE -- 30.18 in1022.0 mb 0.00 in0.0 mm 0.00 in0.0 mm 0.00 in0.0 mm
04:05 AM 27.3°F-2.6°C 20.7°F-6.3°C 76% 4.0 mph SSE6.4 kmh SSE -- 30.18 in1022.0 mb 0.00 in0.0 mm 0.00 in0.0 mm 0.00 in0.0 mm
04:06 AM 27.3°F-2.6°C 20.7°F-6.3°C 76% 3.0 mph S4.8 kmh S -- 30.18 in1022.0 mb 0.00 in0.0 mm 0.00 in0.0 mm 0.00 in0.0 mm
04:07 AM 27.3°F-2.6°C 20.7°F-6.3°C 76% 3.0 mph ESE4.8 kmh ESE -- 30.18 in1022.0 mb 0.00 in0.0 mm 0.00 in0.0 mm 0.00 in0.0 mm
04:08 AM 27.3°F-2.6°C 20.7°F-6.3°C 76% 2.0 mph S3.2 kmh S -- 30.19 in1022.4 mb 0.00 in0.0 mm 0.00 in0.0 mm 0.00 in0.0 mm
04:09 AM 27.3°F-2.6°C 20.7°F-6.3°C 76% 2.0 mph S3.2 kmh S -- 30.18 in1022.0 mb 0.00 in0.0 mm 0.00 in0.0 mm 0.00 in0.0 mm
04:10 AM 27.3°F-2.6°C 20.7°F-6.3°C 76% 3.0 mph SW4.8 kmh SW -- 30.18 in1022.0 mb 0.00 in0.0 mm 0.00 in0.0 mm 0.00 in0.0 mm
04:11 AM 27.3°F-2.6°C 20.7°F-6.3°C 76% 2.0 mph S3.2 kmh S -- 30.18 in1022.0 mb 0.00 in0.0 mm 0.00 in0.0 mm 0.00 in0.0 mm
04:12 AM 27.3°F-2.6°C 20.7°F-6.3°C 76% 2.0 mph W3.2 kmh W -- 30.18 in1022.0 mb 0.00 in0.0 mm 0.00 in0.0 mm 0.00 in0.0 mm
04:13 AM 27.1°F-2.7°C 20.5°F-6.4°C 76% 2.0 mph SW3.2 kmh SW -- 30.18 in1022.0 mb 0.00 in0.0 mm 0.00 in0.0 mm 0.00 in0.0 mm
04:14 AM 27.0°F-2.8°C 20.3°F-6.5°C 76% 3.0 mph S4.8 kmh S -- 30.18 in1022.0 mb 0.00 in0.0 mm 0.00 in0.0 mm 0.00 in0.0 mm
04:15 AM 26.7°F-2.9°C 20.8°F-6.2°C 78% 2.0 mph SW3.2 kmh SW -- 30.18 in1022.0 mb 0.00 in0.0 mm 0.00 in0.0 mm 0.00 in0.0 mm
04:16 AM 26.7°F-2.9°C 20.8°F-6.2°C 78% Calm Calm -- 30.18 in1022.0 mb 0.00 in0.0 mm 0.00 in0.0 mm 0.00 in0.0 mm
04:17 AM 26.7°F-2.9°C 20.8°F-6.2°C 78% 2.0 mph SSE3.2 kmh SSE -- 30.18 in1022.0 mb 0.00 in0.0 mm 0.00 in0.0 mm 0.00 in0.0 mm
04:18 AM 26.7°F-2.9°C 20.8°F-6.2°C 78% Calm Calm -- 30.18 in1022.0 mb 0.00 in0.0 mm 0.00 in0.0 mm 0.00 in0.0 mm
04:19 AM 26.6°F-3.0°C 20.6°F-6.3°C 78% 1.0 mph SW1.6 kmh SW -- 30.18 in1022.0 mb 0.00 in0.0 mm 0.00 in0.0 mm 0.00 in0.0 mm
04:20 AM 26.6°F-3.0°C 20.6°F-6.3°C 78% 1.0 mph S1.6 kmh S -- 30.18 in1022.0 mb 0.00 in0.0 mm 0.00 in0.0 mm 0.00 in0.0 mm
04:21 AM 26.6°F-3.0°C 20.6°F-6.3°C 78% 4.0 mph SE6.4 kmh SE -- 30.18 in1022.0 mb 0.00 in0.0 mm 0.00 in0.0 mm 0.00 in0.0 mm
04:22 AM 26.6°F-3.0°C 20.6°F-6.3°C 78% 2.0 mph SSW3.2 kmh SSW -- 30.18 in1022.0 mb 0.00 in0.0 mm 0.00 in0.0 mm 0.00 in0.0 mm
04:23 AM 26.7°F-2.9°C 20.8°F-6.2°C 78% 2.0 mph S3.2 kmh S -- 30.18 in1022.0 mb 0.00 in0.0 mm 0.00 in0.0 mm 0.00 in0.0 mm
04:24 AM 26.7°F-2.9°C 20.8°F-6.2°C 78% 2.0 mph SSE3.2 kmh SSE -- 30.17 in1021.7 mb 0.00 in0.0 mm 0.00 in0.0 mm 0.00 in0.0 mm
04:25 AM 26.7°F-2.9°C 20.8°F-6.2°C 78% 2.0 mph S3.2 kmh S -- 30.18 in1022.0 mb 0.00 in0.0 mm 0.00 in0.0 mm 0.00 in0.0 mm
04:26 AM 26.7°F-2.9°C 20.8°F-6.2°C 78% 3.0 mph SSE4.8 kmh SSE -- 30.18 in1022.0 mb 0.00 in0.0 mm 0.00 in0.0 mm 0.00 in0.0 mm
04:27 AM 27.0°F-2.8°C 20.9°F-6.2°C 78% 3.0 mph S4.8 kmh S -- 30.18 in1022.0 mb 0.00 in0.0 mm 0.00 in0.0 mm 0.00 in0.0 mm
04:28 AM 27.0°F-2.8°C 20.9°F-6.2°C 78% 3.0 mph SSE4.8 kmh SSE -- 30.18 in1022.0 mb 0.00 in0.0 mm 0.00 in0.0 mm 0.00 in0.0 mm
04:29 AM 27.0°F-2.8°C 20.9°F-6.2°C 78% 2.0 mph SW3.2 kmh SW -- 30.18 in1022.0 mb 0.00 in0.0 mm 0.00 in0.0 mm 0.00 in0.0 mm
04:30 AM 26.7°F-2.9°C 20.8°F-6.2°C 78% Calm Calm -- 30.18 in1022.0 mb 0.00 in0.0 mm 0.00 in0.0 mm 0.00 in0.0 mm
04:31 AM 26.7°F-2.9°C 20.8°F-6.2°C 78% 2.0 mph W3.2 kmh W -- 30.18 in1022.0 mb 0.00 in0.0 mm 0.00 in0.0 mm 0.00 in0.0 mm
04:32 AM 26.7°F-2.9°C 20.8°F-6.2°C 78% 1.0 mph SW1.6 kmh SW -- 30.18 in1022.0 mb 0.00 in0.0 mm 0.00 in0.0 mm 0.00 in0.0 mm
04:33 AM 26.7°F-2.9°C 20.8°F-6.2°C 78% Calm Calm -- 30.18 in1022.0 mb 0.00 in0.0 mm 0.00 in0.0 mm 0.00 in0.0 mm
04:34 AM 26.7°F-2.9°C 20.8°F-6.2°C 78% 2.0 mph SW3.2 kmh SW -- 30.18 in1022.0 mb 0.00 in0.0 mm 0.00 in0.0 mm 0.00 in0.0 mm
04:35 AM 26.7°F-2.9°C 21.1°F-6.1°C 79% 2.0 mph S3.2 kmh S -- 30.17 in1021.7 mb 0.00 in0.0 mm 0.00 in0.0 mm 0.00 in0.0 mm
04:36 AM 26.7°F-2.9°C 21.1°F-6.1°C 79% 1.0 mph SSE1.6 kmh SSE -- 30.18 in1022.0 mb 0.00 in0.0 mm 0.00 in0.0 mm 0.00 in0.0 mm
04:37 AM 26.6°F-3.0°C 20.9°F-6.2°C 79% 2.0 mph SSW3.2 kmh SSW -- 30.18 in1022.0 mb 0.00 in0.0 mm 0.00 in0.0 mm 0.00 in0.0 mm
04:38 AM 26.6°F-3.0°C 20.9°F-6.2°C 79% Calm Calm -- 30.18 in1022.0 mb 0.00 in0.0 mm 0.00 in0.0 mm 0.00 in0.0 mm
04:39 AM 26.3°F-3.2°C 20.5°F-6.4°C 79% 3.0 mph SSE4.8 kmh SSE -- 30.18 in1022.0 mb 0.00 in0.0 mm 0.00 in0.0 mm 0.00 in0.0 mm
04:40 AM 26.3°F-3.2°C 20.5°F-6.4°C 79% 2.0 mph S3.2 kmh S -- 30.18 in1022.0 mb 0.00 in0.0 mm 0.00 in0.0 mm 0.00 in0.0 mm
04:41 AM 26.6°F-3.0°C 20.9°F-6.2°C 79% 4.0 mph SSE6.4 kmh SSE -- 30.17 in1021.7 mb 0.00 in0.0 mm 0.00 in0.0 mm 0.00 in0.0 mm
04:42 AM 26.6°F-3.0°C 20.9°F-6.2°C 79% 3.0 mph SSE4.8 kmh SSE -- 30.18 in1022.0 mb 0.00 in0.0 mm 0.00 in0.0 mm 0.00 in0.0 mm
04:43 AM 26.6°F-3.0°C 20.9°F-6.2°C 79% 5.0 mph S8.0 kmh S -- 30.17 in1021.7 mb 0.00 in0.0 mm 0.00 in0.0 mm 0.00 in0.0 mm
04:44 AM 26.7°F-2.9°C 21.1°F-6.1°C 79% 6.0 mph SE9.7 kmh SE -- 30.17 in1021.7 mb 0.00 in0.0 mm 0.00 in0.0 mm 0.00 in0.0 mm
04:45 AM 27.0°F-2.8°C 21.2°F-6.0°C 79% 1.0 mph ESE1.6 kmh ESE -- 30.17 in1021.7 mb 0.00 in0.0 mm 0.00 in0.0 mm 0.00 in0.0 mm
04:46 AM 26.7°F-2.9°C 21.1°F-6.1°C 79% 1.0 mph SW1.6 kmh SW -- 30.17 in1021.7 mb 0.00 in0.0 mm 0.00 in0.0 mm 0.00 in0.0 mm
04:47 AM 26.6°F-3.0°C 20.9°F-6.2°C 79% 3.0 mph WSW4.8 kmh WSW -- 30.17 in1021.7 mb 0.00 in0.0 mm 0.00 in0.0 mm 0.00 in0.0 mm
04:48 AM 26.6°F-3.0°C 21.2°F-6.0°C 80% 2.0 mph S3.2 kmh S -- 30.18 in1022.0 mb 0.00 in0.0 mm 0.00 in0.0 mm 0.00 in0.0 mm
04:49 AM 26.6°F-3.0°C 21.2°F-6.0°C 80% 4.0 mph SW6.4 kmh SW -- 30.17 in1021.7 mb 0.00 in0.0 mm 0.00 in0.0 mm 0.00 in0.0 mm
04:50 AM 26.7°F-2.9°C 21.4°F-5.9°C 80% 2.0 mph SSE3.2 kmh SSE -- 30.17 in1021.7 mb 0.00 in0.0 mm 0.00 in0.0 mm 0.00 in0.0 mm
04:51 AM 26.7°F-2.9°C 21.4°F-5.9°C 80% 3.0 mph S4.8 kmh S -- 30.17 in1021.7 mb 0.00 in0.0 mm 0.00 in0.0 mm 0.00 in0.0 mm
04:52 AM 26.7°F-2.9°C 21.4°F-5.9°C 80% 2.0 mph SSE3.2 kmh SSE -- 30.17 in1021.7 mb 0.00 in0.0 mm 0.00 in0.0 mm 0.00 in0.0 mm
04:53 AM 26.7°F-2.9°C 21.4°F-5.9°C 80% Calm Calm -- 30.17 in1021.7 mb 0.00 in0.0 mm 0.00 in0.0 mm 0.00 in0.0 mm
04:54 AM 26.6°F-3.0°C 21.2°F-6.0°C 80% Calm Calm -- 30.17 in1021.7 mb 0.00 in0.0 mm 0.00 in0.0 mm 0.00 in0.0 mm
04:55 AM 26.6°F-3.0°C 21.2°F-6.0°C 80% 2.0 mph SSE3.2 kmh SSE -- 30.17 in1021.7 mb 0.00 in0.0 mm 0.00 in0.0 mm 0.00 in0.0 mm
04:57 AM 26.3°F-3.2°C 20.8°F-6.2°C 80% 3.0 mph S4.8 kmh S -- 30.17 in1021.7 mb 0.00 in0.0 mm 0.00 in0.0 mm 0.00 in0.0 mm
04:58 AM 26.3°F-3.2°C 20.8°F-6.2°C 80% 1.0 mph WSW1.6 kmh WSW -- 30.17 in1021.7 mb 0.00 in0.0 mm 0.00 in0.0 mm 0.00 in0.0 mm
04:59 AM 26.2°F-3.2°C 20.8°F-6.2°C 80% 1.0 mph S1.6 kmh S -- 30.18 in1022.0 mb 0.00 in0.0 mm 0.00 in0.0 mm 0.00 in0.0 mm
05:00 AM 26.2°F-3.2°C 20.8°F-6.2°C 80% 1.0 mph SSW1.6 kmh SSW -- 30.17 in1021.7 mb 0.00 in0.0 mm 0.00 in0.0 mm 0.00 in0.0 mm
05:01 AM 26.2°F-3.2°C 20.8°F-6.2°C 80% 2.0 mph SSE3.2 kmh SSE -- 30.18 in1022.0 mb 0.00 in0.0 mm 0.00 in0.0 mm 0.00 in0.0 mm
05:02 AM 26.3°F-3.2°C 20.8°F-6.2°C 80% 2.0 mph S3.2 kmh S -- 30.17 in1021.7 mb 0.00 in0.0 mm 0.00 in0.0 mm 0.00 in0.0 mm
05:03 AM 26.3°F-3.2°C 20.8°F-6.2°C 80% 3.0 mph SW4.8 kmh SW -- 30.17 in1021.7 mb 0.00 in0.0 mm 0.00 in0.0 mm 0.00 in0.0 mm
05:04 AM 26.3°F-3.2°C 20.8°F-6.2°C 80% 2.0 mph SW3.2 kmh SW -- 30.17 in1021.7 mb 0.00 in0.0 mm 0.00 in0.0 mm 0.00 in0.0 mm
05:05 AM 26.3°F-3.2°C 20.8°F-6.2°C 80% Calm Calm -- 30.17 in1021.7 mb 0.00 in0.0 mm 0.00 in0.0 mm 0.00 in0.0 mm
05:06 AM 26.3°F-3.2°C 20.8°F-6.2°C 80% 2.0 mph SSE3.2 kmh SSE -- 30.17 in1021.7 mb 0.00 in0.0 mm 0.00 in0.0 mm 0.00 in0.0 mm
05:07 AM 26.2°F-3.2°C 20.8°F-6.2°C 80% 1.0 mph S1.6 kmh S -- 30.17 in1021.7 mb 0.00 in0.0 mm 0.00 in0.0 mm 0.00 in0.0 mm
05:08 AM 26.2°F-3.2°C 20.8°F-6.2°C 80% 2.0 mph S3.2 kmh S -- 30.17 in1021.7 mb 0.00 in0.0 mm 0.00 in0.0 mm 0.00 in0.0 mm
05:09 AM 26.3°F-3.2°C 20.8°F-6.2°C 80% 2.0 mph SSE3.2 kmh SSE -- 30.17 in1021.7 mb 0.00 in0.0 mm 0.00 in0.0 mm 0.00 in0.0 mm
05:10 AM 26.3°F-3.2°C 20.8°F-6.2°C 80% 1.0 mph SW1.6 kmh SW -- 30.17 in1021.7 mb 0.00 in0.0 mm 0.00 in0.0 mm 0.00 in0.0 mm
05:11 AM 26.2°F-3.2°C 20.8°F-6.2°C 80% 2.0 mph W3.2 kmh W -- 30.17 in1021.7 mb 0.00 in0.0 mm 0.00 in0.0 mm 0.00 in0.0 mm
05:12 AM 26.1°F-3.3°C 21.0°F-6.1°C 81% 2.0 mph W3.2 kmh W -- 30.17 in1021.7 mb 0.00 in0.0 mm 0.00 in0.0 mm 0.00 in0.0 mm
05:13 AM 25.7°F-3.5°C 20.6°F-6.3°C 81% 2.0 mph WSW3.2 kmh WSW -- 30.17 in1021.7 mb 0.00 in0.0 mm 0.00 in0.0 mm 0.00 in0.0 mm
05:14 AM 25.2°F-3.8°C 20.1°F-6.6°C 81% 2.0 mph WSW3.2 kmh WSW -- 30.17 in1021.7 mb 0.00 in0.0 mm 0.00 in0.0 mm 0.00 in0.0 mm
05:15 AM 25.2°F-3.8°C 20.1°F-6.6°C 81% 2.0 mph ESE3.2 kmh ESE -- 30.17 in1021.7 mb 0.00 in0.0 mm 0.00 in0.0 mm 0.00 in0.0 mm
05:16 AM 25.4°F-3.7°C 20.3°F-6.5°C 81% 3.0 mph S4.8 kmh S -- 30.17 in1021.7 mb 0.00 in0.0 mm 0.00 in0.0 mm 0.00 in0.0 mm
05:17 AM 25.9°F-3.4°C 20.8°F-6.2°C 81% 2.0 mph SSE3.2 kmh SSE -- 30.17 in1021.7 mb 0.00 in0.0 mm 0.00 in0.0 mm 0.00 in0.0 mm
05:18 AM 26.1°F-3.3°C 21.0°F-6.1°C 81% 2.0 mph SSE3.2 kmh SSE -- 30.17 in1021.7 mb 0.00 in0.0 mm 0.00 in0.0 mm 0.00 in0.0 mm
05:19 AM 26.2°F-3.2°C 21.1°F-6.1°C 81% 2.0 mph SW3.2 kmh SW -- 30.17 in1021.7 mb 0.00 in0.0 mm 0.00 in0.0 mm 0.00 in0.0 mm
05:20 AM 26.2°F-3.2°C 21.1°F-6.1°C 81% 2.0 mph W3.2 kmh W -- 30.17 in1021.7 mb 0.00 in0.0 mm 0.00 in0.0 mm 0.00 in0.0 mm
05:21 AM 26.1°F-3.3°C 21.0°F-6.1°C 81% 3.0 mph SW4.8 kmh SW -- 30.17 in1021.7 mb 0.00 in0.0 mm 0.00 in0.0 mm 0.00 in0.0 mm
05:22 AM 26.3°F-3.2°C 21.1°F-6.1°C 81% 2.0 mph SSE3.2 kmh SSE -- 30.17 in1021.7 mb 0.00 in0.0 mm 0.00 in0.0 mm 0.00 in0.0 mm
05:23 AM 26.3°F-3.2°C 21.1°F-6.1°C 81% 3.0 mph SSE4.8 kmh SSE -- 30.17 in1021.7 mb 0.00 in0.0 mm 0.00 in0.0 mm 0.00 in0.0 mm
05:24 AM 26.3°F-3.2°C 21.1°F-6.1°C 81% 3.0 mph SSE4.8 kmh SSE -- 30.18 in1022.0 mb 0.00 in0.0 mm 0.00 in0.0 mm 0.00 in0.0 mm
05:25 AM 26.3°F-3.2°C 21.1°F-6.1°C 81% 3.0 mph SE4.8 kmh SE -- 30.18 in1022.0 mb 0.00 in0.0 mm 0.00 in0.0 mm 0.00 in0.0 mm
05:26 AM 26.6°F-3.0°C 21.5°F-5.8°C 81% 4.0 mph NNE6.4 kmh NNE -- 30.17 in1021.7 mb 0.00 in0.0 mm 0.00 in0.0 mm 0.00 in0.0 mm
05:27 AM 26.6°F-3.0°C 21.5°F-5.8°C 81% 1.0 mph SE1.6 kmh SE -- 30.17 in1021.7 mb 0.00 in0.0 mm 0.00 in0.0 mm 0.00 in0.0 mm
05:28 AM 26.6°F-3.0°C 21.5°F-5.8°C 81% 2.0 mph SE3.2 kmh SE -- 30.17 in1021.7 mb 0.00 in0.0 mm 0.00 in0.0 mm 0.00 in0.0 mm
05:29 AM 26.3°F-3.2°C 21.1°F-6.1°C 81% 1.0 mph S1.6 kmh S -- 30.17 in1021.7 mb 0.00 in0.0 mm 0.00 in0.0 mm 0.00 in0.0 mm
05:30 AM 26.2°F-3.2°C 21.1°F-6.1°C 81% Calm Calm -- 30.17 in1021.7 mb 0.00 in0.0 mm 0.00 in0.0 mm 0.00 in0.0 mm
05:31 AM 26.2°F-3.2°C 21.1°F-6.1°C 81% 1.0 mph S1.6 kmh S -- 30.17 in1021.7 mb 0.00 in0.0 mm 0.00 in0.0 mm 0.00 in0.0 mm
05:32 AM 26.2°F-3.2°C 21.1°F-6.1°C 81% 2.0 mph SSE3.2 kmh SSE -- 30.17 in1021.7 mb 0.00 in0.0 mm 0.00 in0.0 mm 0.00 in0.0 mm
05:33 AM 26.2°F-3.2°C 21.1°F-6.1°C 81% 1.0 mph W1.6 kmh W -- 30.17 in1021.7 mb 0.00 in0.0 mm 0.00 in0.0 mm 0.00 in0.0 mm
05:34 AM 25.9°F-3.4°C 20.8°F-6.2°C 81% 2.0 mph SSW3.2 kmh SSW -- 30.17 in1021.7 mb 0.00 in0.0 mm 0.00 in0.0 mm 0.00 in0.0 mm
05:35 AM 25.9°F-3.4°C 20.8°F-6.2°C 81% 2.0 mph SW3.2 kmh SW -- 30.17 in1021.7 mb 0.00 in0.0 mm 0.00 in0.0 mm 0.00 in0.0 mm
05:36 AM 25.4°F-3.7°C 20.3°F-6.5°C 81% 1.0 mph S1.6 kmh S -- 30.17 in1021.7 mb 0.00 in0.0 mm 0.00 in0.0 mm 0.00 in0.0 mm
05:37 AM 25.4°F-3.7°C 20.3°F-6.5°C 81% 1.0 mph SE1.6 kmh SE -- 30.17 in1021.7 mb 0.00 in0.0 mm 0.00 in0.0 mm 0.00 in0.0 mm
05:38 AM 25.4°F-3.7°C 20.3°F-6.5°C 81% 2.0 mph WSW3.2 kmh WSW -- 30.17 in1021.7 mb 0.00 in0.0 mm 0.00 in0.0 mm 0.00 in0.0 mm
05:39 AM 25.7°F-3.5°C 20.6°F-6.3°C 81% 2.0 mph SSE3.2 kmh SSE -- 30.17 in1021.7 mb 0.00 in0.0 mm 0.00 in0.0 mm 0.00 in0.0 mm
05:40 AM 25.7°F-3.5°C 20.6°F-6.3°C 81% 2.0 mph ESE3.2 kmh ESE -- 30.17 in1021.7 mb 0.00 in0.0 mm 0.00 in0.0 mm 0.00 in0.0 mm
05:41 AM 25.7°F-3.5°C 20.6°F-6.3°C 81% 2.0 mph SW3.2 kmh SW -- 30.17 in1021.7 mb 0.00 in0.0 mm 0.00 in0.0 mm 0.00 in0.0 mm
05:42 AM 25.2°F-3.8°C 20.7°F-6.3°C 83% 2.0 mph WSW3.2 kmh WSW -- 30.17 in1021.7 mb 0.00 in0.0 mm 0.00 in0.0 mm 0.00 in0.0 mm
05:43 AM 25.4°F-3.7°C 20.8°F-6.2°C 83% Calm Calm -- 30.17 in1021.7 mb 0.00 in0.0 mm 0.00 in0.0 mm 0.00 in0.0 mm
05:44 AM 25.2°F-3.8°C 20.7°F-6.3°C 83% 2.0 mph SSW3.2 kmh SSW -- 30.17 in1021.7 mb 0.00 in0.0 mm 0.00 in0.0 mm 0.00 in0.0 mm
05:45 AM 25.1°F-3.8°C 20.7°F-6.3°C 83% 3.0 mph WSW4.8 kmh WSW -- 30.17 in1021.7 mb 0.00 in0.0 mm 0.00 in0.0 mm 0.00 in0.0 mm
05:46 AM 24.8°F-4.0°C 20.9°F-6.2°C 85% 2.0 mph SW3.2 kmh SW -- 30.18 in1022.0 mb 0.00 in0.0 mm 0.00 in0.0 mm 0.00 in0.0 mm
05:47 AM 24.8°F-4.0°C 20.9°F-6.2°C 85% 2.0 mph W3.2 kmh W -- 30.17 in1021.7 mb 0.00 in0.0 mm 0.00 in0.0 mm 0.00 in0.0 mm
05:48 AM 25.0°F-3.9°C 21.1°F-6.1°C 85% 2.0 mph WSW3.2 kmh WSW -- 30.18 in1022.0 mb 0.00 in0.0 mm 0.00 in0.0 mm 0.00 in0.0 mm
05:49 AM 25.0°F-3.9°C 21.1°F-6.1°C 85% 2.0 mph WSW3.2 kmh WSW -- 30.17 in1021.7 mb 0.00 in0.0 mm 0.00 in0.0 mm 0.00 in0.0 mm
05:50 AM 25.0°F-3.9°C 21.1°F-6.1°C 85% 2.0 mph SSW3.2 kmh SSW -- 30.17 in1021.7 mb 0.00 in0.0 mm 0.00 in0.0 mm 0.00 in0.0 mm
05:51 AM 25.1°F-3.8°C 21.2°F-6.0°C 85% 2.0 mph W3.2 kmh W -- 30.17 in1021.7 mb 0.00 in0.0 mm 0.00 in0.0 mm 0.00 in0.0 mm
05:52 AM 25.0°F-3.9°C 21.1°F-6.1°C 85% 1.0 mph WNW1.6 kmh WNW -- 30.17 in1021.7 mb 0.00 in0.0 mm 0.00 in0.0 mm 0.00 in0.0 mm
05:53 AM 24.8°F-4.0°C 20.9°F-6.2°C 85% 2.0 mph SSW3.2 kmh SSW -- 30.17 in1021.7 mb 0.00 in0.0 mm 0.00 in0.0 mm 0.00 in0.0 mm
05:54 AM 24.8°F-4.0°C 20.9°F-6.2°C 85% 2.0 mph WSW3.2 kmh WSW -- 30.17 in1021.7 mb 0.00 in0.0 mm 0.00 in0.0 mm 0.00 in0.0 mm
05:55 AM 24.8°F-4.0°C 20.9°F-6.2°C 85% 1.0 mph WSW1.6 kmh WSW -- 30.17 in1021.7 mb 0.00 in0.0 mm 0.00 in0.0 mm 0.00 in0.0 mm
05:56 AM 24.8°F-4.0°C 20.9°F-6.2°C 85% 1.0 mph W1.6 kmh W -- 30.17 in1021.7 mb 0.00 in0.0 mm 0.00 in0.0 mm 0.00 in0.0 mm
05:57 AM 24.6°F-4.1°C 20.7°F-6.3°C 85% 2.0 mph W3.2 kmh W -- 30.17 in1021.7 mb 0.00 in0.0 mm 0.00 in0.0 mm 0.00 in0.0 mm
05:58 AM 24.6°F-4.1°C 20.7°F-6.3°C 85% 2.0 mph SW3.2 kmh SW -- 30.17 in1021.7 mb 0.00 in0.0 mm 0.00 in0.0 mm 0.00 in0.0 mm
05:59 AM 24.4°F-4.2°C 20.8°F-6.2°C 86% 1.0 mph SW1.6 kmh SW -- 30.17 in1021.7 mb 0.00 in0.0 mm 0.00 in0.0 mm 0.00 in0.0 mm
06:00 AM 24.4°F-4.2°C 20.8°F-6.2°C 86% Calm Calm -- 30.17 in1021.7 mb 0.00 in0.0 mm 0.00 in0.0 mm 0.00 in0.0 mm
06:02 AM 24.2°F-4.3°C 20.6°F-6.3°C 86% Calm Calm -- 30.17 in1021.7 mb 0.00 in0.0 mm 0.00 in0.0 mm 0.00 in0.0 mm
06:04 AM 23.8°F-4.6°C 20.1°F-6.6°C 86% Calm Calm -- 30.17 in1021.7 mb 0.00 in0.0 mm 0.00 in0.0 mm 0.00 in0.0 mm
06:06 AM 23.7°F-4.6°C 20.1°F-6.6°C 86% Calm Calm -- 30.17 in1021.7 mb 0.00 in0.0 mm 0.00 in0.0 mm 0.00 in0.0 mm
06:07 AM 23.7°F-4.6°C 20.1°F-6.6°C 86% Calm Calm -- 30.17 in1021.7 mb 0.00 in0.0 mm 0.00 in0.0 mm 0.00 in0.0 mm
06:08 AM 23.7°F-4.6°C 20.1°F-6.6°C 86% Calm Calm -- 30.17 in1021.7 mb 0.00 in0.0 mm 0.00 in0.0 mm 0.00 in0.0 mm
06:09 AM 23.4°F-4.8°C 20.3°F-6.5°C 88% Calm Calm -- 30.17 in1021.7 mb 0.00 in0.0 mm 0.00 in0.0 mm 0.00 in0.0 mm
06:10 AM 23.3°F-4.8°C 20.3°F-6.5°C 88% Calm Calm -- 30.17 in1021.7 mb 0.00 in0.0 mm 0.00 in0.0 mm 0.00 in0.0 mm
06:11 AM 23.3°F-4.8°C 20.3°F-6.5°C 88% Calm Calm -- 30.17 in1021.7 mb 0.00 in0.0 mm 0.00 in0.0 mm 0.00 in0.0 mm
06:12 AM 23.3°F-4.8°C 20.3°F-6.5°C 88% Calm Calm -- 30.17 in1021.7 mb 0.00 in0.0 mm 0.00 in0.0 mm 0.00 in0.0 mm
06:13 AM 23.2°F-4.9°C 20.1°F-6.6°C 88% Calm Calm -- 30.17 in1021.7 mb 0.00 in0.0 mm 0.00 in0.0 mm 0.00 in0.0 mm
06:16 AM 22.9°F-5.1°C 19.8°F-6.8°C 88% Calm Calm -- 30.18 in1022.0 mb 0.00 in0.0 mm 0.00 in0.0 mm 0.00 in0.0 mm
06:17 AM 22.9°F-5.1°C 19.8°F-6.8°C 88% Calm Calm -- 30.18 in1022.0 mb 0.00 in0.0 mm 0.00 in0.0 mm 0.00 in0.0 mm
06:19 AM 22.7°F-5.2°C 19.6°F-6.9°C 88% Calm Calm -- 30.17 in1021.7 mb 0.00 in0.0 mm 0.00 in0.0 mm 0.00 in0.0 mm
06:20 AM 22.7°F-5.2°C 20.1°F-6.6°C 90% Calm Calm -- 30.18 in1022.0 mb 0.00 in0.0 mm 0.00 in0.0 mm 0.00 in0.0 mm
06:21 AM 22.7°F-5.2°C 20.1°F-6.6°C 90% Calm Calm -- 30.18 in1022.0 mb 0.00 in0.0 mm 0.00 in0.0 mm 0.00 in0.0 mm
06:22 AM 22.5°F-5.3°C 19.9°F-6.7°C 90% Calm Calm -- 30.17 in1021.7 mb 0.00 in0.0 mm 0.00 in0.0 mm 0.00 in0.0 mm
06:24 AM 22.5°F-5.3°C 19.9°F-6.7°C 90% Calm Calm -- 30.18 in1022.0 mb 0.00 in0.0 mm 0.00 in0.0 mm 0.00 in0.0 mm
06:26 AM 22.5°F-5.3°C 19.9°F-6.7°C 90% Calm Calm -- 30.17 in1021.7 mb 0.00 in0.0 mm 0.00 in0.0 mm 0.00 in0.0 mm
06:27 AM 22.5°F-5.3°C 19.9°F-6.7°C 90% 1.0 mph W1.6 kmh W -- 30.17 in1021.7 mb 0.00 in0.0 mm 0.00 in0.0 mm 0.00 in0.0 mm
06:28 AM 22.5°F-5.3°C 19.9°F-6.7°C 90% 2.0 mph W3.2 kmh W -- 30.17 in1021.7 mb 0.00 in0.0 mm 0.00 in0.0 mm 0.00 in0.0 mm
06:29 AM 22.5°F-5.3°C 19.9°F-6.7°C 90% 2.0 mph W3.2 kmh W -- 30.18 in1022.0 mb 0.00 in0.0 mm 0.00 in0.0 mm 0.00 in0.0 mm
06:30 AM 22.5°F-5.3°C 19.9°F-6.7°C 90% 2.0 mph W3.2 kmh W -- 30.17 in1021.7 mb 0.00 in0.0 mm 0.00 in0.0 mm 0.00 in0.0 mm
06:31 AM 22.5°F-5.3°C 20.2°F-6.6°C 91% 2.0 mph W3.2 kmh W -- 30.17 in1021.7 mb 0.00 in0.0 mm 0.00 in0.0 mm 0.00 in0.0 mm
06:32 AM 22.5°F-5.3°C 20.2°F-6.6°C 91% 1.0 mph W1.6 kmh W -- 30.17 in1021.7 mb 0.00 in0.0 mm 0.00 in0.0 mm 0.00 in0.0 mm
06:33 AM 22.5°F-5.3°C 20.2°F-6.6°C 91% 2.0 mph W3.2 kmh W -- 30.18 in1022.0 mb 0.00 in0.0 mm 0.00 in0.0 mm 0.00 in0.0 mm
06:34 AM 22.5°F-5.3°C 20.2°F-6.6°C 91% 2.0 mph W3.2 kmh W -- 30.17 in1021.7 mb 0.00 in0.0 mm 0.00 in0.0 mm 0.00 in0.0 mm
06:35 AM 22.5°F-5.3°C 20.2°F-6.6°C 91% 2.0 mph WSW3.2 kmh WSW -- 30.17 in1021.7 mb 0.00 in0.0 mm 0.00 in0.0 mm 0.00 in0.0 mm
06:36 AM 22.5°F-5.3°C 20.2°F-6.6°C 91% 1.0 mph W1.6 kmh W -- 30.17 in1021.7 mb 0.00 in0.0 mm 0.00 in0.0 mm 0.00 in0.0 mm
06:37 AM 22.3°F-5.4°C 20.0°F-6.7°C 91% 2.0 mph W3.2 kmh W -- 30.18 in1022.0 mb 0.00 in0.0 mm 0.00 in0.0 mm 0.00 in0.0 mm
06:39 AM 22.3°F-5.4°C 20.0°F-6.7°C 91% 2.0 mph WNW3.2 kmh WNW -- 30.17 in1021.7 mb 0.00 in0.0 mm 0.00 in0.0 mm 0.00 in0.0 mm
06:40 AM 22.1°F-5.5°C 19.8°F-6.8°C 91% 3.0 mph W4.8 kmh W -- 30.18 in1022.0 mb 0.00 in0.0 mm 0.00 in0.0 mm 0.00 in0.0 mm
06:41 AM 22.1°F-5.5°C 19.8°F-6.8°C 91% 2.0 mph WNW3.2 kmh WNW -- 30.17 in1021.7 mb 0.00 in0.0 mm 0.00 in0.0 mm 0.00 in0.0 mm
06:42 AM 22.1°F-5.5°C 19.8°F-6.8°C 91% 1.0 mph NW1.6 kmh NW -- 30.17 in1021.7 mb 0.00 in0.0 mm 0.00 in0.0 mm 0.00 in0.0 mm
06:43 AM 22.1°F-5.5°C 19.8°F-6.8°C 91% Calm Calm -- 30.17 in1021.7 mb 0.00 in0.0 mm 0.00 in0.0 mm 0.00 in0.0 mm
06:44 AM 22.1°F-5.5°C 19.8°F-6.8°C 91% 3.0 mph W4.8 kmh W -- 30.18 in1022.0 mb 0.00 in0.0 mm 0.00 in0.0 mm 0.00 in0.0 mm
06:45 AM 22.1°F-5.5°C 19.8°F-6.8°C 91% 2.0 mph W3.2 kmh W -- 30.18 in1022.0 mb 0.00 in0.0 mm 0.00 in0.0 mm 0.00 in0.0 mm
06:47 AM 22.1°F-5.5°C 19.8°F-6.8°C 91% 3.0 mph W4.8 kmh W -- 30.18 in1022.0 mb 0.00 in0.0 mm 0.00 in0.0 mm 0.00 in0.0 mm
06:48 AM 22.1°F-5.5°C 19.8°F-6.8°C 91% 2.0 mph W3.2 kmh W -- 30.18 in1022.0 mb 0.00 in0.0 mm 0.00 in0.0 mm 0.00 in0.0 mm
06:49 AM 22.1°F-5.5°C 19.8°F-6.8°C 91% 1.0 mph W1.6 kmh W -- 30.18 in1022.0 mb 0.00 in0.0 mm 0.00 in0.0 mm 0.00 in0.0 mm
06:50 AM 22.1°F-5.5°C 19.8°F-6.8°C 91% 2.0 mph W3.2 kmh W -- 30.18 in1022.0 mb 0.00 in0.0 mm 0.00 in0.0 mm 0.00 in0.0 mm
06:51 AM 22.1°F-5.5°C 19.8°F-6.8°C 91% 3.0 mph W4.8 kmh W -- 30.17 in1021.7 mb 0.00 in0.0 mm 0.00 in0.0 mm 0.00 in0.0 mm
06:52 AM 22.1°F-5.5°C 19.8°F-6.8°C 91% 1.0 mph W1.6 kmh W -- 30.17 in1021.7 mb 0.00 in0.0 mm 0.00 in0.0 mm 0.00 in0.0 mm
06:53 AM 22.1°F-5.5°C 19.8°F-6.8°C 91% 4.0 mph W6.4 kmh W -- 30.18 in1022.0 mb 0.00 in0.0 mm 0.00 in0.0 mm 0.00 in0.0 mm
06:54 AM 22.1°F-5.5°C 19.8°F-6.8°C 91% 4.0 mph W6.4 kmh W -- 30.17 in1021.7 mb 0.00 in0.0 mm 0.00 in0.0 mm 0.00 in0.0 mm
06:55 AM 22.1°F-5.5°C 19.8°F-6.8°C 91% 1.0 mph NW1.6 kmh NW -- 30.17 in1021.7 mb 0.00 in0.0 mm 0.00 in0.0 mm 0.00 in0.0 mm
06:56 AM 22.1°F-5.5°C 19.8°F-6.8°C 91% 3.0 mph W4.8 kmh W -- 30.18 in1022.0 mb 0.00 in0.0 mm 0.00 in0.0 mm 0.00 in0.0 mm
06:58 AM 22.1°F-5.5°C 19.8°F-6.8°C 91% 2.0 mph W3.2 kmh W -- 30.18 in1022.0 mb 0.00 in0.0 mm 0.00 in0.0 mm 0.00 in0.0 mm
07:00 AM 22.1°F-5.5°C 19.8°F-6.8°C 91% 3.0 mph W4.8 kmh W -- 30.17 in1021.7 mb 0.00 in0.0 mm 0.00 in0.0 mm 0.00 in0.0 mm
07:01 AM 22.1°F-5.5°C 19.8°F-6.8°C 91% 2.0 mph W3.2 kmh W -- 30.18 in1022.0 mb 0.00 in0.0 mm 0.00 in0.0 mm 0.00 in0.0 mm
07:03 AM 22.1°F-5.5°C 19.8°F-6.8°C 91% 3.0 mph W4.8 kmh W -- 30.18 in1022.0 mb 0.00 in0.0 mm 0.00 in0.0 mm 0.00 in0.0 mm
07:04 AM 22.1°F-5.5°C 19.8°F-6.8°C 91% 1.0 mph W1.6 kmh W -- 30.17 in1021.7 mb 0.00 in0.0 mm 0.00 in0.0 mm 0.00 in0.0 mm
07:05 AM 22.1°F-5.5°C 19.8°F-6.8°C 91% 2.0 mph WNW3.2 kmh WNW -- 30.18 in1022.0 mb 0.00 in0.0 mm 0.00 in0.0 mm 0.00 in0.0 mm
07:06 AM 21.9°F-5.6°C 19.7°F-6.8°C 91% 2.0 mph WNW3.2 kmh WNW -- 30.17 in1021.7 mb 0.00 in0.0 mm 0.00 in0.0 mm 0.00 in0.0 mm
07:07 AM 21.9°F-5.6°C 19.7°F-6.8°C 91% 3.0 mph W4.8 kmh W -- 30.18 in1022.0 mb 0.00 in0.0 mm 0.00 in0.0 mm 0.00 in0.0 mm
07:08 AM 21.9°F-5.6°C 19.7°F-6.8°C 91% 3.0 mph W4.8 kmh W -- 30.17 in1021.7 mb 0.00 in0.0 mm 0.00 in0.0 mm 0.00 in0.0 mm
07:09 AM 21.9°F-5.6°C 19.7°F-6.8°C 91% 2.0 mph WNW3.2 kmh WNW -- 30.18 in1022.0 mb 0.00 in0.0 mm 0.00 in0.0 mm 0.00 in0.0 mm
07:12 AM 21.9°F-5.6°C 19.7°F-6.8°C 91% 3.0 mph W4.8 kmh W -- 30.17 in1021.7 mb 0.00 in0.0 mm 0.00 in0.0 mm 0.00 in0.0 mm
07:13 AM 21.9°F-5.6°C 19.7°F-6.8°C 91% 2.0 mph WNW3.2 kmh WNW -- 30.18 in1022.0 mb 0.00 in0.0 mm 0.00 in0.0 mm 0.00 in0.0 mm
07:14 AM 21.9°F-5.6°C 19.7°F-6.8°C 91% 2.0 mph W3.2 kmh W -- 30.17 in1021.7 mb 0.00 in0.0 mm 0.00 in0.0 mm 0.00 in0.0 mm
07:15 AM 22.1°F-5.5°C 19.8°F-6.8°C 91% 2.0 mph W3.2 kmh W -- 30.18 in1022.0 mb 0.00 in0.0 mm 0.00 in0.0 mm 0.00 in0.0 mm
07:16 AM 22.1°F-5.5°C 19.8°F-6.8°C 91% 2.0 mph W3.2 kmh W -- 30.17 in1021.7 mb 0.00 in0.0 mm 0.00 in0.0 mm 0.00 in0.0 mm
07:17 AM 22.1°F-5.5°C 19.8°F-6.8°C 91% 3.0 mph W4.8 kmh W -- 30.18 in1022.0 mb 0.00 in0.0 mm 0.00 in0.0 mm 0.00 in0.0 mm
07:18 AM 22.5°F-5.3°C 20.2°F-6.6°C 91% 2.0 mph W3.2 kmh W -- 30.17 in1021.7 mb 0.00 in0.0 mm 0.00 in0.0 mm 0.00 in0.0 mm
07:19 AM 22.5°F-5.3°C 20.2°F-6.6°C 91% 2.0 mph WNW3.2 kmh WNW -- 30.17 in1021.7 mb 0.00 in0.0 mm 0.00 in0.0 mm 0.00 in0.0 mm
07:21 AM 22.7°F-5.2°C 20.4°F-6.4°C 91% 2.0 mph NW3.2 kmh NW -- 30.18 in1022.0 mb 0.00 in0.0 mm 0.00 in0.0 mm 0.00 in0.0 mm
07:23 AM 22.9°F-5.1°C 20.3°F-6.5°C 90% 1.0 mph NW1.6 kmh NW -- 30.18 in1022.0 mb 0.00 in0.0 mm 0.00 in0.0 mm 0.00 in0.0 mm
07:24 AM 22.9°F-5.1°C 19.8°F-6.8°C 88% 2.0 mph WNW3.2 kmh WNW -- 30.18 in1022.0 mb 0.00 in0.0 mm 0.00 in0.0 mm 0.00 in0.0 mm
07:25 AM 23.2°F-4.9°C 20.1°F-6.6°C 88% 2.0 mph WNW3.2 kmh WNW -- 30.18 in1022.0 mb 0.00 in0.0 mm 0.00 in0.0 mm 0.00 in0.0 mm
07:27 AM 23.2°F-4.9°C 20.1°F-6.6°C 88% 1.0 mph W1.6 kmh W -- 30.18 in1022.0 mb 0.00 in0.0 mm 0.00 in0.0 mm 0.00 in0.0 mm
07:28 AM 23.2°F-4.9°C 20.1°F-6.6°C 88% Calm Calm -- 30.18 in1022.0 mb 0.00 in0.0 mm 0.00 in0.0 mm 0.00 in0.0 mm
07:29 AM 23.2°F-4.9°C 20.1°F-6.6°C 88% Calm Calm -- 30.18 in1022.0 mb 0.00 in0.0 mm 0.00 in0.0 mm 0.00 in0.0 mm
07:30 AM 23.3°F-4.8°C 20.3°F-6.5°C 88% Calm Calm -- 30.17 in1021.7 mb 0.00 in0.0 mm 0.00 in0.0 mm 0.00 in0.0 mm
07:31 AM 23.3°F-4.8°C 20.3°F-6.5°C 88% Calm Calm -- 30.17 in1021.7 mb 0.00 in0.0 mm 0.00 in0.0 mm 0.00 in0.0 mm
07:32 AM 24.1°F-4.4°C 20.4°F-6.4°C 86% 1.0 mph WNW1.6 kmh WNW -- 30.18 in1022.0 mb 0.00 in0.0 mm 0.00 in0.0 mm 0.00 in0.0 mm
07:34 AM 24.1°F-4.4°C 20.4°F-6.4°C 86% Calm Calm -- 30.17 in1021.7 mb 0.00 in0.0 mm 0.00 in0.0 mm 0.00 in0.0 mm
07:35 AM 23.8°F-4.6°C 20.1°F-6.6°C 86% Calm Calm -- 30.18 in1022.0 mb 0.00 in0.0 mm 0.00 in0.0 mm 0.00 in0.0 mm
07:36 AM 24.2°F-4.3°C 20.6°F-6.3°C 86% 2.0 mph W3.2 kmh W -- 30.18 in1022.0 mb 0.00 in0.0 mm 0.00 in0.0 mm 0.00 in0.0 mm
07:37 AM 24.4°F-4.2°C 20.8°F-6.2°C 86% 3.0 mph W4.8 kmh W -- 30.18 in1022.0 mb 0.00 in0.0 mm 0.00 in0.0 mm 0.00 in0.0 mm
07:38 AM 24.8°F-4.0°C 21.2°F-6.0°C 86% 1.0 mph W1.6 kmh W -- 30.18 in1022.0 mb 0.00 in0.0 mm 0.00 in0.0 mm 0.00 in0.0 mm
07:39 AM 25.0°F-3.9°C 21.1°F-6.1°C 85% 2.0 mph W3.2 kmh W -- 30.18 in1022.0 mb 0.00 in0.0 mm 0.00 in0.0 mm 0.00 in0.0 mm
07:40 AM 25.2°F-3.8°C 21.2°F-6.0°C 85% 2.0 mph W3.2 kmh W -- 30.18 in1022.0 mb 0.00 in0.0 mm 0.00 in0.0 mm 0.00 in0.0 mm
07:41 AM 25.7°F-3.5°C 21.2°F-6.0°C 83% Calm Calm -- 30.18 in1022.0 mb 0.00 in0.0 mm 0.00 in0.0 mm 0.00 in0.0 mm
07:42 AM 25.7°F-3.5°C 21.2°F-6.0°C 83% 1.0 mph NW1.6 kmh NW -- 30.17 in1021.7 mb 0.00 in0.0 mm 0.00 in0.0 mm 0.00 in0.0 mm
07:43 AM 26.2°F-3.2°C 21.7°F-5.7°C 83% 2.0 mph NNW3.2 kmh NNW -- 30.17 in1021.7 mb 0.00 in0.0 mm 0.00 in0.0 mm 0.00 in0.0 mm
07:44 AM 26.2°F-3.2°C 21.7°F-5.7°C 83% 4.0 mph NNW6.4 kmh NNW -- 30.17 in1021.7 mb 0.00 in0.0 mm 0.00 in0.0 mm 0.00 in0.0 mm
07:45 AM 27.0°F-2.8°C 21.8°F-5.7°C 81% 3.0 mph WNW4.8 kmh WNW -- 30.17 in1021.7 mb 0.00 in0.0 mm 0.00 in0.0 mm 0.00 in0.0 mm
07:46 AM 26.7°F-2.9°C 21.7°F-5.7°C 81% 4.0 mph W6.4 kmh W -- 30.18 in1022.0 mb 0.00 in0.0 mm 0.00 in0.0 mm 0.00 in0.0 mm
07:47 AM 26.7°F-2.9°C 21.7°F-5.7°C 81% 3.0 mph NW4.8 kmh NW -- 30.18 in1022.0 mb 0.00 in0.0 mm 0.00 in0.0 mm 0.00 in0.0 mm
07:48 AM 27.1°F-2.7°C 22.0°F-5.6°C 81% 4.0 mph NW6.4 kmh NW -- 30.17 in1021.7 mb 0.00 in0.0 mm 0.00 in0.0 mm 0.00 in0.0 mm
07:49 AM 27.3°F-2.6°C 22.2°F-5.4°C 81% 3.0 mph W4.8 kmh W -- 30.17 in1021.7 mb 0.00 in0.0 mm 0.00 in0.0 mm 0.00 in0.0 mm
07:50 AM 27.3°F-2.6°C 22.2°F-5.4°C 81% 2.0 mph W3.2 kmh W -- 30.17 in1021.7 mb 0.00 in0.0 mm 0.00 in0.0 mm 0.00 in0.0 mm
07:51 AM 27.3°F-2.6°C 22.2°F-5.4°C 81% 2.0 mph WNW3.2 kmh WNW -- 30.18 in1022.0 mb 0.00 in0.0 mm 0.00 in0.0 mm 0.00 in0.0 mm
07:52 AM 27.5°F-2.5°C 22.1°F-5.5°C 80% 3.0 mph NW4.8 kmh NW -- 30.18 in1022.0 mb 0.00 in0.0 mm 0.00 in0.0 mm 0.00 in0.0 mm
07:53 AM 27.9°F-2.3°C 21.8°F-5.7°C 78% 3.0 mph WNW4.8 kmh WNW -- 30.18 in1022.0 mb 0.00 in0.0 mm 0.00 in0.0 mm 0.00 in0.0 mm
07:54 AM 28.6°F-1.9°C 21.6°F-5.8°C 75% 2.0 mph WNW3.2 kmh WNW -- 30.18 in1022.0 mb 0.00 in0.0 mm 0.00 in0.0 mm 0.00 in0.0 mm
07:56 AM 29.2°F-1.6°C 22.1°F-5.5°C 75% 2.0 mph WNW3.2 kmh WNW -- 30.17 in1021.7 mb 0.00 in0.0 mm 0.00 in0.0 mm 0.00 in0.0 mm
07:57 AM 29.5°F-1.4°C 22.1°F-5.5°C 74% 2.0 mph WNW3.2 kmh WNW -- 30.17 in1021.7 mb 0.00 in0.0 mm 0.00 in0.0 mm 0.00 in0.0 mm
07:58 AM 29.8°F-1.2°C 22.1°F-5.5°C 73% 2.0 mph WNW3.2 kmh WNW -- 30.18 in1022.0 mb 0.00 in0.0 mm 0.00 in0.0 mm 0.00 in0.0 mm
07:59 AM 29.8°F-1.2°C 22.1°F-5.5°C 73% 2.0 mph NW3.2 kmh NW -- 30.18 in1022.0 mb 0.00 in0.0 mm 0.00 in0.0 mm 0.00 in0.0 mm
08:00 AM 30.1°F-1.1°C 21.6°F-5.8°C 71% 2.0 mph WNW3.2 kmh WNW -- 30.18 in1022.0 mb 0.00 in0.0 mm 0.00 in0.0 mm 0.00 in0.0 mm
08:01 AM 30.7°F-0.7°C 22.0°F-5.6°C 70% 2.0 mph NW3.2 kmh NW -- 30.18 in1022.0 mb 0.00 in0.0 mm 0.00 in0.0 mm 0.00 in0.0 mm
08:02 AM 31.2°F-0.4°C 22.5°F-5.3°C 70% 1.0 mph NNW1.6 kmh NNW -- 30.18 in1022.0 mb 0.00 in0.0 mm 0.00 in0.0 mm 0.00 in0.0 mm
08:03 AM 32.5°F0.3°C 23.0°F-5.0°C 68% 1.0 mph NNW1.6 kmh NNW -- 30.18 in1022.0 mb 0.00 in0.0 mm 0.00 in0.0 mm 0.00 in0.0 mm
08:05 AM 32.2°F0.1°C 22.0°F-5.6°C 66% Calm Calm -- 30.18 in1022.0 mb 0.00 in0.0 mm 0.00 in0.0 mm 0.00 in0.0 mm
08:06 AM 31.6°F-0.2°C 22.5°F-5.3°C 69% Calm Calm -- 30.18 in1022.0 mb 0.00 in0.0 mm 0.00 in0.0 mm 0.00 in0.0 mm
08:07 AM 31.9°F-0.1°C 22.3°F-5.4°C 68% Calm Calm -- 30.18 in1022.0 mb 0.00 in0.0 mm 0.00 in0.0 mm 0.00 in0.0 mm
08:08 AM 32.4°F0.2°C 22.9°F-5.1°C 68% Calm Calm -- 30.18 in1022.0 mb 0.00 in0.0 mm 0.00 in0.0 mm 0.00 in0.0 mm
08:09 AM 33.2°F0.7°C 22.6°F-5.2°C 65% Calm Calm -- 30.18 in1022.0 mb 0.00 in0.0 mm 0.00 in0.0 mm 0.00 in0.0 mm
08:10 AM 34.0°F1.1°C 23.3°F-4.8°C 65% Calm Calm -- 30.18 in1022.0 mb 0.00 in0.0 mm 0.00 in0.0 mm 0.00 in0.0 mm
08:23 AM 35.9°F2.2°C 23.3°F-4.8°C 60% Calm Calm -- 30.18 in1022.0 mb 0.00 in0.0 mm 0.00 in0.0 mm 0.00 in0.0 mm
08:36 AM 35.9°F2.2°C 23.3°F-4.8°C 60% 6.0 mph NNW9.7 kmh NNW -- 30.18 in1022.0 mb 0.00 in0.0 mm 0.00 in0.0 mm 0.00 in0.0 mm
08:40 AM 35.9°F2.2°C 23.3°F-4.8°C 60% 5.0 mph WNW8.0 kmh WNW -- 30.19 in1022.4 mb 0.00 in0.0 mm 0.00 in0.0 mm 0.00 in0.0 mm
08:43 AM 39.7°F4.3°C 21.5°F-5.8°C 48% 6.0 mph WNW9.7 kmh WNW -- 30.19 in1022.4 mb 0.00 in0.0 mm 0.00 in0.0 mm 0.00 in0.0 mm
08:44 AM 39.9°F4.4°C 21.6°F-5.8°C 48% 5.0 mph NNW8.0 kmh NNW -- 30.19 in1022.4 mb 0.00 in0.0 mm 0.00 in0.0 mm 0.00 in0.0 mm
08:45 AM 40.0°F4.4°C 21.6°F-5.8°C 48% 6.0 mph NNW9.7 kmh NNW -- 30.18 in1022.0 mb 0.00 in0.0 mm 0.00 in0.0 mm 0.00 in0.0 mm
08:46 AM 40.2°F4.6°C 22.0°F-5.6°C 48% 5.0 mph NNW8.0 kmh NNW -- 30.18 in1022.0 mb 0.00 in0.0 mm 0.00 in0.0 mm 0.00 in0.0 mm
08:47 AM 40.2°F4.6°C 22.0°F-5.6°C 48% 6.0 mph WNW9.7 kmh WNW -- 30.18 in1022.0 mb 0.00 in0.0 mm 0.00 in0.0 mm 0.00 in0.0 mm
08:48 AM 40.5°F4.7°C 22.1°F-5.5°C 48% 4.0 mph WNW6.4 kmh WNW -- 30.18 in1022.0 mb 0.00 in0.0 mm 0.00 in0.0 mm 0.00 in0.0 mm
08:49 AM 40.5°F4.7°C 22.1°F-5.5°C 48% 6.0 mph NW9.7 kmh NW -- 30.19 in1022.4 mb 0.00 in0.0 mm 0.00 in0.0 mm 0.00 in0.0 mm
08:50 AM 40.5°F4.7°C 21.1°F-6.1°C 46% 6.0 mph NW9.7 kmh NW -- 30.19 in1022.4 mb 0.00 in0.0 mm 0.00 in0.0 mm 0.00 in0.0 mm
08:51 AM 40.5°F4.7°C 21.1°F-6.1°C 46% 4.0 mph WNW6.4 kmh WNW -- 30.19 in1022.4 mb 0.00 in0.0 mm 0.00 in0.0 mm 0.00 in0.0 mm
08:53 AM 40.7°F4.8°C 20.8°F-6.2°C 45% 6.0 mph WNW9.7 kmh WNW -- 30.19 in1022.4 mb 0.00 in0.0 mm 0.00 in0.0 mm 0.00 in0.0 mm
08:54 AM 40.7°F4.8°C 20.8°F-6.2°C 45% 6.0 mph WNW9.7 kmh WNW -- 30.18 in1022.0 mb 0.00 in0.0 mm 0.00 in0.0 mm 0.00 in0.0 mm
08:55 AM 41.1°F5.1°C 21.2°F-6.0°C 45% 4.0 mph WNW6.4 kmh WNW -- 30.19 in1022.4 mb 0.00 in0.0 mm 0.00 in0.0 mm 0.00 in0.0 mm
08:56 AM 41.1°F5.1°C 21.2°F-6.0°C 45% 4.0 mph NW6.4 kmh NW -- 30.19 in1022.4 mb 0.00 in0.0 mm 0.00 in0.0 mm 0.00 in0.0 mm
08:57 AM 41.1°F5.1°C 21.2°F-6.0°C 45% 6.0 mph W9.7 kmh W -- 30.18 in1022.0 mb 0.00 in0.0 mm 0.00 in0.0 mm 0.00 in0.0 mm
09:05 AM 42.3°F5.7°C 20.0°F-6.7°C 41% 6.0 mph W9.7 kmh W -- 30.19 in1022.4 mb 0.00 in0.0 mm 0.00 in0.0 mm 0.00 in0.0 mm
09:06 AM 42.3°F5.7°C 20.0°F-6.7°C 41% 6.0 mph WNW9.7 kmh WNW -- 30.19 in1022.4 mb 0.00 in0.0 mm 0.00 in0.0 mm 0.00 in0.0 mm
09:07 AM 42.3°F5.7°C 20.0°F-6.7°C 41% 4.0 mph NNW6.4 kmh NNW -- 30.19 in1022.4 mb 0.00 in0.0 mm 0.00 in0.0 mm 0.00 in0.0 mm
09:08 AM 42.5°F5.8°C 19.6°F-6.9°C 40% 5.0 mph WNW8.0 kmh WNW -- 30.19 in1022.4 mb 0.00 in0.0 mm 0.00 in0.0 mm 0.00 in0.0 mm
09:09 AM 42.7°F5.9°C 19.8°F-6.8°C 40% 6.0 mph WNW9.7 kmh WNW -- 30.19 in1022.4 mb 0.00 in0.0 mm 0.00 in0.0 mm 0.00 in0.0 mm
09:10 AM 43.0°F6.1°C 20.1°F-6.6°C 40% 5.0 mph NW8.0 kmh NW -- 30.19 in1022.4 mb 0.00 in0.0 mm 0.00 in0.0 mm 0.00 in0.0 mm
09:11 AM 43.2°F6.2°C 18.4°F-7.6°C 37% 7.0 mph WNW11.3 kmh WNW -- 30.19 in1022.4 mb 0.00 in0.0 mm 0.00 in0.0 mm 0.00 in0.0 mm
09:12 AM 43.2°F6.2°C 18.4°F-7.6°C 37% 8.0 mph W12.9 kmh W -- 30.19 in1022.4 mb 0.00 in0.0 mm 0.00 in0.0 mm 0.00 in0.0 mm
09:13 AM 43.2°F6.2°C 18.4°F-7.6°C 37% 6.0 mph NNW9.7 kmh NNW -- 30.19 in1022.4 mb 0.00 in0.0 mm 0.00 in0.0 mm 0.00 in0.0 mm
09:14 AM 43.2°F6.2°C 18.4°F-7.6°C 37% 5.0 mph W8.0 kmh W -- 30.19 in1022.4 mb 0.00 in0.0 mm 0.00 in0.0 mm 0.00 in0.0 mm
09:15 AM 43.4°F6.3°C 18.6°F-7.4°C 37% 4.0 mph W6.4 kmh W -- 30.19 in1022.4 mb 0.00 in0.0 mm 0.00 in0.0 mm 0.00 in0.0 mm
09:16 AM 43.4°F6.3°C 18.6°F-7.4°C 37% 10.0 mph NNW16.1 kmh NNW -- 30.19 in1022.4 mb 0.00 in0.0 mm 0.00 in0.0 mm 0.00 in0.0 mm
09:17 AM 43.4°F6.3°C 17.3°F-8.2°C 35% 9.0 mph WNW14.5 kmh WNW -- 30.19 in1022.4 mb 0.00 in0.0 mm 0.00 in0.0 mm 0.00 in0.0 mm
09:18 AM 43.4°F6.3°C 17.3°F-8.2°C 35% 7.0 mph WNW11.3 kmh WNW -- 30.19 in1022.4 mb 0.00 in0.0 mm 0.00 in0.0 mm 0.00 in0.0 mm
09:20 AM 43.4°F6.3°C 17.3°F-8.2°C 35% 9.0 mph NW14.5 kmh NW -- 30.19 in1022.4 mb 0.00 in0.0 mm 0.00 in0.0 mm 0.00 in0.0 mm
09:21 AM 43.4°F6.3°C 17.3°F-8.2°C 35% 7.0 mph NW11.3 kmh NW -- 30.19 in1022.4 mb 0.00 in0.0 mm 0.00 in0.0 mm 0.00 in0.0 mm
09:22 AM 43.4°F6.3°C 17.3°F-8.2°C 35% 7.0 mph NNW11.3 kmh NNW -- 30.19 in1022.4 mb 0.00 in0.0 mm 0.00 in0.0 mm 0.00 in0.0 mm
09:23 AM 43.4°F6.3°C 18.6°F-7.4°C 37% 6.0 mph NW9.7 kmh NW -- 30.19 in1022.4 mb 0.00 in0.0 mm 0.00 in0.0 mm 0.00 in0.0 mm
09:24 AM 43.6°F6.4°C 18.7°F-7.4°C 37% 6.0 mph NNW9.7 kmh NNW -- 30.19 in1022.4 mb 0.00 in0.0 mm 0.00 in0.0 mm 0.00 in0.0 mm
09:25 AM 43.6°F6.4°C 18.7°F-7.4°C 37% 9.0 mph WNW14.5 kmh WNW -- 30.19 in1022.4 mb 0.00 in0.0 mm 0.00 in0.0 mm 0.00 in0.0 mm
09:26 AM 43.6°F6.4°C 18.7°F-7.4°C 37% 7.0 mph WNW11.3 kmh WNW -- 30.19 in1022.4 mb 0.00 in0.0 mm 0.00 in0.0 mm 0.00 in0.0 mm
09:27 AM 43.9°F6.6°C 19.1°F-7.2°C 37% 6.0 mph 9.7 kmh -- 30.19 in1022.4 mb 0.00 in0.0 mm 0.00 in0.0 mm 0.00 in0.0 mm
09:28 AM 43.9°F6.6°C 17.8°F-7.9°C 35% 6.0 mph WNW9.7 kmh WNW -- 30.19 in1022.4 mb 0.00 in0.0 mm 0.00 in0.0 mm 0.00 in0.0 mm
09:29 AM 44.0°F6.7°C 17.9°F-7.8°C 35% 11.0 mph NNW17.7 kmh NNW -- 30.19 in1022.4 mb 0.00 in0.0 mm 0.00 in0.0 mm 0.00 in0.0 mm
09:30 AM 43.9°F6.6°C 17.8°F-7.9°C 35% 9.0 mph NW14.5 kmh NW -- 30.19 in1022.4 mb 0.00 in0.0 mm 0.00 in0.0 mm 0.00 in0.0 mm
09:31 AM 43.9°F6.6°C 17.8°F-7.9°C 35% 8.0 mph NNW12.9 kmh NNW -- 30.19 in1022.4 mb 0.00 in0.0 mm 0.00 in0.0 mm 0.00 in0.0 mm
09:32 AM 43.9°F6.6°C 17.8°F-7.9°C 35% 9.0 mph NW14.5 kmh NW -- 30.20 in1022.7 mb 0.00 in0.0 mm 0.00 in0.0 mm 0.00 in0.0 mm
09:33 AM 43.9°F6.6°C 17.8°F-7.9°C 35% 8.0 mph WNW12.9 kmh WNW -- 30.20 in1022.7 mb 0.00 in0.0 mm 0.00 in0.0 mm 0.00 in0.0 mm
09:34 AM 43.9°F6.6°C 17.8°F-7.9°C 35% 9.0 mph NW14.5 kmh NW -- 30.19 in1022.4 mb 0.00 in0.0 mm 0.00 in0.0 mm 0.00 in0.0 mm
09:35 AM 43.9°F6.6°C 17.8°F-7.9°C 35% 5.0 mph WNW8.0 kmh WNW -- 30.20 in1022.7 mb 0.00 in0.0 mm 0.00 in0.0 mm 0.00 in0.0 mm
09:36 AM 44.0°F6.7°C 17.9°F-7.8°C 35% 6.0 mph 9.7 kmh -- 30.20 in1022.7 mb 0.00 in0.0 mm 0.00 in0.0 mm 0.00 in0.0 mm
09:37 AM 44.2°F6.8°C 18.1°F-7.7°C 35% 7.0 mph NW11.3 kmh NW -- 30.20 in1022.7 mb 0.00 in0.0 mm 0.00 in0.0 mm 0.00 in0.0 mm
09:38 AM 44.4°F6.9°C 17.6°F-8.0°C 34% 9.0 mph NW14.5 kmh NW -- 30.20 in1022.7 mb 0.00 in0.0 mm 0.00 in0.0 mm 0.00 in0.0 mm
09:39 AM 44.4°F6.9°C 17.6°F-8.0°C 34% 7.0 mph NNW11.3 kmh NNW -- 30.20 in1022.7 mb 0.00 in0.0 mm 0.00 in0.0 mm 0.00 in0.0 mm
09:40 AM 44.6°F7.0°C 17.7°F-7.9°C 34% 7.0 mph NW11.3 kmh NW -- 30.20 in1022.7 mb 0.00 in0.0 mm 0.00 in0.0 mm 0.00 in0.0 mm
09:41 AM 44.6°F7.0°C 17.7°F-7.9°C 34% 11.0 mph NW17.7 kmh NW -- 30.19 in1022.4 mb 0.00 in0.0 mm 0.00 in0.0 mm 0.00 in0.0 mm
09:42 AM 44.6°F7.0°C 17.7°F-7.9°C 34% 10.0 mph NNW16.1 kmh NNW -- 30.19 in1022.4 mb 0.00 in0.0 mm 0.00 in0.0 mm 0.00 in0.0 mm
09:43 AM 44.6°F7.0°C 17.7°F-7.9°C 34% 9.0 mph WNW14.5 kmh WNW -- 30.20 in1022.7 mb 0.00 in0.0 mm 0.00 in0.0 mm 0.00 in0.0 mm
09:44 AM 44.6°F7.0°C 17.7°F-7.9°C 34% 7.0 mph WNW11.3 kmh WNW -- 30.20 in1022.7 mb 0.00 in0.0 mm 0.00 in0.0 mm 0.00 in0.0 mm
09:45 AM 44.6°F7.0°C 17.7°F-7.9°C 34% 6.0 mph W9.7 kmh W -- 30.20 in1022.7 mb 0.00 in0.0 mm 0.00 in0.0 mm 0.00 in0.0 mm
09:46 AM 44.8°F7.1°C 16.5°F-8.6°C 32% 9.0 mph NNW14.5 kmh NNW -- 30.20 in1022.7 mb 0.00 in0.0 mm 0.00 in0.0 mm 0.00 in0.0 mm
09:47 AM 44.8°F7.1°C 16.5°F-8.6°C 32% 8.0 mph NW12.9 kmh NW -- 30.20 in1022.7 mb 0.00 in0.0 mm 0.00 in0.0 mm 0.00 in0.0 mm
09:48 AM 44.8°F7.1°C 17.9°F-7.8°C 34% 8.0 mph W12.9 kmh W -- 30.20 in1022.7 mb 0.00 in0.0 mm 0.00 in0.0 mm 0.00 in0.0 mm
09:50 AM 44.8°F7.1°C 17.9°F-7.8°C 34% 7.0 mph W11.3 kmh W -- 30.20 in1022.7 mb 0.00 in0.0 mm 0.00 in0.0 mm 0.00 in0.0 mm
09:51 AM 44.8°F7.1°C 18.6°F-7.4°C 35% 6.0 mph NW9.7 kmh NW -- 30.20 in1022.7 mb 0.00 in0.0 mm 0.00 in0.0 mm 0.00 in0.0 mm
09:52 AM 44.8°F7.1°C 18.6°F-7.4°C 35% 7.0 mph NW11.3 kmh NW -- 30.20 in1022.7 mb 0.00 in0.0 mm 0.00 in0.0 mm 0.00 in0.0 mm
09:53 AM 44.8°F7.1°C 18.6°F-7.4°C 35% 9.0 mph WNW14.5 kmh WNW -- 30.20 in1022.7 mb 0.00 in0.0 mm 0.00 in0.0 mm 0.00 in0.0 mm
09:54 AM 44.8°F7.1°C 18.6°F-7.4°C 35% 7.0 mph WNW11.3 kmh WNW -- 30.20 in1022.7 mb 0.00 in0.0 mm 0.00 in0.0 mm 0.00 in0.0 mm
09:55 AM 44.8°F7.1°C 18.6°F-7.4°C 35% 8.0 mph NNW12.9 kmh NNW -- 30.20 in1022.7 mb 0.00 in0.0 mm 0.00 in0.0 mm 0.00 in0.0 mm
09:56 AM 45.0°F7.2°C 18.7°F-7.4°C 35% 9.0 mph NW14.5 kmh NW -- 30.20 in1022.7 mb 0.00 in0.0 mm 0.00 in0.0 mm 0.00 in0.0 mm
09:57 AM 45.0°F7.2°C 18.7°F-7.4°C 35% 9.0 mph WNW14.5 kmh WNW -- 30.20 in1022.7 mb 0.00 in0.0 mm 0.00 in0.0 mm 0.00 in0.0 mm
09:58 AM 45.0°F7.2°C 18.7°F-7.4°C 35% 6.0 mph NNW9.7 kmh NNW -- 30.20 in1022.7 mb 0.00 in0.0 mm 0.00 in0.0 mm 0.00 in0.0 mm
09:59 AM 45.0°F7.2°C 18.7°F-7.4°C 35% 7.0 mph NW11.3 kmh NW -- 30.20 in1022.7 mb 0.00 in0.0 mm 0.00 in0.0 mm 0.00 in0.0 mm
10:00 AM 45.2°F7.3°C 18.9°F-7.3°C 35% 7.0 mph W11.3 kmh W -- 30.20 in1022.7 mb 0.00 in0.0 mm 0.00 in0.0 mm 0.00 in0.0 mm
10:01 AM 45.2°F7.3°C 18.9°F-7.3°C 35% 6.0 mph WSW9.7 kmh WSW -- 30.20 in1022.7 mb 0.00 in0.0 mm 0.00 in0.0 mm 0.00 in0.0 mm
10:02 AM 45.2°F7.3°C 18.2°F-7.7°C 34% 6.0 mph W9.7 kmh W -- 30.20 in1022.7 mb 0.00 in0.0 mm 0.00 in0.0 mm 0.00 in0.0 mm
10:04 AM 45.2°F7.3°C 18.2°F-7.7°C 34% 8.0 mph WNW12.9 kmh WNW -- 30.20 in1022.7 mb 0.00 in0.0 mm 0.00 in0.0 mm 0.00 in0.0 mm
10:05 AM 45.2°F7.3°C 18.2°F-7.7°C 34% 10.0 mph NNW16.1 kmh NNW -- 30.20 in1022.7 mb 0.00 in0.0 mm 0.00 in0.0 mm 0.00 in0.0 mm
10:06 AM 45.2°F7.3°C 18.2°F-7.7°C 34% 7.0 mph NNW11.3 kmh NNW -- 30.20 in1022.7 mb 0.00 in0.0 mm 0.00 in0.0 mm 0.00 in0.0 mm
10:07 AM 45.5°F7.5°C 17.1°F-8.3°C 32% 11.0 mph NW17.7 kmh NW -- 30.20 in1022.7 mb 0.00 in0.0 mm 0.00 in0.0 mm 0.00 in0.0 mm
10:08 AM 45.5°F7.5°C 17.1°F-8.3°C 32% 9.0 mph WNW14.5 kmh WNW -- 30.20 in1022.7 mb 0.00 in0.0 mm 0.00 in0.0 mm 0.00 in0.0 mm
10:09 AM 45.5°F7.5°C 17.1°F-8.3°C 32% 11.0 mph W17.7 kmh W -- 30.20 in1022.7 mb 0.00 in0.0 mm 0.00 in0.0 mm 0.00 in0.0 mm
10:10 AM 45.2°F7.3°C 16.1°F-8.8°C 31% 12.0 mph NW19.3 kmh NW -- 30.20 in1022.7 mb 0.00 in0.0 mm 0.00 in0.0 mm 0.00 in0.0 mm
10:11 AM 45.0°F7.2°C 15.9°F-8.9°C 31% 6.0 mph WNW9.7 kmh WNW -- 30.20 in1022.7 mb 0.00 in0.0 mm 0.00 in0.0 mm 0.00 in0.0 mm
10:12 AM 45.0°F7.2°C 15.9°F-8.9°C 31% 7.0 mph NW11.3 kmh NW -- 30.20 in1022.7 mb 0.00 in0.0 mm 0.00 in0.0 mm 0.00 in0.0 mm
10:13 AM 45.2°F7.3°C 16.1°F-8.8°C 31% 8.0 mph NNW12.9 kmh NNW -- 30.20 in1022.7 mb 0.00 in0.0 mm 0.00 in0.0 mm 0.00 in0.0 mm
10:14 AM 45.5°F7.5°C 16.4°F-8.7°C 31% 10.0 mph NW16.1 kmh NW -- 30.20 in1022.7 mb 0.00 in0.0 mm 0.00 in0.0 mm 0.00 in0.0 mm
10:15 AM 45.7°F7.6°C 15.8°F-9.0°C 30% 9.0 mph NNW14.5 kmh NNW -- 30.20 in1022.7 mb 0.00 in0.0 mm 0.00 in0.0 mm 0.00 in0.0 mm
10:16 AM 45.5°F7.5°C 15.6°F-9.1°C 30% 13.0 mph NW20.9 kmh NW -- 30.20 in1022.7 mb 0.00 in0.0 mm 0.00 in0.0 mm 0.00 in0.0 mm
10:17 AM 45.2°F7.3°C 15.3°F-9.3°C 30% 12.0 mph WNW19.3 kmh WNW -- 30.20 in1022.7 mb 0.00 in0.0 mm 0.00 in0.0 mm 0.00 in0.0 mm
10:18 AM 45.2°F7.3°C 15.3°F-9.3°C 30% 10.0 mph NW16.1 kmh NW -- 30.20 in1022.7 mb 0.00 in0.0 mm 0.00 in0.0 mm 0.00 in0.0 mm
10:19 AM 45.5°F7.5°C 15.6°F-9.1°C 30% 10.0 mph NNW16.1 kmh NNW -- 30.20 in1022.7 mb 0.00 in0.0 mm 0.00 in0.0 mm 0.00 in0.0 mm
10:20 AM 45.5°F7.5°C 15.6°F-9.1°C 30% 9.0 mph WNW14.5 kmh WNW -- 30.20 in1022.7 mb 0.00 in0.0 mm 0.00 in0.0 mm 0.00 in0.0 mm
10:21 AM 45.5°F7.5°C 15.6°F-9.1°C 30% 9.0 mph NW14.5 kmh NW -- 30.20 in1022.7 mb 0.00 in0.0 mm 0.00 in0.0 mm 0.00 in0.0 mm
10:22 AM 45.5°F7.5°C 15.6°F-9.1°C 30% 6.0 mph NNW9.7 kmh NNW -- 30.20 in1022.7 mb 0.00 in0.0 mm 0.00 in0.0 mm 0.00 in0.0 mm
10:23 AM 45.7°F7.6°C 15.8°F-9.0°C 30% 8.0 mph NNE12.9 kmh NNE -- 30.20 in1022.7 mb 0.00 in0.0 mm 0.00 in0.0 mm 0.00 in0.0 mm
10:24 AM 45.7°F7.6°C 15.8°F-9.0°C 30% 6.0 mph NNW9.7 kmh NNW -- 30.20 in1022.7 mb 0.00 in0.0 mm 0.00 in0.0 mm 0.00 in0.0 mm
10:25 AM 45.7°F7.6°C 15.8°F-9.0°C 30% 9.0 mph NW14.5 kmh NW -- 30.20 in1022.7 mb 0.00 in0.0 mm 0.00 in0.0 mm 0.00 in0.0 mm
10:26 AM 45.9°F7.7°C 15.9°F-8.9°C 30% 7.0 mph NNW11.3 kmh NNW -- 30.20 in1022.7 mb 0.00 in0.0 mm 0.00 in0.0 mm 0.00 in0.0 mm
10:27 AM 45.9°F7.7°C 15.9°F-8.9°C 30% 12.0 mph WNW19.3 kmh WNW -- 30.20 in1022.7 mb 0.00 in0.0 mm 0.00 in0.0 mm 0.00 in0.0 mm
10:28 AM 45.9°F7.7°C 15.9°F-8.9°C 30% 9.0 mph NNE14.5 kmh NNE -- 30.21 in1023.0 mb 0.00 in0.0 mm 0.00 in0.0 mm 0.00 in0.0 mm
10:29 AM 45.9°F7.7°C 15.9°F-8.9°C 30% 6.0 mph NW9.7 kmh NW -- 30.20 in1022.7 mb 0.00 in0.0 mm 0.00 in0.0 mm 0.00 in0.0 mm
10:30 AM 45.9°F7.7°C 15.9°F-8.9°C 30% 8.0 mph NW12.9 kmh NW -- 30.20 in1022.7 mb 0.00 in0.0 mm 0.00 in0.0 mm 0.00 in0.0 mm
10:31 AM 46.1°F7.8°C 16.1°F-8.8°C 30% 7.0 mph NW11.3 kmh NW -- 30.20 in1022.7 mb 0.00 in0.0 mm 0.00 in0.0 mm 0.00 in0.0 mm
10:32 AM 46.5°F8.1°C 15.8°F-9.0°C 29% 6.0 mph NNE9.7 kmh NNE -- 30.20 in1022.7 mb 0.00 in0.0 mm 0.00 in0.0 mm 0.00 in0.0 mm
10:33 AM 46.7°F8.2°C 16.0°F-8.9°C 29% 12.0 mph NE19.3 kmh NE -- 30.21 in1023.0 mb 0.00 in0.0 mm 0.00 in0.0 mm 0.00 in0.0 mm
10:34 AM 46.7°F8.2°C 14.3°F-9.8°C 27% 10.0 mph NNE16.1 kmh NNE -- 30.21 in1023.0 mb 0.00 in0.0 mm 0.00 in0.0 mm 0.00 in0.0 mm
10:35 AM 46.5°F8.1°C 14.2°F-9.9°C 27% 5.0 mph NNE8.0 kmh NNE -- 30.21 in1023.0 mb 0.00 in0.0 mm 0.00 in0.0 mm 0.00 in0.0 mm
10:36 AM 46.5°F8.1°C 14.2°F-9.9°C 27% 11.0 mph 17.7 kmh -- 30.21 in1023.0 mb 0.00 in0.0 mm 0.00 in0.0 mm 0.00 in0.0 mm
10:37 AM 46.5°F8.1°C 14.2°F-9.9°C 27% 9.0 mph NNE14.5 kmh NNE -- 30.21 in1023.0 mb 0.00 in0.0 mm 0.00 in0.0 mm 0.00 in0.0 mm
10:38 AM 46.5°F8.1°C 14.2°F-9.9°C 27% 7.0 mph 11.3 kmh -- 30.21 in1023.0 mb 0.00 in0.0 mm 0.00 in0.0 mm 0.00 in0.0 mm
10:39 AM 46.5°F8.1°C 14.2°F-9.9°C 27% 9.0 mph NNW14.5 kmh NNW -- 30.20 in1022.7 mb 0.00 in0.0 mm 0.00 in0.0 mm 0.00 in0.0 mm
10:40 AM 46.5°F8.1°C 14.2°F-9.9°C 27% 7.0 mph 11.3 kmh -- 30.21 in1023.0 mb 0.00 in0.0 mm 0.00 in0.0 mm 0.00 in0.0 mm
10:41 AM 46.7°F8.2°C 14.3°F-9.8°C 27% 8.0 mph NNW12.9 kmh NNW -- 30.20 in1022.7 mb 0.00 in0.0 mm 0.00 in0.0 mm 0.00 in0.0 mm
10:42 AM 46.7°F8.2°C 14.3°F-9.8°C 27% 8.0 mph 12.9 kmh -- 30.21 in1023.0 mb 0.00 in0.0 mm 0.00 in0.0 mm 0.00 in0.0 mm
10:43 AM 46.9°F8.3°C 12.7°F-10.7°C 25% 8.0 mph NNE12.9 kmh NNE -- 30.21 in1023.0 mb 0.00 in0.0 mm 0.00 in0.0 mm 0.00 in0.0 mm
10:44 AM 46.9°F8.3°C 12.7°F-10.7°C 25% 8.0 mph 12.9 kmh -- 30.20 in1022.7 mb 0.00 in0.0 mm 0.00 in0.0 mm 0.00 in0.0 mm
10:45 AM 46.9°F8.3°C 14.5°F-9.7°C 27% 11.0 mph NNE17.7 kmh NNE -- 30.20 in1022.7 mb 0.00 in0.0 mm 0.00 in0.0 mm 0.00 in0.0 mm
10:46 AM 46.9°F8.3°C 14.5°F-9.7°C 27% 9.0 mph NNW14.5 kmh NNW -- 30.20 in1022.7 mb 0.00 in0.0 mm 0.00 in0.0 mm 0.00 in0.0 mm
10:47 AM 46.7°F8.2°C 14.3°F-9.8°C 27% 8.0 mph NNE12.9 kmh NNE -- 30.20 in1022.7 mb 0.00 in0.0 mm 0.00 in0.0 mm 0.00 in0.0 mm
10:48 AM 46.9°F8.3°C 14.5°F-9.7°C 27% 4.0 mph NNW6.4 kmh NNW -- 30.21 in1023.0 mb 0.00 in0.0 mm 0.00 in0.0 mm 0.00 in0.0 mm
10:49 AM 46.7°F8.2°C 16.0°F-8.9°C 29% 9.0 mph NNE14.5 kmh NNE -- 30.21 in1023.0 mb 0.00 in0.0 mm 0.00 in0.0 mm 0.00 in0.0 mm
10:50 AM 46.7°F8.2°C 16.0°F-8.9°C 29% 11.0 mph NE17.7 kmh NE -- 30.21 in1023.0 mb 0.00 in0.0 mm 0.00 in0.0 mm 0.00 in0.0 mm
10:51 AM 46.9°F8.3°C 16.1°F-8.8°C 29% 9.0 mph NNE14.5 kmh NNE -- 30.21 in1023.0 mb 0.00 in0.0 mm 0.00 in0.0 mm 0.00 in0.0 mm
10:52 AM 46.7°F8.2°C 16.7°F-8.5°C 30% 12.0 mph NNW19.3 kmh NNW -- 30.20 in1022.7 mb 0.00 in0.0 mm 0.00 in0.0 mm 0.00 in0.0 mm
10:53 AM 46.5°F8.1°C 16.6°F-8.6°C 30% 9.0 mph NNE14.5 kmh NNE -- 30.20 in1022.7 mb 0.00 in0.0 mm 0.00 in0.0 mm 0.00 in0.0 mm
10:54 AM 46.4°F8.0°C 16.4°F-8.7°C 30% 7.0 mph 11.3 kmh -- 30.20 in1022.7 mb 0.00 in0.0 mm 0.00 in0.0 mm 0.00 in0.0 mm
10:55 AM 46.1°F7.8°C 16.1°F-8.8°C 30% 7.0 mph NNW11.3 kmh NNW -- 30.20 in1022.7 mb 0.00 in0.0 mm 0.00 in0.0 mm 0.00 in0.0 mm
10:56 AM 46.5°F8.1°C 16.6°F-8.6°C 30% 8.0 mph NNE12.9 kmh NNE -- 30.21 in1023.0 mb 0.00 in0.0 mm 0.00 in0.0 mm 0.00 in0.0 mm
10:57 AM 46.5°F8.1°C 16.6°F-8.6°C 30% 10.0 mph NNW16.1 kmh NNW -- 30.21 in1023.0 mb 0.00 in0.0 mm 0.00 in0.0 mm 0.00 in0.0 mm
10:58 AM 46.5°F8.1°C 16.6°F-8.6°C 30% 9.0 mph NNW14.5 kmh NNW -- 30.20 in1022.7 mb 0.00 in0.0 mm 0.00 in0.0 mm 0.00 in0.0 mm
10:59 AM 46.5°F8.1°C 17.3°F-8.2°C 31% 8.0 mph 12.9 kmh -- 30.20 in1022.7 mb 0.00 in0.0 mm 0.00 in0.0 mm 0.00 in0.0 mm
11:00 AM 46.5°F8.1°C 18.1°F-7.7°C 32% 10.0 mph NNE16.1 kmh NNE -- 30.21 in1023.0 mb 0.00 in0.0 mm 0.00 in0.0 mm 0.00 in0.0 mm
11:01 AM 46.5°F8.1°C 17.3°F-8.2°C 31% 10.0 mph NE16.1 kmh NE -- 30.21 in1023.0 mb 0.00 in0.0 mm 0.00 in0.0 mm 0.00 in0.0 mm
11:02 AM 46.7°F8.2°C 17.5°F-8.1°C 31% 7.0 mph NNW11.3 kmh NNW -- 30.21 in1023.0 mb 0.00 in0.0 mm 0.00 in0.0 mm 0.00 in0.0 mm
11:03 AM 46.5°F8.1°C 17.3°F-8.2°C 31% 8.0 mph NNW12.9 kmh NNW -- 30.21 in1023.0 mb 0.00 in0.0 mm 0.00 in0.0 mm 0.00 in0.0 mm
11:04 AM 46.7°F8.2°C 18.2°F-7.7°C 32% 10.0 mph NNE16.1 kmh NNE -- 30.21 in1023.0 mb 0.00 in0.0 mm 0.00 in0.0 mm 0.00 in0.0 mm
11:05 AM 46.9°F8.3°C 17.7°F-7.9°C 31% 9.0 mph NNE14.5 kmh NNE -- 30.21 in1023.0 mb 0.00 in0.0 mm 0.00 in0.0 mm 0.00 in0.0 mm
11:06 AM 46.7°F8.2°C 17.5°F-8.1°C 31% 6.0 mph NNE9.7 kmh NNE -- 30.21 in1023.0 mb 0.00 in0.0 mm 0.00 in0.0 mm 0.00 in0.0 mm
11:07 AM 46.9°F8.3°C 17.7°F-7.9°C 31% 11.0 mph NNE17.7 kmh NNE -- 30.21 in1023.0 mb 0.00 in0.0 mm 0.00 in0.0 mm 0.00 in0.0 mm
11:08 AM 46.9°F8.3°C 17.7°F-7.9°C 31% 10.0 mph NNW16.1 kmh NNW -- 30.21 in1023.0 mb 0.00 in0.0 mm 0.00 in0.0 mm 0.00 in0.0 mm
11:09 AM 46.9°F8.3°C 17.7°F-7.9°C 31% 8.0 mph 12.9 kmh -- 30.21 in1023.0 mb 0.00 in0.0 mm 0.00 in0.0 mm 0.00 in0.0 mm
11:10 AM 46.7°F8.2°C 17.5°F-8.1°C 31% 11.0 mph NE17.7 kmh NE -- 30.21 in1023.0 mb 0.00 in0.0 mm 0.00 in0.0 mm 0.00 in0.0 mm
11:11 AM 46.5°F8.1°C 18.1°F-7.7°C 32% 4.0 mph NE6.4 kmh NE -- 30.21 in1023.0 mb 0.00 in0.0 mm 0.00 in0.0 mm 0.00 in0.0 mm
11:12 AM 46.5°F8.1°C 18.1°F-7.7°C 32% 8.0 mph NNW12.9 kmh NNW -- 30.21 in1023.0 mb 0.00 in0.0 mm 0.00 in0.0 mm 0.00 in0.0 mm
11:13 AM 46.9°F8.3°C 18.4°F-7.6°C 32% 13.0 mph NNE20.9 kmh NNE -- 30.21 in1023.0 mb 0.00 in0.0 mm 0.00 in0.0 mm 0.00 in0.0 mm
11:14 AM 46.5°F8.1°C 18.1°F-7.7°C 32% 13.0 mph 20.9 kmh -- 30.20 in1022.7 mb 0.00 in0.0 mm 0.00 in0.0 mm 0.00 in0.0 mm
11:15 AM 46.4°F8.0°C 17.9°F-7.8°C 32% 12.0 mph NNW19.3 kmh NNW -- 30.20 in1022.7 mb 0.00 in0.0 mm 0.00 in0.0 mm 0.00 in0.0 mm
11:16 AM 46.4°F8.0°C 17.9°F-7.8°C 32% 10.0 mph NW16.1 kmh NW -- 30.21 in1023.0 mb 0.00 in0.0 mm 0.00 in0.0 mm 0.00 in0.0 mm
11:17 AM 46.4°F8.0°C 17.9°F-7.8°C 32% 6.0 mph NNW9.7 kmh NNW -- 30.21 in1023.0 mb 0.00 in0.0 mm 0.00 in0.0 mm 0.00 in0.0 mm
11:18 AM 46.4°F8.0°C 17.9°F-7.8°C 32% 10.0 mph NNW16.1 kmh NNW -- 30.21 in1023.0 mb 0.00 in0.0 mm 0.00 in0.0 mm 0.00 in0.0 mm
11:19 AM 46.7°F8.2°C 18.2°F-7.7°C 32% 8.0 mph 12.9 kmh -- 30.21 in1023.0 mb 0.00 in0.0 mm 0.00 in0.0 mm 0.00 in0.0 mm
11:20 AM 46.9°F8.3°C 19.8°F-6.8°C 34% 11.0 mph NNW17.7 kmh NNW -- 30.21 in1023.0 mb 0.00 in0.0 mm 0.00 in0.0 mm 0.00 in0.0 mm
11:21 AM 46.7°F8.2°C 19.7°F-6.8°C 34% 8.0 mph WNW12.9 kmh WNW -- 30.20 in1022.7 mb 0.00 in0.0 mm 0.00 in0.0 mm 0.00 in0.0 mm
11:22 AM 46.7°F8.2°C 18.2°F-7.7°C 32% 9.0 mph 14.5 kmh -- 30.20 in1022.7 mb 0.00 in0.0 mm 0.00 in0.0 mm 0.00 in0.0 mm
11:23 AM 46.5°F8.1°C 18.1°F-7.7°C 32% 11.0 mph 17.7 kmh -- 30.20 in1022.7 mb 0.00 in0.0 mm 0.00 in0.0 mm 0.00 in0.0 mm
11:24 AM 46.7°F8.2°C 18.2°F-7.7°C 32% 8.0 mph WNW12.9 kmh WNW -- 30.20 in1022.7 mb 0.00 in0.0 mm 0.00 in0.0 mm 0.00 in0.0 mm
11:25 AM 46.5°F8.1°C 18.1°F-7.7°C 32% 4.0 mph NNW6.4 kmh NNW -- 30.21 in1023.0 mb 0.00 in0.0 mm 0.00 in0.0 mm 0.00 in0.0 mm
11:26 AM 46.7°F8.2°C 18.2°F-7.7°C 32% 12.0 mph NNE19.3 kmh NNE -- 30.21 in1023.0 mb 0.00 in0.0 mm 0.00 in0.0 mm 0.00 in0.0 mm
11:27 AM 46.9°F8.3°C 17.7°F-7.9°C 31% 7.0 mph NNE11.3 kmh NNE -- 30.21 in1023.0 mb 0.00 in0.0 mm 0.00 in0.0 mm 0.00 in0.0 mm
11:28 AM 46.9°F8.3°C 17.7°F-7.9°C 31% 8.0 mph WNW12.9 kmh WNW -- 30.21 in1023.0 mb 0.00 in0.0 mm 0.00 in0.0 mm 0.00 in0.0 mm
11:29 AM 46.9°F8.3°C 16.9°F-8.4°C 30% 9.0 mph NE14.5 kmh NE -- 30.20 in1022.7 mb 0.00 in0.0 mm 0.00 in0.0 mm 0.00 in0.0 mm
11:30 AM 46.9°F8.3°C 16.9°F-8.4°C 30% 10.0 mph NNE16.1 kmh NNE -- 30.21 in1023.0 mb 0.00 in0.0 mm 0.00 in0.0 mm 0.00 in0.0 mm
11:31 AM 46.9°F8.3°C 16.9°F-8.4°C 30% 6.0 mph NNE9.7 kmh NNE -- 30.21 in1023.0 mb 0.00 in0.0 mm 0.00 in0.0 mm 0.00 in0.0 mm
11:32 AM 46.7°F8.2°C 16.7°F-8.5°C 30% 7.0 mph 11.3 kmh -- 30.21 in1023.0 mb 0.00 in0.0 mm 0.00 in0.0 mm 0.00 in0.0 mm
11:33 AM 46.9°F8.3°C 16.9°F-8.4°C 30% 12.0 mph NE19.3 kmh NE -- 30.21 in1023.0 mb 0.00 in0.0 mm 0.00 in0.0 mm 0.00 in0.0 mm
11:34 AM 46.9°F8.3°C 16.9°F-8.4°C 30% 9.0 mph NNE14.5 kmh NNE -- 30.21 in1023.0 mb 0.00 in0.0 mm 0.00 in0.0 mm 0.00 in0.0 mm
11:35 AM 46.9°F8.3°C 16.1°F-8.8°C 29% 9.0 mph NNE14.5 kmh NNE -- 30.21 in1023.0 mb 0.00 in0.0 mm 0.00 in0.0 mm 0.00 in0.0 mm
11:36 AM 46.9°F8.3°C 16.9°F-8.4°C 30% 7.0 mph NE11.3 kmh NE -- 30.21 in1023.0 mb 0.00 in0.0 mm 0.00 in0.0 mm 0.00 in0.0 mm
11:37 AM 47.1°F8.4°C 17.1°F-8.3°C 30% 8.0 mph ENE12.9 kmh ENE -- 30.20 in1022.7 mb 0.00 in0.0 mm 0.00 in0.0 mm 0.00 in0.0 mm
11:38 AM 47.3°F8.5°C 17.2°F-8.2°C 30% 6.0 mph NNE9.7 kmh NNE -- 30.21 in1023.0 mb 0.00 in0.0 mm 0.00 in0.0 mm 0.00 in0.0 mm
11:39 AM 47.5°F8.6°C 17.4°F-8.1°C 30% 7.0 mph NNE11.3 kmh NNE -- 30.21 in1023.0 mb 0.00 in0.0 mm 0.00 in0.0 mm 0.00 in0.0 mm
11:40 AM 47.5°F8.6°C 17.4°F-8.1°C 30% 7.0 mph 11.3 kmh -- 30.21 in1023.0 mb 0.00 in0.0 mm 0.00 in0.0 mm 0.00 in0.0 mm
11:41 AM 47.1°F8.4°C 17.8°F-7.9°C 31% 6.0 mph NE9.7 kmh NE -- 30.21 in1023.0 mb 0.00 in0.0 mm 0.00 in0.0 mm 0.00 in0.0 mm
11:42 AM 47.1°F8.4°C 17.8°F-7.9°C 31% 7.0 mph 11.3 kmh -- 30.21 in1023.0 mb 0.00 in0.0 mm 0.00 in0.0 mm 0.00 in0.0 mm
11:43 AM 47.3°F8.5°C 18.0°F-7.8°C 31% 11.0 mph ENE17.7 kmh ENE -- 30.20 in1022.7 mb 0.00 in0.0 mm 0.00 in0.0 mm 0.00 in0.0 mm
11:44 AM 47.1°F8.4°C 17.8°F-7.9°C 31% 6.0 mph NNW9.7 kmh NNW -- 30.21 in1023.0 mb 0.00 in0.0 mm 0.00 in0.0 mm 0.00 in0.0 mm
11:45 AM 47.1°F8.4°C 17.8°F-7.9°C 31% 8.0 mph NNE12.9 kmh NNE -- 30.21 in1023.0 mb 0.00 in0.0 mm 0.00 in0.0 mm 0.00 in0.0 mm
11:46 AM 47.3°F8.5°C 17.2°F-8.2°C 30% 7.0 mph NE11.3 kmh NE -- 30.21 in1023.0 mb 0.00 in0.0 mm 0.00 in0.0 mm 0.00 in0.0 mm
11:47 AM 47.3°F8.5°C 18.0°F-7.8°C 31% 11.0 mph ENE17.7 kmh ENE -- 30.21 in1023.0 mb 0.00 in0.0 mm 0.00 in0.0 mm 0.00 in0.0 mm
11:48 AM 47.5°F8.6°C 17.4°F-8.1°C 30% 5.0 mph NNE8.0 kmh NNE -- 30.21 in1023.0 mb 0.00 in0.0 mm 0.00 in0.0 mm 0.00 in0.0 mm
11:49 AM 47.5°F8.6°C 18.9°F-7.3°C 32% 7.0 mph E11.3 kmh E -- 30.21 in1023.0 mb 0.00 in0.0 mm 0.00 in0.0 mm 0.00 in0.0 mm
11:50 AM 47.6°F8.7°C 19.0°F-7.2°C 32% 8.0 mph NNE12.9 kmh NNE -- 30.20 in1022.7 mb 0.00 in0.0 mm 0.00 in0.0 mm 0.00 in0.0 mm
11:51 AM 47.7°F8.7°C 19.0°F-7.2°C 32% 10.0 mph ENE16.1 kmh ENE -- 30.20 in1022.7 mb 0.00 in0.0 mm 0.00 in0.0 mm 0.00 in0.0 mm
11:52 AM 47.7°F8.7°C 19.0°F-7.2°C 32% 9.0 mph 14.5 kmh -- 30.20 in1022.7 mb 0.00 in0.0 mm 0.00 in0.0 mm 0.00 in0.0 mm
11:53 AM 47.6°F8.7°C 18.3°F-7.6°C 31% 5.0 mph NE8.0 kmh NE -- 30.21 in1023.0 mb 0.00 in0.0 mm 0.00 in0.0 mm 0.00 in0.0 mm
11:54 AM 47.7°F8.7°C 18.3°F-7.6°C 31% 9.0 mph NNW14.5 kmh NNW -- 30.20 in1022.7 mb 0.00 in0.0 mm 0.00 in0.0 mm 0.00 in0.0 mm
11:55 AM 47.7°F8.7°C 18.3°F-7.6°C 31% 7.0 mph NNW11.3 kmh NNW -- 30.20 in1022.7 mb 0.00 in0.0 mm 0.00 in0.0 mm 0.00 in0.0 mm
11:56 AM 47.5°F8.6°C 18.9°F-7.3°C 32% 5.0 mph E8.0 kmh E -- 30.21 in1023.0 mb 0.00 in0.0 mm 0.00 in0.0 mm 0.00 in0.0 mm
11:57 AM 47.6°F8.7°C 19.0°F-7.2°C 32% 11.0 mph NNE17.7 kmh NNE -- 30.21 in1023.0 mb 0.00 in0.0 mm 0.00 in0.0 mm 0.00 in0.0 mm
11:58 AM 48.0°F8.9°C 18.6°F-7.4°C 31% 8.0 mph NNE12.9 kmh NNE -- 30.21 in1023.0 mb 0.00 in0.0 mm 0.00 in0.0 mm 0.00 in0.0 mm
11:59 AM 47.6°F8.7°C 20.4°F-6.4°C 34% 6.0 mph 9.7 kmh -- 30.21 in1023.0 mb 0.00 in0.0 mm 0.00 in0.0 mm 0.00 in0.0 mm
12:00 PM 47.6°F8.7°C 19.0°F-7.2°C 32% 9.0 mph NNE14.5 kmh NNE -- 30.21 in1023.0 mb 0.00 in0.0 mm 0.00 in0.0 mm 0.00 in0.0 mm
12:01 PM 47.5°F8.6°C 18.9°F-7.3°C 32% 8.0 mph NNE12.9 kmh NNE -- 30.21 in1023.0 mb 0.00 in0.0 mm 0.00 in0.0 mm 0.00 in0.0 mm
12:02 PM 47.5°F8.6°C 18.9°F-7.3°C 32% 8.0 mph NE12.9 kmh NE -- 30.21 in1023.0 mb 0.00 in0.0 mm 0.00 in0.0 mm 0.00 in0.0 mm
12:03 PM 47.6°F8.7°C 20.4°F-6.4°C 34% 9.0 mph NE14.5 kmh NE -- 30.21 in1023.0 mb 0.00 in0.0 mm 0.00 in0.0 mm 0.00 in0.0 mm
12:04 PM 47.6°F8.7°C 20.4°F-6.4°C 34% 6.0 mph NNE9.7 kmh NNE -- 30.21 in1023.0 mb 0.00 in0.0 mm 0.00 in0.0 mm 0.00 in0.0 mm
12:05 PM 47.6°F8.7°C 20.4°F-6.4°C 34% 9.0 mph NE14.5 kmh NE -- 30.21 in1023.0 mb 0.00 in0.0 mm 0.00 in0.0 mm 0.00 in0.0 mm
12:06 PM 47.3°F8.5°C 20.1°F-6.6°C 34% 7.0 mph NE11.3 kmh NE -- 30.21 in1023.0 mb 0.00 in0.0 mm 0.00 in0.0 mm 0.00 in0.0 mm
12:07 PM 47.3°F8.5°C 20.1°F-6.6°C 34% 6.0 mph NNE9.7 kmh NNE -- 30.21 in1023.0 mb 0.00 in0.0 mm 0.00 in0.0 mm 0.00 in0.0 mm
12:08 PM 47.1°F8.4°C 20.0°F-6.7°C 34% 6.0 mph NE9.7 kmh NE -- 30.21 in1023.0 mb 0.00 in0.0 mm 0.00 in0.0 mm 0.00 in0.0 mm
12:09 PM 47.5°F8.6°C 21.0°F-6.1°C 35% 8.0 mph NNE12.9 kmh NNE -- 30.21 in1023.0 mb 0.00 in0.0 mm 0.00 in0.0 mm 0.00 in0.0 mm
12:10 PM 47.5°F8.6°C 21.0°F-6.1°C 35% 12.0 mph NE19.3 kmh NE -- 30.21 in1023.0 mb 0.00 in0.0 mm 0.00 in0.0 mm 0.00 in0.0 mm
12:11 PM 47.5°F8.6°C 21.0°F-6.1°C 35% 6.0 mph NNE9.7 kmh NNE -- 30.21 in1023.0 mb 0.00 in0.0 mm 0.00 in0.0 mm 0.00 in0.0 mm
12:12 PM 47.6°F8.7°C 21.1°F-6.1°C 35% 8.0 mph 12.9 kmh -- 30.21 in1023.0 mb 0.00 in0.0 mm 0.00 in0.0 mm 0.00 in0.0 mm
12:13 PM 47.6°F8.7°C 21.1°F-6.1°C 35% 8.0 mph ENE12.9 kmh ENE -- 30.21 in1023.0 mb 0.00 in0.0 mm 0.00 in0.0 mm 0.00 in0.0 mm
12:14 PM 47.6°F8.7°C 22.5°F-5.3°C 37% 8.0 mph ENE12.9 kmh ENE -- 30.21 in1023.0 mb 0.00 in0.0 mm 0.00 in0.0 mm 0.00 in0.0 mm
12:15 PM 48.0°F8.9°C 22.8°F-5.1°C 37% 10.0 mph NE16.1 kmh NE -- 30.21 in1023.0 mb 0.00 in0.0 mm 0.00 in0.0 mm 0.00 in0.0 mm
12:16 PM 47.7°F8.7°C 21.1°F-6.1°C 35% 5.0 mph NE8.0 kmh NE -- 30.20 in1022.7 mb 0.00 in0.0 mm 0.00 in0.0 mm 0.00 in0.0 mm
12:17 PM 47.7°F8.7°C 21.1°F-6.1°C 35% 8.0 mph 12.9 kmh -- 30.20 in1022.7 mb 0.00 in0.0 mm 0.00 in0.0 mm 0.00 in0.0 mm
12:18 PM 47.7°F8.7°C 20.4°F-6.4°C 34% 8.0 mph NNE12.9 kmh NNE -- 30.21 in1023.0 mb 0.00 in0.0 mm 0.00 in0.0 mm 0.00 in0.0 mm
12:19 PM 47.7°F8.7°C 20.4°F-6.4°C 34% 9.0 mph NNE14.5 kmh NNE -- 30.21 in1023.0 mb 0.00 in0.0 mm 0.00 in0.0 mm 0.00 in0.0 mm
12:20 PM 47.6°F8.7°C 20.4°F-6.4°C 34% 6.0 mph NNE9.7 kmh NNE -- 30.20 in1022.7 mb 0.00 in0.0 mm 0.00 in0.0 mm 0.00 in0.0 mm
12:21 PM 47.3°F8.5°C 20.8°F-6.2°C 35% 9.0 mph NNW14.5 kmh NNW -- 30.20 in1022.7 mb 0.00 in0.0 mm 0.00 in0.0 mm 0.00 in0.0 mm
12:22 PM 47.5°F8.6°C 21.0°F-6.1°C 35% 8.0 mph 12.9 kmh -- 30.20 in1022.7 mb 0.00 in0.0 mm 0.00 in0.0 mm 0.00 in0.0 mm
12:23 PM 47.6°F8.7°C 21.1°F-6.1°C 35% 6.0 mph NNW9.7 kmh NNW -- 30.21 in1023.0 mb 0.00 in0.0 mm 0.00 in0.0 mm 0.00 in0.0 mm
12:24 PM 47.5°F8.6°C 20.3°F-6.5°C 34% 7.0 mph NNW11.3 kmh NNW -- 30.21 in1023.0 mb 0.00 in0.0 mm 0.00 in0.0 mm 0.00 in0.0 mm
12:25 PM 47.6°F8.7°C 20.4°F-6.4°C 34% 10.0 mph NW16.1 kmh NW -- 30.21 in1023.0 mb 0.00 in0.0 mm 0.00 in0.0 mm 0.00 in0.0 mm
12:26 PM 47.5°F8.6°C 21.0°F-6.1°C 35% 10.0 mph WNW16.1 kmh WNW -- 30.21 in1023.0 mb 0.00 in0.0 mm 0.00 in0.0 mm 0.00 in0.0 mm
12:27 PM 47.5°F8.6°C 21.0°F-6.1°C 35% 9.0 mph NE14.5 kmh NE -- 30.21 in1023.0 mb 0.00 in0.0 mm 0.00 in0.0 mm 0.00 in0.0 mm
12:28 PM 47.7°F8.7°C 21.1°F-6.1°C 35% 9.0 mph NNE14.5 kmh NNE -- 30.21 in1023.0 mb 0.00 in0.0 mm 0.00 in0.0 mm 0.00 in0.0 mm
12:29 PM 47.6°F8.7°C 22.5°F-5.3°C 37% 6.0 mph 9.7 kmh -- 30.21 in1023.0 mb 0.00 in0.0 mm 0.00 in0.0 mm 0.00 in0.0 mm
12:30 PM 47.7°F8.7°C 22.5°F-5.3°C 37% 8.0 mph NNE12.9 kmh NNE -- 30.21 in1023.0 mb 0.00 in0.0 mm 0.00 in0.0 mm 0.00 in0.0 mm
12:31 PM 48.2°F9.0°C 22.9°F-5.1°C 37% 7.0 mph E11.3 kmh E -- 30.21 in1023.0 mb 0.00 in0.0 mm 0.00 in0.0 mm 0.00 in0.0 mm
12:32 PM 48.2°F9.0°C 22.9°F-5.1°C 37% 5.0 mph NNW8.0 kmh NNW -- 30.21 in1023.0 mb 0.00 in0.0 mm 0.00 in0.0 mm 0.00 in0.0 mm
12:33 PM 48.2°F9.0°C 21.6°F-5.8°C 35% 8.0 mph NE12.9 kmh NE -- 30.21 in1023.0 mb 0.00 in0.0 mm 0.00 in0.0 mm 0.00 in0.0 mm
12:34 PM 47.7°F8.7°C 21.1°F-6.1°C 35% 10.0 mph NNE16.1 kmh NNE -- 30.21 in1023.0 mb 0.00 in0.0 mm 0.00 in0.0 mm 0.00 in0.0 mm
12:35 PM 47.7°F8.7°C 22.5°F-5.3°C 37% 8.0 mph 12.9 kmh -- 30.21 in1023.0 mb 0.00 in0.0 mm 0.00 in0.0 mm 0.00 in0.0 mm
12:36 PM 47.6°F8.7°C 21.1°F-6.1°C 35% 4.0 mph 6.4 kmh -- 30.21 in1023.0 mb 0.00 in0.0 mm 0.00 in0.0 mm 0.00 in0.0 mm
12:37 PM 47.5°F8.6°C 21.0°F-6.1°C 35% 3.0 mph NE4.8 kmh NE -- 30.21 in1023.0 mb 0.00 in0.0 mm 0.00 in0.0 mm 0.00 in0.0 mm
12:38 PM 47.5°F8.6°C 22.3°F-5.4°C 37% 6.0 mph NNW9.7 kmh NNW -- 30.21 in1023.0 mb 0.00 in0.0 mm 0.00 in0.0 mm 0.00 in0.0 mm
12:39 PM 47.7°F8.7°C 21.1°F-6.1°C 35% 8.0 mph NE12.9 kmh NE -- 30.21 in1023.0 mb 0.00 in0.0 mm 0.00 in0.0 mm 0.00 in0.0 mm
12:40 PM 47.7°F8.7°C 21.1°F-6.1°C 35% 8.0 mph 12.9 kmh -- 30.21 in1023.0 mb 0.00 in0.0 mm 0.00 in0.0 mm 0.00 in0.0 mm
12:41 PM 48.0°F8.9°C 22.8°F-5.1°C 37% 7.0 mph NNE11.3 kmh NNE -- 30.21 in1023.0 mb 0.00 in0.0 mm 0.00 in0.0 mm 0.00 in0.0 mm
12:42 PM 48.0°F8.9°C 21.5°F-5.8°C 35% 6.0 mph NNE9.7 kmh NNE -- 30.21 in1023.0 mb 0.00 in0.0 mm 0.00 in0.0 mm 0.00 in0.0 mm
12:43 PM 48.0°F8.9°C 21.5°F-5.8°C 35% 6.0 mph NE9.7 kmh NE -- 30.21 in1023.0 mb 0.00 in0.0 mm 0.00 in0.0 mm 0.00 in0.0 mm
12:44 PM 47.7°F8.7°C 21.1°F-6.1°C 35% 8.0 mph NE12.9 kmh NE -- 30.21 in1023.0 mb 0.00 in0.0 mm 0.00 in0.0 mm 0.00 in0.0 mm
12:45 PM 48.0°F8.9°C 21.5°F-5.8°C 35% 6.0 mph 9.7 kmh -- 30.21 in1023.0 mb 0.00 in0.0 mm 0.00 in0.0 mm 0.00 in0.0 mm
12:46 PM 47.6°F8.7°C 21.1°F-6.1°C 35% 9.0 mph NW14.5 kmh NW -- 30.21 in1023.0 mb 0.00 in0.0 mm 0.00 in0.0 mm 0.00 in0.0 mm
12:47 PM 47.6°F8.7°C 21.1°F-6.1°C 35% 7.0 mph NNW11.3 kmh NNW -- 30.21 in1023.0 mb 0.00 in0.0 mm 0.00 in0.0 mm 0.00 in0.0 mm
12:48 PM 47.6°F8.7°C 21.1°F-6.1°C 35% 10.0 mph NNE16.1 kmh NNE -- 30.21 in1023.0 mb 0.00 in0.0 mm 0.00 in0.0 mm 0.00 in0.0 mm
12:49 PM 47.5°F8.6°C 21.0°F-6.1°C 35% 9.0 mph NE14.5 kmh NE -- 30.21 in1023.0 mb 0.00 in0.0 mm 0.00 in0.0 mm 0.00 in0.0 mm
12:50 PM 47.1°F8.4°C 20.7°F-6.3°C 35% 5.0 mph NNE8.0 kmh NNE -- 30.21 in1023.0 mb 0.00 in0.0 mm 0.00 in0.0 mm 0.00 in0.0 mm
12:51 PM 47.1°F8.4°C 20.7°F-6.3°C 35% 6.0 mph ENE9.7 kmh ENE -- 30.21 in1023.0 mb 0.00 in0.0 mm 0.00 in0.0 mm 0.00 in0.0 mm
12:52 PM 47.5°F8.6°C 22.3°F-5.4°C 37% 8.0 mph NNE12.9 kmh NNE -- 30.21 in1023.0 mb 0.00 in0.0 mm 0.00 in0.0 mm 0.00 in0.0 mm
12:53 PM 47.5°F8.6°C 21.0°F-6.1°C 35% 8.0 mph NNE12.9 kmh NNE -- 30.21 in1023.0 mb 0.00 in0.0 mm 0.00 in0.0 mm 0.00 in0.0 mm
12:54 PM 47.5°F8.6°C 21.0°F-6.1°C 35% 10.0 mph NNW16.1 kmh NNW -- 30.21 in1023.0 mb 0.00 in0.0 mm 0.00 in0.0 mm 0.00 in0.0 mm
12:55 PM 47.5°F8.6°C 21.0°F-6.1°C 35% 8.0 mph NNE12.9 kmh NNE -- 30.21 in1023.0 mb 0.00 in0.0 mm 0.00 in0.0 mm 0.00 in0.0 mm
12:56 PM 47.6°F8.7°C 21.1°F-6.1°C 35% 6.0 mph NNW9.7 kmh NNW -- 30.21 in1023.0 mb 0.00 in0.0 mm 0.00 in0.0 mm 0.00 in0.0 mm
12:57 PM 47.1°F8.4°C 22.0°F-5.6°C 37% 6.0 mph W9.7 kmh W -- 30.21 in1023.0 mb 0.00 in0.0 mm 0.00 in0.0 mm 0.00 in0.0 mm
12:58 PM 47.3°F8.5°C 20.8°F-6.2°C 35% 9.0 mph 14.5 kmh -- 30.21 in1023.0 mb 0.00 in0.0 mm 0.00 in0.0 mm 0.00 in0.0 mm
12:59 PM 47.3°F8.5°C 20.8°F-6.2°C 35% 10.0 mph NNE16.1 kmh NNE -- 30.21 in1023.0 mb 0.00 in0.0 mm 0.00 in0.0 mm 0.00 in0.0 mm
01:00 PM 47.6°F8.7°C 21.1°F-6.1°C 35% 10.0 mph NNW16.1 kmh NNW -- 30.21 in1023.0 mb 0.00 in0.0 mm 0.00 in0.0 mm 0.00 in0.0 mm
01:01 PM 47.6°F8.7°C 21.1°F-6.1°C 35% 8.0 mph NNW12.9 kmh NNW -- 30.21 in1023.0 mb 0.00 in0.0 mm 0.00 in0.0 mm 0.00 in0.0 mm
01:02 PM 47.5°F8.6°C 21.0°F-6.1°C 35% 9.0 mph 14.5 kmh -- 30.21 in1023.0 mb 0.00 in0.0 mm 0.00 in0.0 mm 0.00 in0.0 mm
01:03 PM 47.3°F8.5°C 20.8°F-6.2°C 35% 6.0 mph NNE9.7 kmh NNE -- 30.21 in1023.0 mb 0.00 in0.0 mm 0.00 in0.0 mm 0.00 in0.0 mm
01:04 PM 47.1°F8.4°C 20.7°F-6.3°C 35% 7.0 mph NNE11.3 kmh NNE -- 30.21 in1023.0 mb 0.00 in0.0 mm 0.00 in0.0 mm 0.00 in0.0 mm
01:05 PM 47.3°F8.5°C 20.8°F-6.2°C 35% 11.0 mph 17.7 kmh -- 30.21 in1023.0 mb 0.00 in0.0 mm 0.00 in0.0 mm 0.00 in0.0 mm
01:06 PM 47.1°F8.4°C 20.7°F-6.3°C 35% 6.0 mph NNE9.7 kmh NNE -- 30.20 in1022.7 mb 0.00 in0.0 mm 0.00 in0.0 mm 0.00 in0.0 mm
01:07 PM 47.5°F8.6°C 21.0°F-6.1°C 35% 6.0 mph WNW9.7 kmh WNW -- 30.20 in1022.7 mb 0.00 in0.0 mm 0.00 in0.0 mm 0.00 in0.0 mm
01:08 PM 47.5°F8.6°C 21.0°F-6.1°C 35% 5.0 mph NNE8.0 kmh NNE -- 30.21 in1023.0 mb 0.00 in0.0 mm 0.00 in0.0 mm 0.00 in0.0 mm
01:09 PM 47.6°F8.7°C 21.1°F-6.1°C 35% 9.0 mph 14.5 kmh -- 30.21 in1023.0 mb 0.00 in0.0 mm 0.00 in0.0 mm 0.00 in0.0 mm
01:10 PM 47.7°F8.7°C 21.1°F-6.1°C 35% 9.0 mph NNW14.5 kmh NNW -- 30.21 in1023.0 mb 0.00 in0.0 mm 0.00 in0.0 mm 0.00 in0.0 mm
01:11 PM 47.7°F8.7°C 21.1°F-6.1°C 35% 8.0 mph NNE12.9 kmh NNE -- 30.20 in1022.7 mb 0.00 in0.0 mm 0.00 in0.0 mm 0.00 in0.0 mm
01:12 PM 47.7°F8.7°C 21.1°F-6.1°C 35% 7.0 mph NE11.3 kmh NE -- 30.21 in1023.0 mb 0.00 in0.0 mm 0.00 in0.0 mm 0.00 in0.0 mm
01:13 PM 47.3°F8.5°C 20.8°F-6.2°C 35% 6.0 mph NE9.7 kmh NE -- 30.21 in1023.0 mb 0.00 in0.0 mm 0.00 in0.0 mm 0.00 in0.0 mm
01:14 PM 47.3°F8.5°C 20.8°F-6.2°C 35% 5.0 mph 8.0 kmh -- 30.21 in1023.0 mb 0.00 in0.0 mm 0.00 in0.0 mm 0.00 in0.0 mm
01:15 PM 47.5°F8.6°C 22.3°F-5.4°C 37% 9.0 mph NNE14.5 kmh NNE -- 30.21 in1023.0 mb 0.00 in0.0 mm 0.00 in0.0 mm 0.00 in0.0 mm
01:16 PM 47.7°F8.7°C 21.1°F-6.1°C 35% 5.0 mph NNW8.0 kmh NNW -- 30.21 in1023.0 mb 0.00 in0.0 mm 0.00 in0.0 mm 0.00 in0.0 mm
01:17 PM 47.7°F8.7°C 21.1°F-6.1°C 35% 8.0 mph NNW12.9 kmh NNW -- 30.21 in1023.0 mb 0.00 in0.0 mm 0.00 in0.0 mm 0.00 in0.0 mm
01:18 PM 47.7°F8.7°C 21.1°F-6.1°C 35% 10.0 mph ENE16.1 kmh ENE -- 30.21 in1023.0 mb 0.00 in0.0 mm 0.00 in0.0 mm 0.00 in0.0 mm
01:19 PM 47.7°F8.7°C 21.1°F-6.1°C 35% 8.0 mph NE12.9 kmh NE -- 30.21 in1023.0 mb 0.00 in0.0 mm 0.00 in0.0 mm 0.00 in0.0 mm
01:20 PM 47.5°F8.6°C 21.0°F-6.1°C 35% 4.0 mph ENE6.4 kmh ENE -- 30.21 in1023.0 mb 0.00 in0.0 mm 0.00 in0.0 mm 0.00 in0.0 mm
01:21 PM 47.5°F8.6°C 21.0°F-6.1°C 35% 8.0 mph NNW12.9 kmh NNW -- 30.21 in1023.0 mb 0.00 in0.0 mm 0.00 in0.0 mm 0.00 in0.0 mm
01:22 PM 47.3°F8.5°C 20.8°F-6.2°C 35% 6.0 mph NNW9.7 kmh NNW -- 30.20 in1022.7 mb 0.00 in0.0 mm 0.00 in0.0 mm 0.00 in0.0 mm
01:23 PM 47.5°F8.6°C 21.0°F-6.1°C 35% 8.0 mph NNE12.9 kmh NNE -- 30.20 in1022.7 mb 0.00 in0.0 mm 0.00 in0.0 mm 0.00 in0.0 mm
01:24 PM 47.6°F8.7°C 21.1°F-6.1°C 35% 11.0 mph NNE17.7 kmh NNE -- 30.20 in1022.7 mb 0.00 in0.0 mm 0.00 in0.0 mm 0.00 in0.0 mm
01:25 PM 47.7°F8.7°C 21.1°F-6.1°C 35% 12.0 mph ESE19.3 kmh ESE -- 30.20 in1022.7 mb 0.00 in0.0 mm 0.00 in0.0 mm 0.00 in0.0 mm
01:26 PM 47.7°F8.7°C 21.1°F-6.1°C 35% 9.0 mph NNE14.5 kmh NNE -- 30.20 in1022.7 mb 0.00 in0.0 mm 0.00 in0.0 mm 0.00 in0.0 mm
01:27 PM 47.5°F8.6°C 21.0°F-6.1°C 35% 6.0 mph 9.7 kmh -- 30.20 in1022.7 mb 0.00 in0.0 mm 0.00 in0.0 mm 0.00 in0.0 mm
01:28 PM 47.7°F8.7°C 21.1°F-6.1°C 35% 8.0 mph NE12.9 kmh NE -- 30.20 in1022.7 mb 0.00 in0.0 mm 0.00 in0.0 mm 0.00 in0.0 mm
01:29 PM 48.0°F8.9°C 21.5°F-5.8°C 35% 17.0 mph NE27.4 kmh NE -- 30.20 in1022.7 mb 0.00 in0.0 mm 0.00 in0.0 mm 0.00 in0.0 mm
01:30 PM 47.7°F8.7°C 21.1°F-6.1°C 35% 7.0 mph NE11.3 kmh NE -- 30.20 in1022.7 mb 0.00 in0.0 mm 0.00 in0.0 mm 0.00 in0.0 mm
01:31 PM 47.6°F8.7°C 21.1°F-6.1°C 35% 9.0 mph NNE14.5 kmh NNE -- 30.20 in1022.7 mb 0.00 in0.0 mm 0.00 in0.0 mm 0.00 in0.0 mm
01:32 PM 47.6°F8.7°C 21.1°F-6.1°C 35% 8.0 mph NNE12.9 kmh NNE -- 30.20 in1022.7 mb 0.00 in0.0 mm 0.00 in0.0 mm 0.00 in0.0 mm
01:33 PM 47.5°F8.6°C 22.3°F-5.4°C 37% 8.0 mph NNE12.9 kmh NNE -- 30.20 in1022.7 mb 0.00 in0.0 mm 0.00 in0.0 mm 0.00 in0.0 mm
01:34 PM 47.5°F8.6°C 21.0°F-6.1°C 35% 6.0 mph 9.7 kmh -- 30.20 in1022.7 mb 0.00 in0.0 mm 0.00 in0.0 mm 0.00 in0.0 mm
01:35 PM 47.5°F8.6°C 21.0°F-6.1°C 35% 8.0 mph NNE12.9 kmh NNE -- 30.20 in1022.7 mb 0.00 in0.0 mm 0.00 in0.0 mm 0.00 in0.0 mm
01:36 PM 47.6°F8.7°C 21.1°F-6.1°C 35% 5.0 mph NNW8.0 kmh NNW -- 30.20 in1022.7 mb 0.00 in0.0 mm 0.00 in0.0 mm 0.00 in0.0 mm
01:37 PM 47.6°F8.7°C 21.1°F-6.1°C 35% 9.0 mph NNE14.5 kmh NNE -- 30.20 in1022.7 mb 0.00 in0.0 mm 0.00 in0.0 mm 0.00 in0.0 mm
01:38 PM 48.0°F8.9°C 21.5°F-5.8°C 35% 10.0 mph NE16.1 kmh NE -- 30.20 in1022.7 mb 0.00 in0.0 mm 0.00 in0.0 mm 0.00 in0.0 mm
01:39 PM 47.7°F8.7°C 22.5°F-5.3°C 37% 6.0 mph NNW9.7 kmh NNW -- 30.20 in1022.7 mb 0.00 in0.0 mm 0.00 in0.0 mm 0.00 in0.0 mm
01:40 PM 47.7°F8.7°C 22.5°F-5.3°C 37% 8.0 mph 12.9 kmh -- 30.20 in1022.7 mb 0.00 in0.0 mm 0.00 in0.0 mm 0.00 in0.0 mm
01:41 PM 47.7°F8.7°C 22.5°F-5.3°C 37% 10.0 mph NNE16.1 kmh NNE -- 30.20 in1022.7 mb 0.00 in0.0 mm 0.00 in0.0 mm 0.00 in0.0 mm
01:42 PM 47.7°F8.7°C 21.1°F-6.1°C 35% 7.0 mph NNE11.3 kmh NNE -- 30.20 in1022.7 mb 0.00 in0.0 mm 0.00 in0.0 mm 0.00 in0.0 mm
01:43 PM 47.3°F8.5°C 20.8°F-6.2°C 35% 8.0 mph NE12.9 kmh NE -- 30.20 in1022.7 mb 0.00 in0.0 mm 0.00 in0.0 mm 0.00 in0.0 mm
01:44 PM 47.3°F8.5°C 22.1°F-5.5°C 37% 8.0 mph NNE12.9 kmh NNE -- 30.20 in1022.7 mb 0.00 in0.0 mm 0.00 in0.0 mm 0.00 in0.0 mm
01:45 PM 47.1°F8.4°C 22.0°F-5.6°C 37% 8.0 mph NNE12.9 kmh NNE -- 30.20 in1022.7 mb 0.00 in0.0 mm 0.00 in0.0 mm 0.00 in0.0 mm
01:46 PM 47.1°F8.4°C 22.0°F-5.6°C 37% 10.0 mph NNW16.1 kmh NNW -- 30.20 in1022.7 mb 0.00 in0.0 mm 0.00 in0.0 mm 0.00 in0.0 mm
01:47 PM 47.1°F8.4°C 22.0°F-5.6°C 37% 12.0 mph NE19.3 kmh NE -- 30.20 in1022.7 mb 0.00 in0.0 mm 0.00 in0.0 mm 0.00 in0.0 mm
01:48 PM 46.9°F8.3°C 21.8°F-5.7°C 37% 8.0 mph W12.9 kmh W -- 30.20 in1022.7 mb 0.00 in0.0 mm 0.00 in0.0 mm 0.00 in0.0 mm
01:49 PM 47.1°F8.4°C 22.0°F-5.6°C 37% 8.0 mph NE12.9 kmh NE -- 30.20 in1022.7 mb 0.00 in0.0 mm 0.00 in0.0 mm 0.00 in0.0 mm
01:50 PM 47.3°F8.5°C 22.1°F-5.5°C 37% 11.0 mph ENE17.7 kmh ENE -- 30.20 in1022.7 mb 0.00 in0.0 mm 0.00 in0.0 mm 0.00 in0.0 mm
01:51 PM 47.3°F8.5°C 22.1°F-5.5°C 37% 7.0 mph NNE11.3 kmh NNE -- 30.20 in1022.7 mb 0.00 in0.0 mm 0.00 in0.0 mm 0.00 in0.0 mm
01:52 PM 47.1°F8.4°C 22.0°F-5.6°C 37% 8.0 mph NNE12.9 kmh NNE -- 30.20 in1022.7 mb 0.00 in0.0 mm 0.00 in0.0 mm 0.00 in0.0 mm
01:53 PM 47.5°F8.6°C 22.3°F-5.4°C 37% 16.0 mph NNE25.7 kmh NNE -- 30.20 in1022.7 mb 0.00 in0.0 mm 0.00 in0.0 mm 0.00 in0.0 mm
01:54 PM 47.5°F8.6°C 22.3°F-5.4°C 37% 11.0 mph ENE17.7 kmh ENE -- 30.20 in1022.7 mb 0.00 in0.0 mm 0.00 in0.0 mm 0.00 in0.0 mm
01:55 PM 47.6°F8.7°C 22.5°F-5.3°C 37% 13.0 mph NNE20.9 kmh NNE -- 30.20 in1022.7 mb 0.00 in0.0 mm 0.00 in0.0 mm 0.00 in0.0 mm
01:56 PM 47.3°F8.5°C 22.1°F-5.5°C 37% 11.0 mph NNE17.7 kmh NNE -- 30.20 in1022.7 mb 0.00 in0.0 mm 0.00 in0.0 mm 0.00 in0.0 mm
01:57 PM 47.3°F8.5°C 22.1°F-5.5°C 37% 10.0 mph NNE16.1 kmh NNE -- 30.19 in1022.4 mb 0.00 in0.0 mm 0.00 in0.0 mm 0.00 in0.0 mm
01:58 PM 47.1°F8.4°C 22.0°F-5.6°C 37% 7.0 mph NNE11.3 kmh NNE -- 30.19 in1022.4 mb 0.00 in0.0 mm 0.00 in0.0 mm 0.00 in0.0 mm
01:59 PM 47.1°F8.4°C 22.0°F-5.6°C 37% 11.0 mph NE17.7 kmh NE -- 30.20 in1022.7 mb 0.00 in0.0 mm 0.00 in0.0 mm 0.00 in0.0 mm
02:00 PM 46.9°F8.3°C 21.8°F-5.7°C 37% 7.0 mph NNE11.3 kmh NNE -- 30.20 in1022.7 mb 0.00 in0.0 mm 0.00 in0.0 mm 0.00 in0.0 mm
02:01 PM 46.5°F8.1°C 21.5°F-5.8°C 37% 11.0 mph NNE17.7 kmh NNE -- 30.20 in1022.7 mb 0.00 in0.0 mm 0.00 in0.0 mm 0.00 in0.0 mm
02:02 PM 46.4°F8.0°C 21.3°F-5.9°C 37% 11.0 mph NE17.7 kmh NE -- 30.20 in1022.7 mb 0.00 in0.0 mm 0.00 in0.0 mm 0.00 in0.0 mm
02:03 PM 46.7°F8.2°C 22.9°F-5.1°C 39% 9.0 mph NNE14.5 kmh NNE -- 30.20 in1022.7 mb 0.00 in0.0 mm 0.00 in0.0 mm 0.00 in0.0 mm
02:04 PM 46.9°F8.3°C 21.8°F-5.7°C 37% 8.0 mph ENE12.9 kmh ENE -- 30.20 in1022.7 mb 0.00 in0.0 mm 0.00 in0.0 mm 0.00 in0.0 mm
02:05 PM 46.9°F8.3°C 21.8°F-5.7°C 37% 13.0 mph NNE20.9 kmh NNE -- 30.19 in1022.4 mb 0.00 in0.0 mm 0.00 in0.0 mm 0.00 in0.0 mm
02:06 PM 46.9°F8.3°C 21.8°F-5.7°C 37% 9.0 mph NE14.5 kmh NE -- 30.20 in1022.7 mb 0.00 in0.0 mm 0.00 in0.0 mm 0.00 in0.0 mm
02:07 PM 46.9°F8.3°C 21.8°F-5.7°C 37% 11.0 mph NNE17.7 kmh NNE -- 30.19 in1022.4 mb 0.00 in0.0 mm 0.00 in0.0 mm 0.00 in0.0 mm
02:08 PM 46.9°F8.3°C 21.8°F-5.7°C 37% 9.0 mph NNE14.5 kmh NNE -- 30.20 in1022.7 mb 0.00 in0.0 mm 0.00 in0.0 mm 0.00 in0.0 mm
02:09 PM 46.9°F8.3°C 20.5°F-6.4°C 35% 8.0 mph NNW12.9 kmh NNW -- 30.20 in1022.7 mb 0.00 in0.0 mm 0.00 in0.0 mm 0.00 in0.0 mm
02:10 PM 46.9°F8.3°C 20.5°F-6.4°C 35% 6.0 mph 9.7 kmh -- 30.20 in1022.7 mb 0.00 in0.0 mm 0.00 in0.0 mm 0.00 in0.0 mm
02:11 PM 46.9°F8.3°C 21.8°F-5.7°C 37% 8.0 mph NNE12.9 kmh NNE -- 30.20 in1022.7 mb 0.00 in0.0 mm 0.00 in0.0 mm 0.00 in0.0 mm
02:12 PM 47.1°F8.4°C 23.2°F-4.9°C 39% 5.0 mph NNW8.0 kmh NNW -- 30.20 in1022.7 mb 0.00 in0.0 mm 0.00 in0.0 mm 0.00 in0.0 mm
02:13 PM 47.3°F8.5°C 23.4°F-4.8°C 39% 6.0 mph WNW9.7 kmh WNW -- 30.20 in1022.7 mb 0.00 in0.0 mm 0.00 in0.0 mm 0.00 in0.0 mm
02:14 PM 47.5°F8.6°C 24.2°F-4.3°C 40% 7.0 mph NNE11.3 kmh NNE -- 30.20 in1022.7 mb 0.00 in0.0 mm 0.00 in0.0 mm 0.00 in0.0 mm
02:15 PM 47.3°F8.5°C 24.0°F-4.4°C 40% 8.0 mph NNE12.9 kmh NNE -- 30.20 in1022.7 mb 0.00 in0.0 mm 0.00 in0.0 mm 0.00 in0.0 mm
02:16 PM 47.1°F8.4°C 23.2°F-4.9°C 39% 10.0 mph NNE16.1 kmh NNE -- 30.20 in1022.7 mb 0.00 in0.0 mm 0.00 in0.0 mm 0.00 in0.0 mm
02:17 PM 47.3°F8.5°C 23.4°F-4.8°C 39% 12.0 mph NNE19.3 kmh NNE -- 30.20 in1022.7 mb 0.00 in0.0 mm 0.00 in0.0 mm 0.00 in0.0 mm
02:18 PM 47.1°F8.4°C 22.0°F-5.6°C 37% 10.0 mph NE16.1 kmh NE -- 30.20 in1022.7 mb 0.00 in0.0 mm 0.00 in0.0 mm 0.00 in0.0 mm
02:19 PM 46.5°F8.1°C 21.5°F-5.8°C 37% 7.0 mph NNE11.3 kmh NNE -- 30.19 in1022.4 mb 0.00 in0.0 mm 0.00 in0.0 mm 0.00 in0.0 mm
02:20 PM 46.9°F8.3°C 23.1°F-4.9°C 39% 10.0 mph E16.1 kmh E -- 30.19 in1022.4 mb 0.00 in0.0 mm 0.00 in0.0 mm 0.00 in0.0 mm
02:21 PM 46.9°F8.3°C 21.8°F-5.7°C 37% 6.0 mph NNE9.7 kmh NNE -- 30.19 in1022.4 mb 0.00 in0.0 mm 0.00 in0.0 mm 0.00 in0.0 mm
02:22 PM 46.5°F8.1°C 23.3°F-4.8°C 40% 5.0 mph NNE8.0 kmh NNE -- 30.19 in1022.4 mb 0.00 in0.0 mm 0.00 in0.0 mm 0.00 in0.0 mm
02:23 PM 46.9°F8.3°C 23.7°F-4.6°C 40% 10.0 mph NNE16.1 kmh NNE -- 30.19 in1022.4 mb 0.00 in0.0 mm 0.00 in0.0 mm 0.00 in0.0 mm
02:24 PM 47.1°F8.4°C 23.2°F-4.9°C 39% 6.0 mph NNW9.7 kmh NNW -- 30.19 in1022.4 mb 0.00 in0.0 mm 0.00 in0.0 mm 0.00 in0.0 mm
02:25 PM 47.3°F8.5°C 23.4°F-4.8°C 39% 10.0 mph 16.1 kmh -- 30.19 in1022.4 mb 0.00 in0.0 mm 0.00 in0.0 mm 0.00 in0.0 mm
02:26 PM 47.3°F8.5°C 22.1°F-5.5°C 37% 5.0 mph NNW8.0 kmh NNW -- 30.19 in1022.4 mb 0.00 in0.0 mm 0.00 in0.0 mm 0.00 in0.0 mm
02:27 PM 47.3°F8.5°C 22.1°F-5.5°C 37% 10.0 mph NNW16.1 kmh NNW -- 30.19 in1022.4 mb 0.00 in0.0 mm 0.00 in0.0 mm 0.00 in0.0 mm
02:28 PM 46.9°F8.3°C 21.8°F-5.7°C 37% 10.0 mph NNW16.1 kmh NNW -- 30.19 in1022.4 mb 0.00 in0.0 mm 0.00 in0.0 mm 0.00 in0.0 mm
02:29 PM 46.9°F8.3°C 21.8°F-5.7°C 37% 7.0 mph NW11.3 kmh NW -- 30.19 in1022.4 mb 0.00 in0.0 mm 0.00 in0.0 mm 0.00 in0.0 mm
02:30 PM 46.9°F8.3°C 23.1°F-4.9°C 39% 10.0 mph ENE16.1 kmh ENE -- 30.19 in1022.4 mb 0.00 in0.0 mm 0.00 in0.0 mm 0.00 in0.0 mm
02:31 PM 46.9°F8.3°C 23.1°F-4.9°C 39% 8.0 mph NNE12.9 kmh NNE -- 30.19 in1022.4 mb 0.00 in0.0 mm 0.00 in0.0 mm 0.00 in0.0 mm
02:32 PM 46.7°F8.2°C 22.9°F-5.1°C 39% 12.0 mph 19.3 kmh -- 30.19 in1022.4 mb 0.00 in0.0 mm 0.00 in0.0 mm 0.00 in0.0 mm
02:33 PM 46.5°F8.1°C 22.7°F-5.2°C 39% 8.0 mph NNE12.9 kmh NNE -- 30.19 in1022.4 mb 0.00 in0.0 mm 0.00 in0.0 mm 0.00 in0.0 mm
02:35 PM 46.4°F8.0°C 22.6°F-5.2°C 39% 11.0 mph NNE17.7 kmh NNE -- 30.19 in1022.4 mb 0.00 in0.0 mm 0.00 in0.0 mm 0.00 in0.0 mm
02:36 PM 46.5°F8.1°C 22.7°F-5.2°C 39% 7.0 mph NNE11.3 kmh NNE -- 30.19 in1022.4 mb 0.00 in0.0 mm 0.00 in0.0 mm 0.00 in0.0 mm
02:37 PM 46.9°F8.3°C 23.1°F-4.9°C 39% 8.0 mph NNE12.9 kmh NNE -- 30.19 in1022.4 mb 0.00 in0.0 mm 0.00 in0.0 mm 0.00 in0.0 mm
02:38 PM 46.7°F8.2°C 22.9°F-5.1°C 39% 8.0 mph NNW12.9 kmh NNW -- 30.19 in1022.4 mb 0.00 in0.0 mm 0.00 in0.0 mm 0.00 in0.0 mm
02:39 PM 46.7°F8.2°C 21.6°F-5.8°C 37% 15.0 mph NNW24.1 kmh NNW -- 30.19 in1022.4 mb 0.00 in0.0 mm 0.00 in0.0 mm 0.00 in0.0 mm
02:40 PM 46.5°F8.1°C 21.5°F-5.8°C 37% 11.0 mph NNW17.7 kmh NNW -- 30.19 in1022.4 mb 0.00 in0.0 mm 0.00 in0.0 mm 0.00 in0.0 mm
02:41 PM 46.4°F8.0°C 21.3°F-5.9°C 37% 8.0 mph NNE12.9 kmh NNE -- 30.19 in1022.4 mb 0.00 in0.0 mm 0.00 in0.0 mm 0.00 in0.0 mm
02:42 PM 46.4°F8.0°C 21.3°F-5.9°C 37% 9.0 mph 14.5 kmh -- 30.19 in1022.4 mb 0.00 in0.0 mm 0.00 in0.0 mm 0.00 in0.0 mm
02:43 PM 46.4°F8.0°C 21.3°F-5.9°C 37% 12.0 mph NE19.3 kmh NE -- 30.19 in1022.4 mb 0.00 in0.0 mm 0.00 in0.0 mm 0.00 in0.0 mm
02:44 PM 46.1°F7.8°C 21.0°F-6.1°C 37% 11.0 mph WNW17.7 kmh WNW -- 30.19 in1022.4 mb 0.00 in0.0 mm 0.00 in0.0 mm 0.00 in0.0 mm
02:45 PM 46.1°F7.8°C 19.7°F-6.8°C 35% 11.0 mph NW17.7 kmh NW -- 30.19 in1022.4 mb 0.00 in0.0 mm 0.00 in0.0 mm 0.00 in0.0 mm
02:46 PM 46.4°F8.0°C 20.0°F-6.7°C 35% 11.0 mph WNW17.7 kmh WNW -- 30.19 in1022.4 mb 0.00 in0.0 mm 0.00 in0.0 mm 0.00 in0.0 mm
02:47 PM 46.4°F8.0°C 21.3°F-5.9°C 37% 12.0 mph NE19.3 kmh NE -- 30.19 in1022.4 mb 0.00 in0.0 mm 0.00 in0.0 mm 0.00 in0.0 mm
02:48 PM 45.9°F7.7°C 20.8°F-6.2°C 37% 12.0 mph NW19.3 kmh NW -- 30.19 in1022.4 mb 0.00 in0.0 mm 0.00 in0.0 mm 0.00 in0.0 mm
02:49 PM 45.9°F7.7°C 22.1°F-5.5°C 39% 9.0 mph NE14.5 kmh NE -- 30.19 in1022.4 mb 0.00 in0.0 mm 0.00 in0.0 mm 0.00 in0.0 mm
02:50 PM 45.9°F7.7°C 20.8°F-6.2°C 37% 11.0 mph 17.7 kmh -- 30.19 in1022.4 mb 0.00 in0.0 mm 0.00 in0.0 mm 0.00 in0.0 mm
02:51 PM 45.9°F7.7°C 20.8°F-6.2°C 37% 11.0 mph NNE17.7 kmh NNE -- 30.19 in1022.4 mb 0.00 in0.0 mm 0.00 in0.0 mm 0.00 in0.0 mm
02:52 PM 45.7°F7.6°C 20.7°F-6.3°C 37% 9.0 mph NNE14.5 kmh NNE -- 30.19 in1022.4 mb 0.00 in0.0 mm 0.00 in0.0 mm 0.00 in0.0 mm
02:53 PM 45.7°F7.6°C 20.7°F-6.3°C 37% 11.0 mph 17.7 kmh -- 30.19 in1022.4 mb 0.00 in0.0 mm 0.00 in0.0 mm 0.00 in0.0 mm
02:54 PM 45.7°F7.6°C 20.7°F-6.3°C 37% 7.0 mph NNW11.3 kmh NNW -- 30.19 in1022.4 mb 0.00 in0.0 mm 0.00 in0.0 mm 0.00 in0.0 mm
02:55 PM 45.5°F7.5°C 20.5°F-6.4°C 37% 8.0 mph NW12.9 kmh NW -- 30.19 in1022.4 mb 0.00 in0.0 mm 0.00 in0.0 mm 0.00 in0.0 mm
02:56 PM 45.7°F7.6°C 20.7°F-6.3°C 37% 12.0 mph NNE19.3 kmh NNE -- 30.19 in1022.4 mb 0.00 in0.0 mm 0.00 in0.0 mm 0.00 in0.0 mm
02:57 PM 45.9°F7.7°C 20.8°F-6.2°C 37% 8.0 mph NNE12.9 kmh NNE -- 30.19 in1022.4 mb 0.00 in0.0 mm 0.00 in0.0 mm 0.00 in0.0 mm
02:58 PM 45.7°F7.6°C 20.7°F-6.3°C 37% 7.0 mph NNE11.3 kmh NNE -- 30.19 in1022.4 mb 0.00 in0.0 mm 0.00 in0.0 mm 0.00 in0.0 mm
02:59 PM 45.5°F7.5°C 20.5°F-6.4°C 37% 9.0 mph 14.5 kmh -- 30.19 in1022.4 mb 0.00 in0.0 mm 0.00 in0.0 mm 0.00 in0.0 mm
03:00 PM 45.7°F7.6°C 19.4°F-7.0°C 35% 9.0 mph WNW14.5 kmh WNW -- 30.19 in1022.4 mb 0.00 in0.0 mm 0.00 in0.0 mm 0.00 in0.0 mm
03:01 PM 45.5°F7.5°C 20.5°F-6.4°C 37% 8.0 mph NNW12.9 kmh NNW -- 30.19 in1022.4 mb 0.00 in0.0 mm 0.00 in0.0 mm 0.00 in0.0 mm
03:02 PM 45.7°F7.6°C 20.7°F-6.3°C 37% 12.0 mph NNW19.3 kmh NNW -- 30.19 in1022.4 mb 0.00 in0.0 mm 0.00 in0.0 mm 0.00 in0.0 mm
03:03 PM 45.7°F7.6°C 20.7°F-6.3°C 37% 12.0 mph 19.3 kmh -- 30.19 in1022.4 mb 0.00 in0.0 mm 0.00 in0.0 mm 0.00 in0.0 mm
03:04 PM 45.5°F7.5°C 19.2°F-7.1°C 35% 7.0 mph NW11.3 kmh NW -- 30.19 in1022.4 mb 0.00 in0.0 mm 0.00 in0.0 mm 0.00 in0.0 mm
03:05 PM 45.5°F7.5°C 19.2°F-7.1°C 35% 11.0 mph WNW17.7 kmh WNW -- 30.19 in1022.4 mb 0.00 in0.0 mm 0.00 in0.0 mm 0.00 in0.0 mm
03:06 PM 45.5°F7.5°C 19.2°F-7.1°C 35% 10.0 mph NNW16.1 kmh NNW -- 30.19 in1022.4 mb 0.00 in0.0 mm 0.00 in0.0 mm 0.00 in0.0 mm
03:07 PM 45.5°F7.5°C 19.2°F-7.1°C 35% 8.0 mph NW12.9 kmh NW -- 30.19 in1022.4 mb 0.00 in0.0 mm 0.00 in0.0 mm 0.00 in0.0 mm
03:08 PM 45.7°F7.6°C 20.7°F-6.3°C 37% 10.0 mph W16.1 kmh W -- 30.19 in1022.4 mb 0.00 in0.0 mm 0.00 in0.0 mm 0.00 in0.0 mm
03:09 PM 45.5°F7.5°C 20.5°F-6.4°C 37% 6.0 mph NNW9.7 kmh NNW -- 30.19 in1022.4 mb 0.00 in0.0 mm 0.00 in0.0 mm 0.00 in0.0 mm
03:10 PM 45.9°F7.7°C 20.8°F-6.2°C 37% 6.0 mph WNW9.7 kmh WNW -- 30.19 in1022.4 mb 0.00 in0.0 mm 0.00 in0.0 mm 0.00 in0.0 mm
03:11 PM 45.9°F7.7°C 20.8°F-6.2°C 37% 10.0 mph W16.1 kmh W -- 30.19 in1022.4 mb 0.00 in0.0 mm 0.00 in0.0 mm 0.00 in0.0 mm
03:12 PM 45.9°F7.7°C 20.8°F-6.2°C 37% 12.0 mph NNE19.3 kmh NNE -- 30.19 in1022.4 mb 0.00 in0.0 mm 0.00 in0.0 mm 0.00 in0.0 mm
03:13 PM 45.9°F7.7°C 20.8°F-6.2°C 37% 9.0 mph 14.5 kmh -- 30.19 in1022.4 mb 0.00 in0.0 mm 0.00 in0.0 mm 0.00 in0.0 mm
03:14 PM 45.9°F7.7°C 19.5°F-6.9°C 35% 9.0 mph WNW14.5 kmh WNW -- 30.19 in1022.4 mb 0.00 in0.0 mm 0.00 in0.0 mm 0.00 in0.0 mm
03:15 PM 45.9°F7.7°C 19.5°F-6.9°C 35% 9.0 mph NW14.5 kmh NW -- 30.19 in1022.4 mb 0.00 in0.0 mm 0.00 in0.0 mm 0.00 in0.0 mm
03:16 PM 45.9°F7.7°C 20.8°F-6.2°C 37% 9.0 mph NW14.5 kmh NW -- 30.19 in1022.4 mb 0.00 in0.0 mm 0.00 in0.0 mm 0.00 in0.0 mm
03:17 PM 46.1°F7.8°C 21.0°F-6.1°C 37% 10.0 mph NNE16.1 kmh NNE -- 30.19 in1022.4 mb 0.00 in0.0 mm 0.00 in0.0 mm 0.00 in0.0 mm
03:18 PM 46.4°F8.0°C 21.3°F-5.9°C 37% 10.0 mph 16.1 kmh -- 30.19 in1022.4 mb 0.00 in0.0 mm 0.00 in0.0 mm 0.00 in0.0 mm
03:19 PM 46.1°F7.8°C 19.7°F-6.8°C 35% 7.0 mph WNW11.3 kmh WNW -- 30.19 in1022.4 mb 0.00 in0.0 mm 0.00 in0.0 mm 0.00 in0.0 mm
03:20 PM 45.9°F7.7°C 19.5°F-6.9°C 35% 7.0 mph NNW11.3 kmh NNW -- 30.19 in1022.4 mb 0.00 in0.0 mm 0.00 in0.0 mm 0.00 in0.0 mm
03:21 PM 45.9°F7.7°C 19.5°F-6.9°C 35% 12.0 mph NNW19.3 kmh NNW -- 30.19 in1022.4 mb 0.00 in0.0 mm 0.00 in0.0 mm 0.00 in0.0 mm
03:22 PM 45.9°F7.7°C 19.5°F-6.9°C 35% 12.0 mph NW19.3 kmh NW -- 30.19 in1022.4 mb 0.00 in0.0 mm 0.00 in0.0 mm 0.00 in0.0 mm
03:23 PM 45.5°F7.5°C 19.2°F-7.1°C 35% 11.0 mph NNW17.7 kmh NNW -- 30.19 in1022.4 mb 0.00 in0.0 mm 0.00 in0.0 mm 0.00 in0.0 mm
03:24 PM 45.0°F7.2°C 18.7°F-7.4°C 35% 10.0 mph NNW16.1 kmh NNW -- 30.19 in1022.4 mb 0.00 in0.0 mm 0.00 in0.0 mm 0.00 in0.0 mm
03:25 PM 45.0°F7.2°C 20.0°F-6.7°C 37% 8.0 mph NNW12.9 kmh NNW -- 30.19 in1022.4 mb 0.00 in0.0 mm 0.00 in0.0 mm 0.00 in0.0 mm
03:26 PM 45.2°F7.3°C 20.2°F-6.6°C 37% 11.0 mph 17.7 kmh -- 30.19 in1022.4 mb 0.00 in0.0 mm 0.00 in0.0 mm 0.00 in0.0 mm
03:27 PM 45.2°F7.3°C 18.9°F-7.3°C 35% 7.0 mph NW11.3 kmh NW -- 30.19 in1022.4 mb 0.00 in0.0 mm 0.00 in0.0 mm 0.00 in0.0 mm
03:28 PM 45.2°F7.3°C 18.9°F-7.3°C 35% 10.0 mph NW16.1 kmh NW -- 30.19 in1022.4 mb 0.00 in0.0 mm 0.00 in0.0 mm 0.00 in0.0 mm
03:29 PM 45.2°F7.3°C 20.2°F-6.6°C 37% 10.0 mph NNW16.1 kmh NNW -- 30.19 in1022.4 mb 0.00 in0.0 mm 0.00 in0.0 mm 0.00 in0.0 mm
03:30 PM 45.2°F7.3°C 20.2°F-6.6°C 37% 10.0 mph ESE16.1 kmh ESE -- 30.19 in1022.4 mb 0.00 in0.0 mm 0.00 in0.0 mm 0.00 in0.0 mm
03:31 PM 45.2°F7.3°C 20.2°F-6.6°C 37% 10.0 mph NNW16.1 kmh NNW -- 30.19 in1022.4 mb 0.00 in0.0 mm 0.00 in0.0 mm 0.00 in0.0 mm
03:32 PM 45.2°F7.3°C 20.2°F-6.6°C 37% 7.0 mph NNW11.3 kmh NNW -- 30.19 in1022.4 mb 0.00 in0.0 mm 0.00 in0.0 mm 0.00 in0.0 mm
03:33 PM 45.5°F7.5°C 20.5°F-6.4°C 37% 11.0 mph NNW17.7 kmh NNW -- 30.19 in1022.4 mb 0.00 in0.0 mm 0.00 in0.0 mm 0.00 in0.0 mm
03:34 PM 45.7°F7.6°C 19.4°F-7.0°C 35% 6.0 mph NNE9.7 kmh NNE -- 30.19 in1022.4 mb 0.00 in0.0 mm 0.00 in0.0 mm 0.00 in0.0 mm
03:35 PM 45.5°F7.5°C 20.5°F-6.4°C 37% 8.0 mph WNW12.9 kmh WNW -- 30.19 in1022.4 mb 0.00 in0.0 mm 0.00 in0.0 mm 0.00 in0.0 mm
03:36 PM 45.7°F7.6°C 20.7°F-6.3°C 37% 8.0 mph NNE12.9 kmh NNE -- 30.19 in1022.4 mb 0.00 in0.0 mm 0.00 in0.0 mm 0.00 in0.0 mm
03:37 PM 45.9°F7.7°C 20.8°F-6.2°C 37% 17.0 mph NNW27.4 kmh NNW -- 30.19 in1022.4 mb 0.00 in0.0 mm 0.00 in0.0 mm 0.00 in0.0 mm
03:38 PM 45.9°F7.7°C 20.8°F-6.2°C 37% 8.0 mph NW12.9 kmh NW -- 30.19 in1022.4 mb 0.00 in0.0 mm 0.00 in0.0 mm 0.00 in0.0 mm
03:39 PM 45.9°F7.7°C 20.8°F-6.2°C 37% 9.0 mph NNW14.5 kmh NNW -- 30.20 in1022.7 mb 0.00 in0.0 mm 0.00 in0.0 mm 0.00 in0.0 mm
03:40 PM 45.7°F7.6°C 20.7°F-6.3°C 37% 8.0 mph 12.9 kmh -- 30.20 in1022.7 mb 0.00 in0.0 mm 0.00 in0.0 mm 0.00 in0.0 mm
03:41 PM 45.5°F7.5°C 20.5°F-6.4°C 37% 8.0 mph 12.9 kmh -- 30.19 in1022.4 mb 0.00 in0.0 mm 0.00 in0.0 mm 0.00 in0.0 mm
03:42 PM 45.2°F7.3°C 20.2°F-6.6°C 37% 6.0 mph NNE9.7 kmh NNE -- 30.20 in1022.7 mb 0.00 in0.0 mm 0.00 in0.0 mm 0.00 in0.0 mm
03:43 PM 45.2°F7.3°C 20.2°F-6.6°C 37% 9.0 mph 14.5 kmh -- 30.20 in1022.7 mb 0.00 in0.0 mm 0.00 in0.0 mm 0.00 in0.0 mm
03:44 PM 45.2°F7.3°C 20.2°F-6.6°C 37% 10.0 mph NNW16.1 kmh NNW -- 30.19 in1022.4 mb 0.00 in0.0 mm 0.00 in0.0 mm 0.00 in0.0 mm
03:45 PM 45.2°F7.3°C 20.2°F-6.6°C 37% 10.0 mph NW16.1 kmh NW -- 30.19 in1022.4 mb 0.00 in0.0 mm 0.00 in0.0 mm 0.00 in0.0 mm
03:46 PM 45.0°F7.2°C 20.0°F-6.7°C 37% 12.0 mph W19.3 kmh W -- 30.20 in1022.7 mb 0.00 in0.0 mm 0.00 in0.0 mm 0.00 in0.0 mm
03:47 PM 45.0°F7.2°C 18.7°F-7.4°C 35% 7.0 mph NW11.3 kmh NW -- 30.20 in1022.7 mb 0.00 in0.0 mm 0.00 in0.0 mm 0.00 in0.0 mm
03:48 PM 45.0°F7.2°C 18.7°F-7.4°C 35% 10.0 mph 16.1 kmh -- 30.20 in1022.7 mb 0.00 in0.0 mm 0.00 in0.0 mm 0.00 in0.0 mm
03:49 PM 44.8°F7.1°C 18.6°F-7.4°C 35% 12.0 mph ENE19.3 kmh ENE -- 30.20 in1022.7 mb 0.00 in0.0 mm 0.00 in0.0 mm 0.00 in0.0 mm
03:50 PM 44.8°F7.1°C 18.6°F-7.4°C 35% 8.0 mph NNE12.9 kmh NNE -- 30.20 in1022.7 mb 0.00 in0.0 mm 0.00 in0.0 mm 0.00 in0.0 mm
03:51 PM 44.6°F7.0°C 18.4°F-7.6°C 35% 9.0 mph NNE14.5 kmh NNE -- 30.20 in1022.7 mb 0.00 in0.0 mm 0.00 in0.0 mm 0.00 in0.0 mm
03:52 PM 45.0°F7.2°C 18.7°F-7.4°C 35% 11.0 mph NW17.7 kmh NW -- 30.20 in1022.7 mb 0.00 in0.0 mm 0.00 in0.0 mm 0.00 in0.0 mm
03:53 PM 45.0°F7.2°C 18.7°F-7.4°C 35% 8.0 mph NW12.9 kmh NW -- 30.20 in1022.7 mb 0.00 in0.0 mm 0.00 in0.0 mm 0.00 in0.0 mm
03:54 PM 45.2°F7.3°C 18.9°F-7.3°C 35% 10.0 mph NW16.1 kmh NW -- 30.19 in1022.4 mb 0.00 in0.0 mm 0.00 in0.0 mm 0.00 in0.0 mm
03:55 PM 45.0°F7.2°C 20.0°F-6.7°C 37% 7.0 mph 11.3 kmh -- 30.20 in1022.7 mb 0.00 in0.0 mm 0.00 in0.0 mm 0.00 in0.0 mm
03:56 PM 45.2°F7.3°C 20.2°F-6.6°C 37% 6.0 mph 9.7 kmh -- 30.19 in1022.4 mb 0.00 in0.0 mm 0.00 in0.0 mm 0.00 in0.0 mm
03:57 PM 45.2°F7.3°C 20.2°F-6.6°C 37% 10.0 mph NNE16.1 kmh NNE -- 30.19 in1022.4 mb 0.00 in0.0 mm 0.00 in0.0 mm 0.00 in0.0 mm
03:58 PM 45.2°F7.3°C 20.2°F-6.6°C 37% 9.0 mph NNW14.5 kmh NNW -- 30.19 in1022.4 mb 0.00 in0.0 mm 0.00 in0.0 mm 0.00 in0.0 mm
03:59 PM 45.0°F7.2°C 20.0°F-6.7°C 37% 8.0 mph NNE12.9 kmh NNE -- 30.20 in1022.7 mb 0.00 in0.0 mm 0.00 in0.0 mm 0.00 in0.0 mm
04:00 PM 45.2°F7.3°C 20.2°F-6.6°C 37% 10.0 mph WNW16.1 kmh WNW -- 30.19 in1022.4 mb 0.00 in0.0 mm 0.00 in0.0 mm 0.00 in0.0 mm
04:01 PM 45.5°F7.5°C 20.5°F-6.4°C 37% 9.0 mph NNW14.5 kmh NNW -- 30.19 in1022.4 mb 0.00 in0.0 mm 0.00 in0.0 mm 0.00 in0.0 mm
04:03 PM 45.5°F7.5°C 20.5°F-6.4°C 37% 9.0 mph NW14.5 kmh NW -- 30.19 in1022.4 mb 0.00 in0.0 mm 0.00 in0.0 mm 0.00 in0.0 mm
04:04 PM 45.5°F7.5°C 20.5°F-6.4°C 37% 9.0 mph NNW14.5 kmh NNW -- 30.19 in1022.4 mb 0.00 in0.0 mm 0.00 in0.0 mm 0.00 in0.0 mm
04:05 PM 45.2°F7.3°C 20.2°F-6.6°C 37% 9.0 mph NNW14.5 kmh NNW -- 30.19 in1022.4 mb 0.00 in0.0 mm 0.00 in0.0 mm 0.00 in0.0 mm
04:06 PM 45.2°F7.3°C 20.2°F-6.6°C 37% 6.0 mph NNW9.7 kmh NNW -- 30.20 in1022.7 mb 0.00 in0.0 mm 0.00 in0.0 mm 0.00 in0.0 mm
04:07 PM 45.7°F7.6°C 20.7°F-6.3°C 37% 11.0 mph NNW17.7 kmh NNW -- 30.20 in1022.7 mb 0.00 in0.0 mm 0.00 in0.0 mm 0.00 in0.0 mm
04:08 PM 45.0°F7.2°C 20.0°F-6.7°C 37% 9.0 mph NNE14.5 kmh NNE -- 30.20 in1022.7 mb 0.00 in0.0 mm 0.00 in0.0 mm 0.00 in0.0 mm
04:09 PM 45.0°F7.2°C 20.0°F-6.7°C 37% 9.0 mph 14.5 kmh -- 30.20 in1022.7 mb 0.00 in0.0 mm 0.00 in0.0 mm 0.00 in0.0 mm
04:10 PM 45.2°F7.3°C 20.2°F-6.6°C 37% 11.0 mph NNE17.7 kmh NNE -- 30.20 in1022.7 mb 0.00 in0.0 mm 0.00 in0.0 mm 0.00 in0.0 mm
04:11 PM 45.2°F7.3°C 20.2°F-6.6°C 37% 8.0 mph NE12.9 kmh NE -- 30.20 in1022.7 mb 0.00 in0.0 mm 0.00 in0.0 mm 0.00 in0.0 mm
04:12 PM 45.2°F7.3°C 20.2°F-6.6°C 37% 6.0 mph 9.7 kmh -- 30.20 in1022.7 mb 0.00 in0.0 mm 0.00 in0.0 mm 0.00 in0.0 mm
04:13 PM 45.2°F7.3°C 20.2°F-6.6°C 37% 8.0 mph NNW12.9 kmh NNW -- 30.20 in1022.7 mb 0.00 in0.0 mm 0.00 in0.0 mm 0.00 in0.0 mm
04:14 PM 45.0°F7.2°C 20.0°F-6.7°C 37% 8.0 mph NW12.9 kmh NW -- 30.20 in1022.7 mb 0.00 in0.0 mm 0.00 in0.0 mm 0.00 in0.0 mm
04:16 PM 45.2°F7.3°C 20.2°F-6.6°C 37% 9.0 mph W14.5 kmh W -- 30.20 in1022.7 mb 0.00 in0.0 mm 0.00 in0.0 mm 0.00 in0.0 mm
04:17 PM 45.2°F7.3°C 20.2°F-6.6°C 37% 10.0 mph NW16.1 kmh NW -- 30.20 in1022.7 mb 0.00 in0.0 mm 0.00 in0.0 mm 0.00 in0.0 mm
04:18 PM 45.2°F7.3°C 20.2°F-6.6°C 37% 7.0 mph NE11.3 kmh NE -- 30.20 in1022.7 mb 0.00 in0.0 mm 0.00 in0.0 mm 0.00 in0.0 mm
04:19 PM 45.2°F7.3°C 20.2°F-6.6°C 37% 7.0 mph NNW11.3 kmh NNW -- 30.20 in1022.7 mb 0.00 in0.0 mm 0.00 in0.0 mm 0.00 in0.0 mm
04:20 PM 45.0°F7.2°C 20.0°F-6.7°C 37% 8.0 mph NNE12.9 kmh NNE -- 30.20 in1022.7 mb 0.00 in0.0 mm 0.00 in0.0 mm 0.00 in0.0 mm
04:21 PM 45.0°F7.2°C 18.7°F-7.4°C 35% 10.0 mph NNW16.1 kmh NNW -- 30.20 in1022.7 mb 0.00 in0.0 mm 0.00 in0.0 mm 0.00 in0.0 mm
04:22 PM 45.0°F7.2°C 18.7°F-7.4°C 35% 8.0 mph 12.9 kmh -- 30.20 in1022.7 mb 0.00 in0.0 mm 0.00 in0.0 mm 0.00 in0.0 mm
04:23 PM 45.0°F7.2°C 18.7°F-7.4°C 35% 9.0 mph 14.5 kmh -- 30.20 in1022.7 mb 0.00 in0.0 mm 0.00 in0.0 mm 0.00 in0.0 mm
04:24 PM 45.0°F7.2°C 18.7°F-7.4°C 35% 12.0 mph NNE19.3 kmh NNE -- 30.20 in1022.7 mb 0.00 in0.0 mm 0.00 in0.0 mm 0.00 in0.0 mm
04:25 PM 45.0°F7.2°C 18.7°F-7.4°C 35% 7.0 mph NNE11.3 kmh NNE -- 30.20 in1022.7 mb 0.00 in0.0 mm 0.00 in0.0 mm 0.00 in0.0 mm
04:26 PM 44.8°F7.1°C 18.6°F-7.4°C 35% 9.0 mph NNE14.5 kmh NNE -- 30.20 in1022.7 mb 0.00 in0.0 mm 0.00 in0.0 mm 0.00 in0.0 mm
04:27 PM 44.6°F7.0°C 18.4°F-7.6°C 35% 5.0 mph NNW8.0 kmh NNW -- 30.20 in1022.7 mb 0.00 in0.0 mm 0.00 in0.0 mm 0.00 in0.0 mm
04:28 PM 44.6°F7.0°C 19.7°F-6.8°C 37% 6.0 mph NNW9.7 kmh NNW -- 30.20 in1022.7 mb 0.00 in0.0 mm 0.00 in0.0 mm 0.00 in0.0 mm
04:29 PM 44.6°F7.0°C 19.7°F-6.8°C 37% 9.0 mph NW14.5 kmh NW -- 30.20 in1022.7 mb 0.00 in0.0 mm 0.00 in0.0 mm 0.00 in0.0 mm
04:30 PM 44.6°F7.0°C 19.7°F-6.8°C 37% 8.0 mph WNW12.9 kmh WNW -- 30.20 in1022.7 mb 0.00 in0.0 mm 0.00 in0.0 mm 0.00 in0.0 mm
04:32 PM 44.6°F7.0°C 19.7°F-6.8°C 37% 7.0 mph NE11.3 kmh NE -- 30.21 in1023.0 mb 0.00 in0.0 mm 0.00 in0.0 mm 0.00 in0.0 mm
04:33 PM 44.2°F6.8°C 19.4°F-7.0°C 37% 11.0 mph 17.7 kmh -- 30.21 in1023.0 mb 0.00 in0.0 mm 0.00 in0.0 mm 0.00 in0.0 mm
04:34 PM 44.2°F6.8°C 19.4°F-7.0°C 37% 7.0 mph WNW11.3 kmh WNW -- 30.20 in1022.7 mb 0.00 in0.0 mm 0.00 in0.0 mm 0.00 in0.0 mm
04:35 PM 44.2°F6.8°C 19.4°F-7.0°C 37% 8.0 mph WNW12.9 kmh WNW -- 30.20 in1022.7 mb 0.00 in0.0 mm 0.00 in0.0 mm 0.00 in0.0 mm
04:36 PM 44.2°F6.8°C 19.4°F-7.0°C 37% 5.0 mph NW8.0 kmh NW -- 30.20 in1022.7 mb 0.00 in0.0 mm 0.00 in0.0 mm 0.00 in0.0 mm
04:37 PM 44.4°F6.9°C 19.6°F-6.9°C 37% 9.0 mph NNW14.5 kmh NNW -- 30.20 in1022.7 mb 0.00 in0.0 mm 0.00 in0.0 mm 0.00 in0.0 mm
04:38 PM 44.6°F7.0°C 18.4°F-7.6°C 35% 10.0 mph NW16.1 kmh NW -- 30.20 in1022.7 mb 0.00 in0.0 mm 0.00 in0.0 mm 0.00 in0.0 mm
04:39 PM 44.0°F6.7°C 17.9°F-7.8°C 35% 9.0 mph NNE14.5 kmh NNE -- 30.20 in1022.7 mb 0.00 in0.0 mm 0.00 in0.0 mm 0.00 in0.0 mm
04:40 PM 44.0°F6.7°C 19.2°F-7.1°C 37% 9.0 mph NNE14.5 kmh NNE -- 30.21 in1023.0 mb 0.00 in0.0 mm 0.00 in0.0 mm 0.00 in0.0 mm
04:41 PM 44.2°F6.8°C 19.4°F-7.0°C 37% 7.0 mph NW11.3 kmh NW -- 30.21 in1023.0 mb 0.00 in0.0 mm 0.00 in0.0 mm 0.00 in0.0 mm
04:42 PM 44.2°F6.8°C 19.4°F-7.0°C 37% 7.0 mph NNW11.3 kmh NNW -- 30.20 in1022.7 mb 0.00 in0.0 mm 0.00 in0.0 mm 0.00 in0.0 mm
04:43 PM 44.2°F6.8°C 19.4°F-7.0°C 37% 9.0 mph NNW14.5 kmh NNW -- 30.20 in1022.7 mb 0.00 in0.0 mm 0.00 in0.0 mm 0.00 in0.0 mm
04:44 PM 44.2°F6.8°C 20.6°F-6.3°C 39% 7.0 mph ENE11.3 kmh ENE -- 30.21 in1023.0 mb 0.00 in0.0 mm 0.00 in0.0 mm 0.00 in0.0 mm
04:45 PM 44.2°F6.8°C 20.6°F-6.3°C 39% 10.0 mph NNE16.1 kmh NNE -- 30.21 in1023.0 mb 0.00 in0.0 mm 0.00 in0.0 mm 0.00 in0.0 mm
04:46 PM 44.2°F6.8°C 19.4°F-7.0°C 37% 6.0 mph NNW9.7 kmh NNW -- 30.21 in1023.0 mb 0.00 in0.0 mm 0.00 in0.0 mm 0.00 in0.0 mm
04:47 PM 44.0°F6.7°C 19.2°F-7.1°C 37% 4.0 mph NW6.4 kmh NW -- 30.21 in1023.0 mb 0.00 in0.0 mm 0.00 in0.0 mm 0.00 in0.0 mm
04:48 PM 44.0°F6.7°C 19.2°F-7.1°C 37% 12.0 mph NNE19.3 kmh NNE -- 30.21 in1023.0 mb 0.00 in0.0 mm 0.00 in0.0 mm 0.00 in0.0 mm
04:49 PM 44.0°F6.7°C 17.9°F-7.8°C 35% 8.0 mph NNE12.9 kmh NNE -- 30.21 in1023.0 mb 0.00 in0.0 mm 0.00 in0.0 mm 0.00 in0.0 mm
04:50 PM 44.0°F6.7°C 17.9°F-7.8°C 35% 7.0 mph NE11.3 kmh NE -- 30.21 in1023.0 mb 0.00 in0.0 mm 0.00 in0.0 mm 0.00 in0.0 mm
04:51 PM 43.9°F6.6°C 19.1°F-7.2°C 37% 9.0 mph 14.5 kmh -- 30.21 in1023.0 mb 0.00 in0.0 mm 0.00 in0.0 mm 0.00 in0.0 mm
04:52 PM 43.9°F6.6°C 19.1°F-7.2°C 37% 7.0 mph NE11.3 kmh NE -- 30.21 in1023.0 mb 0.00 in0.0 mm 0.00 in0.0 mm 0.00 in0.0 mm
04:53 PM 43.9°F6.6°C 19.1°F-7.2°C 37% 10.0 mph NE16.1 kmh NE -- 30.21 in1023.0 mb 0.00 in0.0 mm 0.00 in0.0 mm 0.00 in0.0 mm
04:54 PM 43.9°F6.6°C 19.1°F-7.2°C 37% 9.0 mph NNW14.5 kmh NNW -- 30.21 in1023.0 mb 0.00 in0.0 mm 0.00 in0.0 mm 0.00 in0.0 mm
04:55 PM 43.9°F6.6°C 19.1°F-7.2°C 37% 9.0 mph W14.5 kmh W -- 30.21 in1023.0 mb 0.00 in0.0 mm 0.00 in0.0 mm 0.00 in0.0 mm
04:56 PM 43.9°F6.6°C 19.1°F-7.2°C 37% 8.0 mph NNW12.9 kmh NNW -- 30.21 in1023.0 mb 0.00 in0.0 mm 0.00 in0.0 mm 0.00 in0.0 mm
04:57 PM 43.9°F6.6°C 19.1°F-7.2°C 37% 9.0 mph NNW14.5 kmh NNW -- 30.21 in1023.0 mb 0.00 in0.0 mm 0.00 in0.0 mm 0.00 in0.0 mm
04:58 PM 43.9°F6.6°C 19.1°F-7.2°C 37% 7.0 mph 11.3 kmh -- 30.21 in1023.0 mb 0.00 in0.0 mm 0.00 in0.0 mm 0.00 in0.0 mm
04:59 PM 43.9°F6.6°C 19.1°F-7.2°C 37% 11.0 mph NE17.7 kmh NE -- 30.21 in1023.0 mb 0.00 in0.0 mm 0.00 in0.0 mm 0.00 in0.0 mm
05:00 PM 43.6°F6.4°C 18.7°F-7.4°C 37% 9.0 mph NNE14.5 kmh NNE -- 30.21 in1023.0 mb 0.00 in0.0 mm 0.00 in0.0 mm 0.00 in0.0 mm
05:01 PM 43.6°F6.4°C 18.7°F-7.4°C 37% 11.0 mph NE17.7 kmh NE -- 30.21 in1023.0 mb 0.00 in0.0 mm 0.00 in0.0 mm 0.00 in0.0 mm
05:02 PM 43.6°F6.4°C 18.7°F-7.4°C 37% 9.0 mph NNE14.5 kmh NNE -- 30.21 in1023.0 mb 0.00 in0.0 mm 0.00 in0.0 mm 0.00 in0.0 mm
05:03 PM 43.4°F6.3°C 20.4°F-6.4°C 40% 7.0 mph 11.3 kmh -- 30.21 in1023.0 mb 0.00 in0.0 mm 0.00 in0.0 mm 0.00 in0.0 mm
05:04 PM 43.4°F6.3°C 20.4°F-6.4°C 40% 8.0 mph NW12.9 kmh NW -- 30.21 in1023.0 mb 0.00 in0.0 mm 0.00 in0.0 mm 0.00 in0.0 mm
05:05 PM 43.4°F6.3°C 20.4°F-6.4°C 40% 7.0 mph NNW11.3 kmh NNW -- 30.21 in1023.0 mb 0.00 in0.0 mm 0.00 in0.0 mm 0.00 in0.0 mm
05:06 PM 43.4°F6.3°C 20.4°F-6.4°C 40% 10.0 mph 16.1 kmh -- 30.21 in1023.0 mb 0.00 in0.0 mm 0.00 in0.0 mm 0.00 in0.0 mm
05:07 PM 43.4°F6.3°C 20.4°F-6.4°C 40% 8.0 mph NNE12.9 kmh NNE -- 30.21 in1023.0 mb 0.00 in0.0 mm 0.00 in0.0 mm 0.00 in0.0 mm
05:08 PM 43.2°F6.2°C 20.3°F-6.5°C 40% 7.0 mph 11.3 kmh -- 30.21 in1023.0 mb 0.00 in0.0 mm 0.00 in0.0 mm 0.00 in0.0 mm
05:09 PM 43.2°F6.2°C 20.3°F-6.5°C 40% 9.0 mph 14.5 kmh -- 30.21 in1023.0 mb 0.00 in0.0 mm 0.00 in0.0 mm 0.00 in0.0 mm
05:10 PM 43.2°F6.2°C 20.3°F-6.5°C 40% 8.0 mph 12.9 kmh -- 30.21 in1023.0 mb 0.00 in0.0 mm 0.00 in0.0 mm 0.00 in0.0 mm
05:11 PM 43.2°F6.2°C 20.3°F-6.5°C 40% 9.0 mph NE14.5 kmh NE -- 30.21 in1023.0 mb 0.00 in0.0 mm 0.00 in0.0 mm 0.00 in0.0 mm
05:12 PM 43.2°F6.2°C 20.3°F-6.5°C 40% 8.0 mph NE12.9 kmh NE -- 30.21 in1023.0 mb 0.00 in0.0 mm 0.00 in0.0 mm 0.00 in0.0 mm
05:13 PM 43.2°F6.2°C 20.3°F-6.5°C 40% 9.0 mph 14.5 kmh -- 30.21 in1023.0 mb 0.00 in0.0 mm 0.00 in0.0 mm 0.00 in0.0 mm
05:14 PM 42.7°F5.9°C 20.4°F-6.4°C 41% 8.0 mph NNE12.9 kmh NNE -- 30.21 in1023.0 mb 0.00 in0.0 mm 0.00 in0.0 mm 0.00 in0.0 mm
05:15 PM 42.7°F5.9°C 20.4°F-6.4°C 41% 8.0 mph WNW12.9 kmh WNW -- 30.21 in1023.0 mb 0.00 in0.0 mm 0.00 in0.0 mm 0.00 in0.0 mm
05:16 PM 43.2°F6.2°C 22.0°F-5.6°C 43% 6.0 mph NNW9.7 kmh NNW -- 30.21 in1023.0 mb 0.00 in0.0 mm 0.00 in0.0 mm 0.00 in0.0 mm
05:17 PM 43.2°F6.2°C 22.0°F-5.6°C 43% 10.0 mph W16.1 kmh W -- 30.21 in1023.0 mb 0.00 in0.0 mm 0.00 in0.0 mm 0.00 in0.0 mm
05:18 PM 42.7°F5.9°C 20.4°F-6.4°C 41% 11.0 mph NNE17.7 kmh NNE -- 30.21 in1023.0 mb 0.00 in0.0 mm 0.00 in0.0 mm 0.00 in0.0 mm
05:19 PM 42.5°F5.8°C 20.2°F-6.6°C 41% 9.0 mph NNE14.5 kmh NNE -- 30.21 in1023.0 mb 0.00 in0.0 mm 0.00 in0.0 mm 0.00 in0.0 mm
05:20 PM 42.5°F5.8°C 20.2°F-6.6°C 41% 6.0 mph 9.7 kmh -- 30.21 in1023.0 mb 0.00 in0.0 mm 0.00 in0.0 mm 0.00 in0.0 mm
05:21 PM 42.7°F5.9°C 19.8°F-6.8°C 40% 8.0 mph NNE12.9 kmh NNE -- 30.21 in1023.0 mb 0.00 in0.0 mm 0.00 in0.0 mm 0.00 in0.0 mm
05:22 PM 42.7°F5.9°C 20.4°F-6.4°C 41% 6.0 mph NNW9.7 kmh NNW -- 30.21 in1023.0 mb 0.00 in0.0 mm 0.00 in0.0 mm 0.00 in0.0 mm
05:23 PM 43.0°F6.1°C 20.7°F-6.3°C 41% 8.0 mph 12.9 kmh -- 30.21 in1023.0 mb 0.00 in0.0 mm 0.00 in0.0 mm 0.00 in0.0 mm
05:24 PM 42.7°F5.9°C 20.4°F-6.4°C 41% 8.0 mph 12.9 kmh -- 30.21 in1023.0 mb 0.00 in0.0 mm 0.00 in0.0 mm 0.00 in0.0 mm
05:25 PM 42.5°F5.8°C 21.3°F-5.9°C 43% 6.0 mph 9.7 kmh -- 30.21 in1023.0 mb 0.00 in0.0 mm 0.00 in0.0 mm 0.00 in0.0 mm
05:26 PM 42.5°F5.8°C 21.3°F-5.9°C 43% 10.0 mph NW16.1 kmh NW -- 30.21 in1023.0 mb 0.00 in0.0 mm 0.00 in0.0 mm 0.00 in0.0 mm
05:27 PM 42.7°F5.9°C 21.5°F-5.8°C 43% 9.0 mph NNW14.5 kmh NNW -- 30.21 in1023.0 mb 0.00 in0.0 mm 0.00 in0.0 mm 0.00 in0.0 mm
05:29 PM 43.0°F6.1°C 21.8°F-5.7°C 43% 8.0 mph WNW12.9 kmh WNW -- 30.21 in1023.0 mb 0.00 in0.0 mm 0.00 in0.0 mm 0.00 in0.0 mm
05:30 PM 43.0°F6.1°C 21.8°F-5.7°C 43% 12.0 mph 19.3 kmh -- 30.21 in1023.0 mb 0.00 in0.0 mm 0.00 in0.0 mm 0.00 in0.0 mm
05:31 PM 43.0°F6.1°C 21.8°F-5.7°C 43% 7.0 mph NW11.3 kmh NW -- 30.21 in1023.0 mb 0.00 in0.0 mm 0.00 in0.0 mm 0.00 in0.0 mm
05:32 PM 43.0°F6.1°C 21.8°F-5.7°C 43% 6.0 mph WNW9.7 kmh WNW -- 30.21 in1023.0 mb 0.00 in0.0 mm 0.00 in0.0 mm 0.00 in0.0 mm
05:33 PM 43.0°F6.1°C 21.8°F-5.7°C 43% 8.0 mph NW12.9 kmh NW -- 30.21 in1023.0 mb 0.00 in0.0 mm 0.00 in0.0 mm 0.00 in0.0 mm
05:35 PM 42.7°F5.9°C 21.5°F-5.8°C 43% 6.0 mph W9.7 kmh W -- 30.21 in1023.0 mb 0.00 in0.0 mm 0.00 in0.0 mm 0.00 in0.0 mm
05:36 PM 42.5°F5.8°C 21.9°F-5.6°C 44% 6.0 mph NW9.7 kmh NW -- 30.22 in1023.4 mb 0.00 in0.0 mm 0.00 in0.0 mm 0.00 in0.0 mm
05:37 PM 42.5°F5.8°C 22.4°F-5.3°C 45% 8.0 mph NNE12.9 kmh NNE -- 30.21 in1023.0 mb 0.00 in0.0 mm 0.00 in0.0 mm 0.00 in0.0 mm
05:38 PM 42.5°F5.8°C 22.4°F-5.3°C 45% 7.0 mph W11.3 kmh W -- 30.21 in1023.0 mb 0.00 in0.0 mm 0.00 in0.0 mm 0.00 in0.0 mm
05:39 PM 42.7°F5.9°C 22.6°F-5.2°C 45% 7.0 mph NNW11.3 kmh NNW -- 30.21 in1023.0 mb 0.00 in0.0 mm 0.00 in0.0 mm 0.00 in0.0 mm
05:40 PM 43.0°F6.1°C 22.9°F-5.1°C 45% 7.0 mph WNW11.3 kmh WNW -- 30.21 in1023.0 mb 0.00 in0.0 mm 0.00 in0.0 mm 0.00 in0.0 mm
05:41 PM 43.0°F6.1°C 22.9°F-5.1°C 45% 8.0 mph NNW12.9 kmh NNW -- 30.21 in1023.0 mb 0.00 in0.0 mm 0.00 in0.0 mm 0.00 in0.0 mm
05:42 PM 43.0°F6.1°C 22.9°F-5.1°C 45% 6.0 mph NNE9.7 kmh NNE -- 30.21 in1023.0 mb 0.00 in0.0 mm 0.00 in0.0 mm 0.00 in0.0 mm
05:43 PM 42.5°F5.8°C 22.4°F-5.3°C 45% 7.0 mph 11.3 kmh -- 30.21 in1023.0 mb 0.00 in0.0 mm 0.00 in0.0 mm 0.00 in0.0 mm
05:44 PM 42.5°F5.8°C 22.4°F-5.3°C 45% 5.0 mph WNW8.0 kmh WNW -- 30.21 in1023.0 mb 0.00 in0.0 mm 0.00 in0.0 mm 0.00 in0.0 mm
05:45 PM 42.5°F5.8°C 22.4°F-5.3°C 45% 8.0 mph NNW12.9 kmh NNW -- 30.21 in1023.0 mb 0.00 in0.0 mm 0.00 in0.0 mm 0.00 in0.0 mm
05:47 PM 42.3°F5.7°C 22.2°F-5.4°C 45% 8.0 mph 12.9 kmh -- 30.21 in1023.0 mb 0.00 in0.0 mm 0.00 in0.0 mm 0.00 in0.0 mm
05:48 PM 41.5°F5.3°C 21.6°F-5.8°C 45% 5.0 mph NNE8.0 kmh NNE -- 30.21 in1023.0 mb 0.00 in0.0 mm 0.00 in0.0 mm 0.00 in0.0 mm
05:49 PM 41.4°F5.2°C 21.9°F-5.6°C 46% 6.0 mph NNW9.7 kmh NNW -- 30.21 in1023.0 mb 0.00 in0.0 mm 0.00 in0.0 mm 0.00 in0.0 mm
05:50 PM 40.9°F4.9°C 22.9°F-5.1°C 49% 7.0 mph 11.3 kmh -- 30.21 in1023.0 mb 0.00 in0.0 mm 0.00 in0.0 mm 0.00 in0.0 mm
05:51 PM 40.9°F4.9°C 22.9°F-5.1°C 49% 6.0 mph NW9.7 kmh NW -- 30.21 in1023.0 mb 0.00 in0.0 mm 0.00 in0.0 mm 0.00 in0.0 mm
05:52 PM 40.9°F4.9°C 22.9°F-5.1°C 49% 5.0 mph 8.0 kmh -- 30.21 in1023.0 mb 0.00 in0.0 mm 0.00 in0.0 mm 0.00 in0.0 mm
05:53 PM 40.7°F4.8°C 22.8°F-5.1°C 49% 9.0 mph W14.5 kmh W -- 30.21 in1023.0 mb 0.00 in0.0 mm 0.00 in0.0 mm 0.00 in0.0 mm
05:54 PM 40.7°F4.8°C 22.8°F-5.1°C 49% 8.0 mph NW12.9 kmh NW -- 30.21 in1023.0 mb 0.00 in0.0 mm 0.00 in0.0 mm 0.00 in0.0 mm
05:55 PM 40.5°F4.7°C 23.1°F-4.9°C 50% 9.0 mph NNW14.5 kmh NNW -- 30.21 in1023.0 mb 0.00 in0.0 mm 0.00 in0.0 mm 0.00 in0.0 mm
05:56 PM 40.5°F4.7°C 23.1°F-4.9°C 50% 3.0 mph 4.8 kmh -- 30.21 in1023.0 mb 0.00 in0.0 mm 0.00 in0.0 mm 0.00 in0.0 mm
05:57 PM 40.5°F4.7°C 23.1°F-4.9°C 50% 6.0 mph NW9.7 kmh NW -- 30.21 in1023.0 mb 0.00 in0.0 mm 0.00 in0.0 mm 0.00 in0.0 mm
05:58 PM 40.5°F4.7°C 23.1°F-4.9°C 50% 4.0 mph NW6.4 kmh NW -- 30.21 in1023.0 mb 0.00 in0.0 mm 0.00 in0.0 mm 0.00 in0.0 mm
05:59 PM 40.9°F4.9°C 23.4°F-4.8°C 50% 11.0 mph NNW17.7 kmh NNW -- 30.21 in1023.0 mb 0.00 in0.0 mm 0.00 in0.0 mm 0.00 in0.0 mm
06:00 PM 40.9°F4.9°C 23.4°F-4.8°C 50% 5.0 mph NW8.0 kmh NW -- 30.21 in1023.0 mb 0.00 in0.0 mm 0.00 in0.0 mm 0.00 in0.0 mm
06:02 PM 41.1°F5.1°C 23.8°F-4.6°C 50% 5.0 mph NNE8.0 kmh NNE -- 30.21 in1023.0 mb 0.00 in0.0 mm 0.00 in0.0 mm 0.00 in0.0 mm
06:03 PM 41.1°F5.1°C 23.8°F-4.6°C 50% 8.0 mph NNW12.9 kmh NNW -- 30.21 in1023.0 mb 0.00 in0.0 mm 0.00 in0.0 mm 0.00 in0.0 mm
06:04 PM 41.1°F5.1°C 23.8°F-4.6°C 50% 5.0 mph NW8.0 kmh NW -- 30.21 in1023.0 mb 0.00 in0.0 mm 0.00 in0.0 mm 0.00 in0.0 mm
06:05 PM 40.9°F4.9°C 23.4°F-4.8°C 50% 7.0 mph NNW11.3 kmh NNW -- 30.21 in1023.0 mb 0.00 in0.0 mm 0.00 in0.0 mm 0.00 in0.0 mm
06:06 PM 41.1°F5.1°C 22.8°F-5.1°C 48% 6.0 mph NNW9.7 kmh NNW -- 30.22 in1023.4 mb 0.00 in0.0 mm 0.00 in0.0 mm 0.00 in0.0 mm
06:07 PM 40.9°F4.9°C 22.5°F-5.3°C 48% 6.0 mph ENE9.7 kmh ENE -- 30.22 in1023.4 mb 0.00 in0.0 mm 0.00 in0.0 mm 0.00 in0.0 mm
06:08 PM 40.9°F4.9°C 22.5°F-5.3°C 48% 6.0 mph NNW9.7 kmh NNW -- 30.22 in1023.4 mb 0.00 in0.0 mm 0.00 in0.0 mm 0.00 in0.0 mm
06:09 PM 40.7°F4.8°C 22.3°F-5.4°C 48% 3.0 mph NW4.8 kmh NW -- 30.22 in1023.4 mb 0.00 in0.0 mm 0.00 in0.0 mm 0.00 in0.0 mm
06:10 PM 40.7°F4.8°C 22.3°F-5.4°C 48% 4.0 mph NNW6.4 kmh NNW -- 30.22 in1023.4 mb 0.00 in0.0 mm 0.00 in0.0 mm 0.00 in0.0 mm
06:11 PM 40.7°F4.8°C 22.8°F-5.1°C 49% 6.0 mph NW9.7 kmh NW -- 30.22 in1023.4 mb 0.00 in0.0 mm 0.00 in0.0 mm 0.00 in0.0 mm
06:12 PM 40.9°F4.9°C 22.9°F-5.1°C 49% 4.0 mph NNW6.4 kmh NNW -- 30.22 in1023.4 mb 0.00 in0.0 mm 0.00 in0.0 mm 0.00 in0.0 mm
06:13 PM 40.9°F4.9°C 22.9°F-5.1°C 49% 5.0 mph W8.0 kmh W -- 30.22 in1023.4 mb 0.00 in0.0 mm 0.00 in0.0 mm 0.00 in0.0 mm
06:14 PM 40.9°F4.9°C 22.9°F-5.1°C 49% 4.0 mph NNW6.4 kmh NNW -- 30.22 in1023.4 mb 0.00 in0.0 mm 0.00 in0.0 mm 0.00 in0.0 mm
06:15 PM 40.7°F4.8°C 23.3°F-4.8°C 50% 6.0 mph NE9.7 kmh NE -- 30.22 in1023.4 mb 0.00 in0.0 mm 0.00 in0.0 mm 0.00 in0.0 mm
06:16 PM 40.7°F4.8°C 23.3°F-4.8°C 50% 6.0 mph NW9.7 kmh NW -- 30.22 in1023.4 mb 0.00 in0.0 mm 0.00 in0.0 mm 0.00 in0.0 mm
06:17 PM 40.7°F4.8°C 22.8°F-5.1°C 49% 6.0 mph 9.7 kmh -- 30.22 in1023.4 mb 0.00 in0.0 mm 0.00 in0.0 mm 0.00 in0.0 mm
06:18 PM 40.5°F4.7°C 22.6°F-5.2°C 49% 7.0 mph NW11.3 kmh NW -- 30.22 in1023.4 mb 0.00 in0.0 mm 0.00 in0.0 mm 0.00 in0.0 mm
06:19 PM 40.5°F4.7°C 23.1°F-4.9°C 50% 8.0 mph NW12.9 kmh NW -- 30.22 in1023.4 mb 0.00 in0.0 mm 0.00 in0.0 mm 0.00 in0.0 mm
06:20 PM 40.0°F4.4°C 23.1°F-4.9°C 51% 7.0 mph NNW11.3 kmh NNW -- 30.22 in1023.4 mb 0.00 in0.0 mm 0.00 in0.0 mm 0.00 in0.0 mm
06:21 PM 39.9°F4.4°C 23.1°F-4.9°C 51% 4.0 mph W6.4 kmh W -- 30.22 in1023.4 mb 0.00 in0.0 mm 0.00 in0.0 mm 0.00 in0.0 mm
06:22 PM 39.7°F4.3°C 23.8°F-4.6°C 53% 3.0 mph W4.8 kmh W -- 30.22 in1023.4 mb 0.00 in0.0 mm 0.00 in0.0 mm 0.00 in0.0 mm
06:23 PM 39.7°F4.3°C 23.8°F-4.6°C 53% 8.0 mph 12.9 kmh -- 30.22 in1023.4 mb 0.00 in0.0 mm 0.00 in0.0 mm 0.00 in0.0 mm
06:24 PM 39.7°F4.3°C 23.8°F-4.6°C 53% 7.0 mph 11.3 kmh -- 30.22 in1023.4 mb 0.00 in0.0 mm 0.00 in0.0 mm 0.00 in0.0 mm
06:25 PM 39.5°F4.2°C 23.7°F-4.6°C 53% 7.0 mph NE11.3 kmh NE -- 30.22 in1023.4 mb 0.00 in0.0 mm 0.00 in0.0 mm 0.00 in0.0 mm
06:26 PM 39.5°F4.2°C 23.7°F-4.6°C 53% 9.0 mph NNE14.5 kmh NNE -- 30.22 in1023.4 mb 0.00 in0.0 mm 0.00 in0.0 mm 0.00 in0.0 mm
06:27 PM 39.2°F4.0°C 23.8°F-4.6°C 54% 9.0 mph 14.5 kmh -- 30.22 in1023.4 mb 0.00 in0.0 mm 0.00 in0.0 mm 0.00 in0.0 mm
06:28 PM 39.2°F4.0°C 23.8°F-4.6°C 54% 10.0 mph NNE16.1 kmh NNE -- 30.22 in1023.4 mb 0.00 in0.0 mm 0.00 in0.0 mm 0.00 in0.0 mm
06:29 PM 39.0°F3.9°C 23.6°F-4.7°C 54% 7.0 mph NNE11.3 kmh NNE -- 30.22 in1023.4 mb 0.00 in0.0 mm 0.00 in0.0 mm 0.00 in0.0 mm
06:30 PM 38.7°F3.7°C 23.7°F-4.6°C 55% 7.0 mph 11.3 kmh -- 30.22 in1023.4 mb 0.00 in0.0 mm 0.00 in0.0 mm 0.00 in0.0 mm
06:31 PM 38.7°F3.7°C 23.7°F-4.6°C 55% 8.0 mph NNE12.9 kmh NNE -- 30.22 in1023.4 mb 0.00 in0.0 mm 0.00 in0.0 mm 0.00 in0.0 mm
06:32 PM 38.7°F3.7°C 23.7°F-4.6°C 55% 7.0 mph NNE11.3 kmh NNE -- 30.22 in1023.4 mb 0.00 in0.0 mm 0.00 in0.0 mm 0.00 in0.0 mm
06:33 PM 38.7°F3.7°C 23.7°F-4.6°C 55% 7.0 mph 11.3 kmh -- 30.22 in1023.4 mb 0.00 in0.0 mm 0.00 in0.0 mm 0.00 in0.0 mm
06:34 PM 38.4°F3.6°C 23.5°F-4.7°C 55% 4.0 mph NNE6.4 kmh NNE -- 30.22 in1023.4 mb 0.00 in0.0 mm 0.00 in0.0 mm 0.00 in0.0 mm
06:35 PM 38.7°F3.7°C 23.7°F-4.6°C 55% 7.0 mph NNE11.3 kmh NNE -- 30.22 in1023.4 mb 0.00 in0.0 mm 0.00 in0.0 mm 0.00 in0.0 mm
06:36 PM 38.7°F3.7°C 23.7°F-4.6°C 55% 7.0 mph NNW11.3 kmh NNW -- 30.22 in1023.4 mb 0.00 in0.0 mm 0.00 in0.0 mm 0.00 in0.0 mm
06:37 PM 38.7°F3.7°C 23.7°F-4.6°C 55% 8.0 mph NNW12.9 kmh NNW -- 30.22 in1023.4 mb 0.00 in0.0 mm 0.00 in0.0 mm 0.00 in0.0 mm
06:38 PM 38.7°F3.7°C 23.7°F-4.6°C 55% 6.0 mph WNW9.7 kmh WNW -- 30.22 in1023.4 mb 0.00 in0.0 mm 0.00 in0.0 mm 0.00 in0.0 mm
06:39 PM 38.2°F3.4°C 23.2°F-4.9°C 55% 6.0 mph NNW9.7 kmh NNW -- 30.23 in1023.7 mb 0.00 in0.0 mm 0.00 in0.0 mm 0.00 in0.0 mm
06:40 PM 38.0°F3.3°C 23.0°F-5.0°C 55% 4.0 mph NNE6.4 kmh NNE -- 30.22 in1023.4 mb 0.00 in0.0 mm 0.00 in0.0 mm 0.00 in0.0 mm
06:41 PM 38.0°F3.3°C 23.0°F-5.0°C 55% 6.0 mph NNW9.7 kmh NNW -- 30.22 in1023.4 mb 0.00 in0.0 mm 0.00 in0.0 mm 0.00 in0.0 mm
06:42 PM 37.8°F3.2°C 23.3°F-4.8°C 56% 6.0 mph NNW9.7 kmh NNW -- 30.22 in1023.4 mb 0.00 in0.0 mm 0.00 in0.0 mm 0.00 in0.0 mm
06:43 PM 37.8°F3.2°C 23.3°F-4.8°C 56% 6.0 mph NE9.7 kmh NE -- 30.22 in1023.4 mb 0.00 in0.0 mm 0.00 in0.0 mm 0.00 in0.0 mm
06:44 PM 37.7°F3.2°C 24.1°F-4.4°C 58% 5.0 mph NNE8.0 kmh NNE -- 30.22 in1023.4 mb 0.00 in0.0 mm 0.00 in0.0 mm 0.00 in0.0 mm
06:45 PM 37.5°F3.1°C 24.4°F-4.2°C 59% 7.0 mph NNE11.3 kmh NNE -- 30.23 in1023.7 mb 0.00 in0.0 mm 0.00 in0.0 mm 0.00 in0.0 mm
06:46 PM 37.4°F3.0°C 24.2°F-4.3°C 59% 8.0 mph NNE12.9 kmh NNE -- 30.22 in1023.4 mb 0.00 in0.0 mm 0.00 in0.0 mm 0.00 in0.0 mm
06:47 PM 37.4°F3.0°C 24.2°F-4.3°C 59% 7.0 mph 11.3 kmh -- 30.22 in1023.4 mb 0.00 in0.0 mm 0.00 in0.0 mm 0.00 in0.0 mm
06:48 PM 37.2°F2.9°C 24.5°F-4.2°C 60% 5.0 mph NNW8.0 kmh NNW -- 30.22 in1023.4 mb 0.00 in0.0 mm 0.00 in0.0 mm 0.00 in0.0 mm
06:49 PM 37.0°F2.8°C 24.3°F-4.3°C 60% 5.0 mph 8.0 kmh -- 30.23 in1023.7 mb 0.00 in0.0 mm 0.00 in0.0 mm 0.00 in0.0 mm
06:50 PM 37.0°F2.8°C 24.7°F-4.1°C 61% 4.0 mph NNE6.4 kmh NNE -- 30.23 in1023.7 mb 0.00 in0.0 mm 0.00 in0.0 mm 0.00 in0.0 mm
06:51 PM 37.0°F2.8°C 24.7°F-4.1°C 61% 6.0 mph 9.7 kmh -- 30.23 in1023.7 mb 0.00 in0.0 mm 0.00 in0.0 mm 0.00 in0.0 mm
06:52 PM 36.9°F2.7°C 24.5°F-4.2°C 61% 6.0 mph NNE9.7 kmh NNE -- 30.23 in1023.7 mb 0.00 in0.0 mm 0.00 in0.0 mm 0.00 in0.0 mm
06:53 PM 36.7°F2.6°C 24.3°F-4.3°C 61% 8.0 mph NNE12.9 kmh NNE -- 30.23 in1023.7 mb 0.00 in0.0 mm 0.00 in0.0 mm 0.00 in0.0 mm
06:54 PM 36.7°F2.6°C 24.3°F-4.3°C 61% 7.0 mph NNE11.3 kmh NNE -- 30.23 in1023.7 mb 0.00 in0.0 mm 0.00 in0.0 mm 0.00 in0.0 mm
06:55 PM 36.5°F2.5°C 25.0°F-3.9°C 63% 5.0 mph NE8.0 kmh NE -- 30.23 in1023.7 mb 0.00 in0.0 mm 0.00 in0.0 mm 0.00 in0.0 mm
06:56 PM 36.5°F2.5°C 25.0°F-3.9°C 63% 4.0 mph NNE6.4 kmh NNE -- 30.23 in1023.7 mb 0.00 in0.0 mm 0.00 in0.0 mm 0.00 in0.0 mm
06:57 PM 36.2°F2.3°C 24.6°F-4.1°C 63% 6.0 mph NNE9.7 kmh NNE -- 30.23 in1023.7 mb 0.00 in0.0 mm 0.00 in0.0 mm 0.00 in0.0 mm
06:58 PM 36.2°F2.3°C 24.6°F-4.1°C 63% 4.0 mph NNW6.4 kmh NNW -- 30.23 in1023.7 mb 0.00 in0.0 mm 0.00 in0.0 mm 0.00 in0.0 mm
06:59 PM 36.2°F2.3°C 24.6°F-4.1°C 63% 4.0 mph NNW6.4 kmh NNW -- 30.24 in1024.0 mb 0.00 in0.0 mm 0.00 in0.0 mm 0.00 in0.0 mm
07:00 PM 36.1°F2.3°C 24.6°F-4.1°C 63% 5.0 mph NNW8.0 kmh NNW -- 30.23 in1023.7 mb 0.00 in0.0 mm 0.00 in0.0 mm 0.00 in0.0 mm
07:01 PM 35.9°F2.2°C 24.4°F-4.2°C 63% 4.0 mph 6.4 kmh -- 30.23 in1023.7 mb 0.00 in0.0 mm 0.00 in0.0 mm 0.00 in0.0 mm
07:02 PM 35.9°F2.2°C 25.2°F-3.8°C 65% 6.0 mph NNW9.7 kmh NNW -- 30.23 in1023.7 mb 0.00 in0.0 mm 0.00 in0.0 mm 0.00 in0.0 mm
07:03 PM 35.9°F2.2°C 25.2°F-3.8°C 65% 3.0 mph NNE4.8 kmh NNE -- 30.23 in1023.7 mb 0.00 in0.0 mm 0.00 in0.0 mm 0.00 in0.0 mm
07:04 PM 35.9°F2.2°C 25.2°F-3.8°C 65% 4.0 mph NNE6.4 kmh NNE -- 30.23 in1023.7 mb 0.00 in0.0 mm 0.00 in0.0 mm 0.00 in0.0 mm
07:05 PM 35.5°F1.9°C 24.7°F-4.1°C 65% 6.0 mph NNE9.7 kmh NNE -- 30.23 in1023.7 mb 0.00 in0.0 mm 0.00 in0.0 mm 0.00 in0.0 mm
07:06 PM 35.5°F1.9°C 24.7°F-4.1°C 65% 4.0 mph NNW6.4 kmh NNW -- 30.24 in1024.0 mb 0.00 in0.0 mm 0.00 in0.0 mm 0.00 in0.0 mm
07:07 PM 35.4°F1.9°C 24.7°F-4.1°C 65% 3.0 mph NNW4.8 kmh NNW -- 30.23 in1023.7 mb 0.00 in0.0 mm 0.00 in0.0 mm 0.00 in0.0 mm
07:09 PM 35.4°F1.9°C 24.7°F-4.1°C 65% 4.0 mph NNE6.4 kmh NNE -- 30.23 in1023.7 mb 0.00 in0.0 mm 0.00 in0.0 mm 0.00 in0.0 mm
07:10 PM 35.1°F1.7°C 24.3°F-4.3°C 65% 6.0 mph NNE9.7 kmh NNE -- 30.23 in1023.7 mb 0.00 in0.0 mm 0.00 in0.0 mm 0.00 in0.0 mm
07:11 PM 35.1°F1.7°C 24.3°F-4.3°C 65% 4.0 mph NNW6.4 kmh NNW -- 30.23 in1023.7 mb 0.00 in0.0 mm 0.00 in0.0 mm 0.00 in0.0 mm
07:12 PM 35.1°F1.7°C 24.3°F-4.3°C 65% 3.0 mph NE4.8 kmh NE -- 30.23 in1023.7 mb 0.00 in0.0 mm 0.00 in0.0 mm 0.00 in0.0 mm
07:13 PM 35.0°F1.7°C 24.7°F-4.1°C 66% 2.0 mph NW3.2 kmh NW -- 30.23 in1023.7 mb 0.00 in0.0 mm 0.00 in0.0 mm 0.00 in0.0 mm
07:14 PM 35.0°F1.7°C 24.7°F-4.1°C 66% 3.0 mph 4.8 kmh -- 30.23 in1023.7 mb 0.00 in0.0 mm 0.00 in0.0 mm 0.00 in0.0 mm
07:15 PM 34.9°F1.6°C 25.3°F-3.7°C 68% 5.0 mph NW8.0 kmh NW -- 30.23 in1023.7 mb 0.00 in0.0 mm 0.00 in0.0 mm 0.00 in0.0 mm
07:16 PM 34.7°F1.5°C 25.1°F-3.8°C 68% 5.0 mph NNW8.0 kmh NNW -- 30.23 in1023.7 mb 0.00 in0.0 mm 0.00 in0.0 mm 0.00 in0.0 mm
07:17 PM 34.7°F1.5°C 25.1°F-3.8°C 68% 4.0 mph 6.4 kmh -- 30.23 in1023.7 mb 0.00 in0.0 mm 0.00 in0.0 mm 0.00 in0.0 mm
07:18 PM 34.5°F1.4°C 25.3°F-3.7°C 69% 4.0 mph NNW6.4 kmh NNW -- 30.23 in1023.7 mb 0.00 in0.0 mm 0.00 in0.0 mm 0.00 in0.0 mm
07:19 PM 34.2°F1.2°C 24.9°F-3.9°C 69% 4.0 mph NNW6.4 kmh NNW -- 30.23 in1023.7 mb 0.00 in0.0 mm 0.00 in0.0 mm 0.00 in0.0 mm
07:20 PM 34.2°F1.2°C 24.9°F-3.9°C 69% 4.0 mph NW6.4 kmh NW -- 30.23 in1023.7 mb 0.00 in0.0 mm 0.00 in0.0 mm 0.00 in0.0 mm
07:21 PM 34.0°F1.1°C 25.1°F-3.8°C 70% 4.0 mph NNW6.4 kmh NNW -- 30.23 in1023.7 mb 0.00 in0.0 mm 0.00 in0.0 mm 0.00 in0.0 mm
07:22 PM 33.8°F1.0°C 24.9°F-3.9°C 70% 3.0 mph WNW4.8 kmh WNW -- 30.23 in1023.7 mb 0.00 in0.0 mm 0.00 in0.0 mm 0.00 in0.0 mm
07:23 PM 33.8°F1.0°C 24.9°F-3.9°C 70% 5.0 mph WNW8.0 kmh WNW -- 30.23 in1023.7 mb 0.00 in0.0 mm 0.00 in0.0 mm 0.00 in0.0 mm
07:24 PM 33.5°F0.8°C 24.6°F-4.1°C 70% 4.0 mph NNW6.4 kmh NNW -- 30.23 in1023.7 mb 0.00 in0.0 mm 0.00 in0.0 mm 0.00 in0.0 mm
07:25 PM 33.5°F0.8°C 24.6°F-4.1°C 70% 3.0 mph NW4.8 kmh NW -- 30.23 in1023.7 mb 0.00 in0.0 mm 0.00 in0.0 mm 0.00 in0.0 mm
07:27 PM 33.4°F0.8°C 24.6°F-4.1°C 70% 4.0 mph NNW6.4 kmh NNW -- 30.23 in1023.7 mb 0.00 in0.0 mm 0.00 in0.0 mm 0.00 in0.0 mm
07:28 PM 33.2°F0.7°C 24.4°F-4.2°C 70% 2.0 mph NW3.2 kmh NW -- 30.23 in1023.7 mb 0.00 in0.0 mm 0.00 in0.0 mm 0.00 in0.0 mm
07:29 PM 33.2°F0.7°C 24.8°F-4.0°C 71% 4.0 mph NW6.4 kmh NW -- 30.24 in1024.0 mb 0.00 in0.0 mm 0.00 in0.0 mm 0.00 in0.0 mm
07:30 PM 33.0°F0.6°C 24.6°F-4.1°C 71% 4.0 mph NNW6.4 kmh NNW -- 30.24 in1024.0 mb 0.00 in0.0 mm 0.00 in0.0 mm 0.00 in0.0 mm
07:31 PM 33.0°F0.6°C 24.6°F-4.1°C 71% 4.0 mph NW6.4 kmh NW -- 30.23 in1023.7 mb 0.00 in0.0 mm 0.00 in0.0 mm 0.00 in0.0 mm
07:32 PM 33.0°F0.6°C 24.6°F-4.1°C 71% 4.0 mph WNW6.4 kmh WNW -- 30.23 in1023.7 mb 0.00 in0.0 mm 0.00 in0.0 mm 0.00 in0.0 mm
07:33 PM 33.0°F0.6°C 24.6°F-4.1°C 71% 3.0 mph NNW4.8 kmh NNW -- 30.23 in1023.7 mb 0.00 in0.0 mm 0.00 in0.0 mm 0.00 in0.0 mm
07:34 PM 33.0°F0.6°C 24.6°F-4.1°C 71% 5.0 mph W8.0 kmh W -- 30.23 in1023.7 mb 0.00 in0.0 mm 0.00 in0.0 mm 0.00 in0.0 mm
07:35 PM 33.0°F0.6°C 24.6°F-4.1°C 71% 5.0 mph NNW8.0 kmh NNW -- 30.23 in1023.7 mb 0.00 in0.0 mm 0.00 in0.0 mm 0.00 in0.0 mm
07:36 PM 33.0°F0.6°C 24.6°F-4.1°C 71% 5.0 mph WNW8.0 kmh WNW -- 30.23 in1023.7 mb 0.00 in0.0 mm 0.00 in0.0 mm 0.00 in0.0 mm
07:37 PM 33.0°F0.6°C 24.6°F-4.1°C 71% 4.0 mph NNW6.4 kmh NNW -- 30.23 in1023.7 mb 0.00 in0.0 mm 0.00 in0.0 mm 0.00 in0.0 mm
07:38 PM 33.0°F0.6°C 24.6°F-4.1°C 71% 5.0 mph WNW8.0 kmh WNW -- 30.23 in1023.7 mb 0.00 in0.0 mm 0.00 in0.0 mm 0.00 in0.0 mm
07:39 PM 33.0°F0.6°C 24.6°F-4.1°C 71% 6.0 mph NNW9.7 kmh NNW -- 30.24 in1024.0 mb 0.00 in0.0 mm 0.00 in0.0 mm 0.00 in0.0 mm
07:40 PM 33.0°F0.6°C 24.6°F-4.1°C 71% 5.0 mph NNW8.0 kmh NNW -- 30.24 in1024.0 mb 0.00 in0.0 mm 0.00 in0.0 mm 0.00 in0.0 mm
07:41 PM 33.0°F0.6°C 24.6°F-4.1°C 71% 5.0 mph NW8.0 kmh NW -- 30.24 in1024.0 mb 0.00 in0.0 mm 0.00 in0.0 mm 0.00 in0.0 mm
07:42 PM 33.0°F0.6°C 24.6°F-4.1°C 71% 6.0 mph WNW9.7 kmh WNW -- 30.24 in1024.0 mb 0.00 in0.0 mm 0.00 in0.0 mm 0.00 in0.0 mm
07:43 PM 33.0°F0.6°C 24.6°F-4.1°C 71% 5.0 mph NW8.0 kmh NW -- 30.24 in1024.0 mb 0.00 in0.0 mm 0.00 in0.0 mm 0.00 in0.0 mm
07:45 PM 33.0°F0.6°C 24.6°F-4.1°C 71% 5.0 mph WNW8.0 kmh WNW -- 30.24 in1024.0 mb 0.00 in0.0 mm 0.00 in0.0 mm 0.00 in0.0 mm
07:47 PM 33.0°F0.6°C 24.6°F-4.1°C 71% 4.0 mph NW6.4 kmh NW -- 30.24 in1024.0 mb 0.00 in0.0 mm 0.00 in0.0 mm 0.00 in0.0 mm
07:48 PM 32.9°F0.5°C 24.4°F-4.2°C 71% 4.0 mph NNW6.4 kmh NNW -- 30.24 in1024.0 mb 0.00 in0.0 mm 0.00 in0.0 mm 0.00 in0.0 mm
07:49 PM 32.9°F0.5°C 24.4°F-4.2°C 71% 5.0 mph WNW8.0 kmh WNW -- 30.24 in1024.0 mb 0.00 in0.0 mm 0.00 in0.0 mm 0.00 in0.0 mm
07:51 PM 32.9°F0.5°C 24.4°F-4.2°C 71% 5.0 mph NW8.0 kmh NW -- 30.24 in1024.0 mb 0.00 in0.0 mm 0.00 in0.0 mm 0.00 in0.0 mm
07:53 PM 32.9°F0.5°C 24.4°F-4.2°C 71% 5.0 mph WNW8.0 kmh WNW -- 30.24 in1024.0 mb 0.00 in0.0 mm 0.00 in0.0 mm 0.00 in0.0 mm
07:54 PM 32.9°F0.5°C 24.4°F-4.2°C 71% 7.0 mph WNW11.3 kmh WNW -- 30.24 in1024.0 mb 0.00 in0.0 mm 0.00 in0.0 mm 0.00 in0.0 mm
07:55 PM 32.9°F0.5°C 24.4°F-4.2°C 71% 6.0 mph NNW9.7 kmh NNW -- 30.24 in1024.0 mb 0.00 in0.0 mm 0.00 in0.0 mm 0.00 in0.0 mm
07:56 PM 32.9°F0.5°C 24.4°F-4.2°C 71% 3.0 mph NW4.8 kmh NW -- 30.24 in1024.0 mb 0.00 in0.0 mm 0.00 in0.0 mm 0.00 in0.0 mm
07:57 PM 32.6°F0.3°C 24.1°F-4.4°C 71% 4.0 mph WNW6.4 kmh WNW -- 30.24 in1024.0 mb 0.00 in0.0 mm 0.00 in0.0 mm 0.00 in0.0 mm
07:58 PM 32.6°F0.3°C 24.1°F-4.4°C 71% 6.0 mph NNW9.7 kmh NNW -- 30.24 in1024.0 mb 0.00 in0.0 mm 0.00 in0.0 mm 0.00 in0.0 mm
07:59 PM 32.6°F0.3°C 24.1°F-4.4°C 71% 5.0 mph NW8.0 kmh NW -- 30.24 in1024.0 mb 0.00 in0.0 mm 0.00 in0.0 mm 0.00 in0.0 mm
08:00 PM 32.6°F0.3°C 24.1°F-4.4°C 71% 4.0 mph NNW6.4 kmh NNW -- 30.25 in1024.4 mb 0.00 in0.0 mm 0.00 in0.0 mm 0.00 in0.0 mm
08:01 PM 32.6°F0.3°C 24.1°F-4.4°C 71% 5.0 mph WNW8.0 kmh WNW -- 30.25 in1024.4 mb 0.00 in0.0 mm 0.00 in0.0 mm 0.00 in0.0 mm
08:02 PM 32.6°F0.3°C 24.1°F-4.4°C 71% 6.0 mph NNW9.7 kmh NNW -- 30.24 in1024.0 mb 0.00 in0.0 mm 0.00 in0.0 mm 0.00 in0.0 mm
08:03 PM 32.6°F0.3°C 24.1°F-4.4°C 71% 6.0 mph WNW9.7 kmh WNW -- 30.24 in1024.0 mb 0.00 in0.0 mm 0.00 in0.0 mm 0.00 in0.0 mm
08:04 PM 32.6°F0.3°C 24.1°F-4.4°C 71% 5.0 mph NW8.0 kmh NW -- 30.24 in1024.0 mb 0.00 in0.0 mm 0.00 in0.0 mm 0.00 in0.0 mm
08:05 PM 32.6°F0.3°C 24.1°F-4.4°C 71% 5.0 mph WNW8.0 kmh WNW -- 30.25 in1024.4 mb 0.00 in0.0 mm 0.00 in0.0 mm 0.00 in0.0 mm
08:06 PM 32.6°F0.3°C 23.7°F-4.6°C 70% 5.0 mph WNW8.0 kmh WNW -- 30.25 in1024.4 mb 0.00 in0.0 mm 0.00 in0.0 mm 0.00 in0.0 mm
08:07 PM 32.6°F0.3°C 23.7°F-4.6°C 70% 6.0 mph NW9.7 kmh NW -- 30.25 in1024.4 mb 0.00 in0.0 mm 0.00 in0.0 mm 0.00 in0.0 mm
08:08 PM 32.6°F0.3°C 23.7°F-4.6°C 70% 5.0 mph WNW8.0 kmh WNW -- 30.25 in1024.4 mb 0.00 in0.0 mm 0.00 in0.0 mm 0.00 in0.0 mm
08:09 PM 32.5°F0.3°C 23.7°F-4.6°C 70% 4.0 mph NW6.4 kmh NW -- 30.25 in1024.4 mb 0.00 in0.0 mm 0.00 in0.0 mm 0.00 in0.0 mm
08:10 PM 32.5°F0.3°C 23.7°F-4.6°C 70% 4.0 mph NNW6.4 kmh NNW -- 30.25 in1024.4 mb 0.00 in0.0 mm 0.00 in0.0 mm 0.00 in0.0 mm
08:11 PM 32.4°F0.2°C 23.6°F-4.7°C 70% 4.0 mph NW6.4 kmh NW -- 30.25 in1024.4 mb 0.00 in0.0 mm 0.00 in0.0 mm 0.00 in0.0 mm
08:12 PM 32.4°F0.2°C 23.6°F-4.7°C 70% 5.0 mph NNW8.0 kmh NNW -- 30.25 in1024.4 mb 0.00 in0.0 mm 0.00 in0.0 mm 0.00 in0.0 mm
08:13 PM 32.4°F0.2°C 23.6°F-4.7°C 70% 3.0 mph NNW4.8 kmh NNW -- 30.25 in1024.4 mb 0.00 in0.0 mm 0.00 in0.0 mm 0.00 in0.0 mm
08:14 PM 32.2°F0.1°C 23.4°F-4.8°C 70% 4.0 mph NNW6.4 kmh NNW -- 30.25 in1024.4 mb 0.00 in0.0 mm 0.00 in0.0 mm 0.00 in0.0 mm
08:16 PM 32.2°F0.1°C 23.4°F-4.8°C 70% 3.0 mph WNW4.8 kmh WNW -- 30.25 in1024.4 mb 0.00 in0.0 mm 0.00 in0.0 mm 0.00 in0.0 mm
08:17 PM 32.2°F0.1°C 23.4°F-4.8°C 70% 4.0 mph NW6.4 kmh NW -- 30.25 in1024.4 mb 0.00 in0.0 mm 0.00 in0.0 mm 0.00 in0.0 mm
08:18 PM 31.9°F-0.1°C 23.0°F-5.0°C 70% 3.0 mph 4.8 kmh -- 30.25 in1024.4 mb 0.00 in0.0 mm 0.00 in0.0 mm 0.00 in0.0 mm
08:19 PM 31.9°F-0.1°C 23.0°F-5.0°C 70% 4.0 mph 6.4 kmh -- 30.25 in1024.4 mb 0.00 in0.0 mm 0.00 in0.0 mm 0.00 in0.0 mm
08:20 PM 31.7°F-0.2°C 22.9°F-5.1°C 70% 4.0 mph WNW6.4 kmh WNW -- 30.25 in1024.4 mb 0.00 in0.0 mm 0.00 in0.0 mm 0.00 in0.0 mm
08:21 PM 31.7°F-0.2°C 22.9°F-5.1°C 70% 3.0 mph NW4.8 kmh NW -- 30.25 in1024.4 mb 0.00 in0.0 mm 0.00 in0.0 mm 0.00 in0.0 mm
08:22 PM 31.7°F-0.2°C 23.2°F-4.9°C 71% 4.0 mph NW6.4 kmh NW -- 30.25 in1024.4 mb 0.00 in0.0 mm 0.00 in0.0 mm 0.00 in0.0 mm
08:23 PM 31.7°F-0.2°C 23.2°F-4.9°C 71% 4.0 mph WNW6.4 kmh WNW -- 30.25 in1024.4 mb 0.00 in0.0 mm 0.00 in0.0 mm 0.00 in0.0 mm
08:24 PM 31.6°F-0.2°C 23.2°F-4.9°C 71% 5.0 mph NW8.0 kmh NW -- 30.25 in1024.4 mb 0.00 in0.0 mm 0.00 in0.0 mm 0.00 in0.0 mm
08:25 PM 31.6°F-0.2°C 23.2°F-4.9°C 71% 6.0 mph WNW9.7 kmh WNW -- 30.25 in1024.4 mb 0.00 in0.0 mm 0.00 in0.0 mm 0.00 in0.0 mm
08:26 PM 31.6°F-0.2°C 23.2°F-4.9°C 71% 7.0 mph NW11.3 kmh NW -- 30.25 in1024.4 mb 0.00 in0.0 mm 0.00 in0.0 mm 0.00 in0.0 mm
08:27 PM 31.6°F-0.2°C 23.2°F-4.9°C 71% 6.0 mph NNW9.7 kmh NNW -- 30.25 in1024.4 mb 0.00 in0.0 mm 0.00 in0.0 mm 0.00 in0.0 mm
08:28 PM 31.6°F-0.2°C 23.2°F-4.9°C 71% 8.0 mph WNW12.9 kmh WNW -- 30.25 in1024.4 mb 0.00 in0.0 mm 0.00 in0.0 mm 0.00 in0.0 mm
08:29 PM 31.6°F-0.2°C 23.2°F-4.9°C 71% 6.0 mph NNW9.7 kmh NNW -- 30.25 in1024.4 mb 0.00 in0.0 mm 0.00 in0.0 mm 0.00 in0.0 mm
08:30 PM 31.7°F-0.2°C 22.9°F-5.1°C 70% 6.0 mph NW9.7 kmh NW -- 30.25 in1024.4 mb 0.00 in0.0 mm 0.00 in0.0 mm 0.00 in0.0 mm
08:31 PM 31.7°F-0.2°C 22.9°F-5.1°C 70% 8.0 mph WNW12.9 kmh WNW -- 30.25 in1024.4 mb 0.00 in0.0 mm 0.00 in0.0 mm 0.00 in0.0 mm
08:32 PM 31.7°F-0.2°C 22.9°F-5.1°C 70% 5.0 mph 8.0 kmh -- 30.25 in1024.4 mb 0.00 in0.0 mm 0.00 in0.0 mm 0.00 in0.0 mm
08:33 PM 31.7°F-0.2°C 22.9°F-5.1°C 70% 5.0 mph NNW8.0 kmh NNW -- 30.25 in1024.4 mb 0.00 in0.0 mm 0.00 in0.0 mm 0.00 in0.0 mm
08:34 PM 31.7°F-0.2°C 22.9°F-5.1°C 70% 5.0 mph WNW8.0 kmh WNW -- 30.25 in1024.4 mb 0.00 in0.0 mm 0.00 in0.0 mm 0.00 in0.0 mm
08:35 PM 31.7°F-0.2°C 22.9°F-5.1°C 70% 5.0 mph NW8.0 kmh NW -- 30.25 in1024.4 mb 0.00 in0.0 mm 0.00 in0.0 mm 0.00 in0.0 mm
08:36 PM 31.7°F-0.2°C 22.9°F-5.1°C 70% 5.0 mph NNW8.0 kmh NNW -- 30.25 in1024.4 mb 0.00 in0.0 mm 0.00 in0.0 mm 0.00 in0.0 mm
08:37 PM 31.7°F-0.2°C 22.9°F-5.1°C 70% 4.0 mph NW6.4 kmh NW -- 30.25 in1024.4 mb 0.00 in0.0 mm 0.00 in0.0 mm 0.00 in0.0 mm
08:38 PM 31.7°F-0.2°C 22.9°F-5.1°C 70% 6.0 mph NNW9.7 kmh NNW -- 30.25 in1024.4 mb 0.00 in0.0 mm 0.00 in0.0 mm 0.00 in0.0 mm
08:39 PM 31.7°F-0.2°C 22.9°F-5.1°C 70% 4.0 mph W6.4 kmh W -- 30.25 in1024.4 mb 0.00 in0.0 mm 0.00 in0.0 mm 0.00 in0.0 mm
08:40 PM 31.7°F-0.2°C 22.9°F-5.1°C 70% 5.0 mph NW8.0 kmh NW -- 30.25 in1024.4 mb 0.00 in0.0 mm 0.00 in0.0 mm 0.00 in0.0 mm
08:41 PM 31.6°F-0.2°C 22.9°F-5.1°C 70% 5.0 mph NNW8.0 kmh NNW -- 30.25 in1024.4 mb 0.00 in0.0 mm 0.00 in0.0 mm 0.00 in0.0 mm
08:42 PM 31.6°F-0.2°C 22.9°F-5.1°C 70% 5.0 mph NW8.0 kmh NW -- 30.25 in1024.4 mb 0.00 in0.0 mm 0.00 in0.0 mm 0.00 in0.0 mm
08:44 PM 31.6°F-0.2°C 22.9°F-5.1°C 70% 6.0 mph 9.7 kmh -- 30.25 in1024.4 mb 0.00 in0.0 mm 0.00 in0.0 mm 0.00 in0.0 mm
08:45 PM 31.5°F-0.3°C 22.7°F-5.2°C 70% 5.0 mph NW8.0 kmh NW -- 30.25 in1024.4 mb 0.00 in0.0 mm 0.00 in0.0 mm 0.00 in0.0 mm
08:46 PM 31.5°F-0.3°C 22.7°F-5.2°C 70% 5.0 mph NNW8.0 kmh NNW -- 30.25 in1024.4 mb 0.00 in0.0 mm 0.00 in0.0 mm 0.00 in0.0 mm
08:47 PM 31.5°F-0.3°C 22.7°F-5.2°C 70% 5.0 mph WNW8.0 kmh WNW -- 30.25 in1024.4 mb 0.00 in0.0 mm 0.00 in0.0 mm 0.00 in0.0 mm
08:48 PM 31.5°F-0.3°C 22.7°F-5.2°C 70% 5.0 mph NW8.0 kmh NW -- 30.25 in1024.4 mb 0.00 in0.0 mm 0.00 in0.0 mm 0.00 in0.0 mm
08:49 PM 31.2°F-0.4°C 22.5°F-5.3°C 70% 5.0 mph NNW8.0 kmh NNW -- 30.25 in1024.4 mb 0.00 in0.0 mm 0.00 in0.0 mm 0.00 in0.0 mm
08:50 PM 31.2°F-0.4°C 22.5°F-5.3°C 70% 4.0 mph WNW6.4 kmh WNW -- 30.25 in1024.4 mb 0.00 in0.0 mm 0.00 in0.0 mm 0.00 in0.0 mm
08:51 PM 31.2°F-0.4°C 22.5°F-5.3°C 70% 4.0 mph NW6.4 kmh NW -- 30.25 in1024.4 mb 0.00 in0.0 mm 0.00 in0.0 mm 0.00 in0.0 mm
08:52 PM 31.2°F-0.4°C 22.5°F-5.3°C 70% 5.0 mph NW8.0 kmh NW -- 30.25 in1024.4 mb 0.00 in0.0 mm 0.00 in0.0 mm 0.00 in0.0 mm
08:53 PM 31.2°F-0.4°C 22.5°F-5.3°C 70% 4.0 mph NNW6.4 kmh NNW -- 30.25 in1024.4 mb 0.00 in0.0 mm 0.00 in0.0 mm 0.00 in0.0 mm
08:54 PM 31.2°F-0.4°C 22.5°F-5.3°C 70% 4.0 mph WNW6.4 kmh WNW -- 30.25 in1024.4 mb 0.00 in0.0 mm 0.00 in0.0 mm 0.00 in0.0 mm
08:55 PM 31.2°F-0.4°C 22.5°F-5.3°C 70% 4.0 mph NNW6.4 kmh NNW -- 30.25 in1024.4 mb 0.00 in0.0 mm 0.00 in0.0 mm 0.00 in0.0 mm
08:56 PM 31.1°F-0.5°C 22.3°F-5.4°C 70% 4.0 mph NW6.4 kmh NW -- 30.25 in1024.4 mb 0.00 in0.0 mm 0.00 in0.0 mm 0.00 in0.0 mm
08:57 PM 31.1°F-0.5°C 22.3°F-5.4°C 70% 4.0 mph NNW6.4 kmh NNW -- 30.25 in1024.4 mb 0.00 in0.0 mm 0.00 in0.0 mm 0.00 in0.0 mm
08:59 PM 31.1°F-0.5°C 22.3°F-5.4°C 70% 4.0 mph WNW6.4 kmh WNW -- 30.26 in1024.7 mb 0.00 in0.0 mm 0.00 in0.0 mm 0.00 in0.0 mm
09:00 PM 31.1°F-0.5°C 22.3°F-5.4°C 70% 5.0 mph NW8.0 kmh NW -- 30.26 in1024.7 mb 0.00 in0.0 mm 0.00 in0.0 mm 0.00 in0.0 mm
09:01 PM 31.1°F-0.5°C 22.3°F-5.4°C 70% 5.0 mph W8.0 kmh W -- 30.26 in1024.7 mb 0.00 in0.0 mm 0.00 in0.0 mm 0.00 in0.0 mm
09:02 PM 31.1°F-0.5°C 22.3°F-5.4°C 70% 5.0 mph WNW8.0 kmh WNW -- 30.26 in1024.7 mb 0.00 in0.0 mm 0.00 in0.0 mm 0.00 in0.0 mm
09:03 PM 31.1°F-0.5°C 22.3°F-5.4°C 70% 4.0 mph NNW6.4 kmh NNW -- 30.26 in1024.7 mb 0.00 in0.0 mm 0.00 in0.0 mm 0.00 in0.0 mm
09:04 PM 31.1°F-0.5°C 22.3°F-5.4°C 70% 4.0 mph W6.4 kmh W -- 30.26 in1024.7 mb 0.00 in0.0 mm 0.00 in0.0 mm 0.00 in0.0 mm
09:05 PM 31.1°F-0.5°C 22.3°F-5.4°C 70% 4.0 mph NW6.4 kmh NW -- 30.26 in1024.7 mb 0.00 in0.0 mm 0.00 in0.0 mm 0.00 in0.0 mm
09:06 PM 30.8°F-0.7°C 22.0°F-5.6°C 70% 4.0 mph NW6.4 kmh NW -- 30.26 in1024.7 mb 0.00 in0.0 mm 0.00 in0.0 mm 0.00 in0.0 mm
09:08 PM 30.8°F-0.7°C 22.0°F-5.6°C 70% 4.0 mph WNW6.4 kmh WNW -- 30.26 in1024.7 mb 0.00 in0.0 mm 0.00 in0.0 mm 0.00 in0.0 mm
09:09 PM 30.8°F-0.7°C 22.0°F-5.6°C 70% 3.0 mph WNW4.8 kmh WNW -- 30.26 in1024.7 mb 0.00 in0.0 mm 0.00 in0.0 mm 0.00 in0.0 mm
09:10 PM 30.8°F-0.7°C 22.0°F-5.6°C 70% 4.0 mph WNW6.4 kmh WNW -- 30.26 in1024.7 mb 0.00 in0.0 mm 0.00 in0.0 mm 0.00 in0.0 mm
09:11 PM 30.7°F-0.7°C 22.0°F-5.6°C 70% 4.0 mph NNW6.4 kmh NNW -- 30.26 in1024.7 mb 0.00 in0.0 mm 0.00 in0.0 mm 0.00 in0.0 mm
09:12 PM 30.7°F-0.7°C 22.0°F-5.6°C 70% 5.0 mph NW8.0 kmh NW -- 30.26 in1024.7 mb 0.00 in0.0 mm 0.00 in0.0 mm 0.00 in0.0 mm
09:13 PM 30.7°F-0.7°C 22.0°F-5.6°C 70% 5.0 mph NNW8.0 kmh NNW -- 30.26 in1024.7 mb 0.00 in0.0 mm 0.00 in0.0 mm 0.00 in0.0 mm
09:15 PM 30.7°F-0.7°C 22.0°F-5.6°C 70% 4.0 mph WNW6.4 kmh WNW -- 30.26 in1024.7 mb 0.00 in0.0 mm 0.00 in0.0 mm 0.00 in0.0 mm
09:16 PM 30.7°F-0.7°C 22.0°F-5.6°C 70% 5.0 mph NW8.0 kmh NW -- 30.26 in1024.7 mb 0.00 in0.0 mm 0.00 in0.0 mm 0.00 in0.0 mm
09:17 PM 30.7°F-0.7°C 22.0°F-5.6°C 70% 5.0 mph NNW8.0 kmh NNW -- 30.26 in1024.7 mb 0.00 in0.0 mm 0.00 in0.0 mm 0.00 in0.0 mm
09:18 PM 30.7°F-0.7°C 22.0°F-5.6°C 70% 4.0 mph WNW6.4 kmh WNW -- 30.26 in1024.7 mb 0.00 in0.0 mm 0.00 in0.0 mm 0.00 in0.0 mm
09:19 PM 30.7°F-0.7°C 22.0°F-5.6°C 70% 4.0 mph NW6.4 kmh NW -- 30.26 in1024.7 mb 0.00 in0.0 mm 0.00 in0.0 mm 0.00 in0.0 mm
09:20 PM 30.7°F-0.7°C 22.0°F-5.6°C 70% 5.0 mph NW8.0 kmh NW -- 30.26 in1024.7 mb 0.00 in0.0 mm 0.00 in0.0 mm 0.00 in0.0 mm
09:21 PM 30.7°F-0.7°C 22.0°F-5.6°C 70% 4.0 mph NNW6.4 kmh NNW -- 30.26 in1024.7 mb 0.00 in0.0 mm 0.00 in0.0 mm 0.00 in0.0 mm
09:22 PM 30.7°F-0.7°C 22.0°F-5.6°C 70% 4.0 mph NW6.4 kmh NW -- 30.26 in1024.7 mb 0.00 in0.0 mm 0.00 in0.0 mm 0.00 in0.0 mm
09:23 PM 30.7°F-0.7°C 22.0°F-5.6°C 70% 3.0 mph NW4.8 kmh NW -- 30.26 in1024.7 mb 0.00 in0.0 mm 0.00 in0.0 mm 0.00 in0.0 mm
09:24 PM 30.7°F-0.7°C 22.0°F-5.6°C 70% 5.0 mph NW8.0 kmh NW -- 30.26 in1024.7 mb 0.00 in0.0 mm 0.00 in0.0 mm 0.00 in0.0 mm
09:25 PM 30.7°F-0.7°C 22.0°F-5.6°C 70% 3.0 mph WNW4.8 kmh WNW -- 30.25 in1024.4 mb 0.00 in0.0 mm 0.00 in0.0 mm 0.00 in0.0 mm
09:26 PM 30.7°F-0.7°C 22.0°F-5.6°C 70% 3.0 mph NNW4.8 kmh NNW -- 30.26 in1024.7 mb 0.00 in0.0 mm 0.00 in0.0 mm 0.00 in0.0 mm
09:27 PM 30.5°F-0.8°C 21.8°F-5.7°C 70% 5.0 mph NNW8.0 kmh NNW -- 30.26 in1024.7 mb 0.00 in0.0 mm 0.00 in0.0 mm 0.00 in0.0 mm
09:28 PM 30.5°F-0.8°C 21.8°F-5.7°C 70% 5.0 mph NW8.0 kmh NW -- 30.26 in1024.7 mb 0.00 in0.0 mm 0.00 in0.0 mm 0.00 in0.0 mm
09:29 PM 30.5°F-0.8°C 21.8°F-5.7°C 70% 4.0 mph NNW6.4 kmh NNW -- 30.26 in1024.7 mb 0.00 in0.0 mm 0.00 in0.0 mm 0.00 in0.0 mm
09:30 PM 30.5°F-0.8°C 21.8°F-5.7°C 70% 4.0 mph NW6.4 kmh NW -- 30.26 in1024.7 mb 0.00 in0.0 mm 0.00 in0.0 mm 0.00 in0.0 mm
09:31 PM 30.5°F-0.8°C 21.8°F-5.7°C 70% 4.0 mph WNW6.4 kmh WNW -- 30.26 in1024.7 mb 0.00 in0.0 mm 0.00 in0.0 mm 0.00 in0.0 mm
09:32 PM 30.3°F-0.9°C 21.7°F-5.7°C 70% 4.0 mph NW6.4 kmh NW -- 30.26 in1024.7 mb 0.00 in0.0 mm 0.00 in0.0 mm 0.00 in0.0 mm
09:33 PM 30.3°F-0.9°C 22.0°F-5.6°C 71% 4.0 mph NNW6.4 kmh NNW -- 30.26 in1024.7 mb 0.00 in0.0 mm 0.00 in0.0 mm 0.00 in0.0 mm
09:34 PM 30.3°F-0.9°C 22.0°F-5.6°C 71% 3.0 mph WNW4.8 kmh WNW -- 30.26 in1024.7 mb 0.00 in0.0 mm 0.00 in0.0 mm